<?xml version='1.0' encoding='UTF-8'?><gpx version="1.1" creator="JPX - https://github.com/jenetics/jpx" xmlns="http://www.topografix.com/GPX/1/1"><trk><trkseg><trkpt lat="49.5484966270507" lon="2.450502772100607"><ele>124.0</ele><time>2026-04-02T16:16:25Z</time></trkpt><trkpt lat="49.54853740424135" lon="2.4506039697610875"><ele>124.0</ele><time>2026-04-02T16:16:27Z</time></trkpt><trkpt lat="49.54859957527166" lon="2.4506999803378364"><ele>124.0</ele><time>2026-04-02T16:16:29Z</time></trkpt><trkpt lat="49.54867915884257" lon="2.4508058433777555"><ele>124.0</ele><time>2026-04-02T16:16:31Z</time></trkpt><trkpt lat="49.54874468550326" lon="2.4509321692789743"><ele>124.0</ele><time>2026-04-02T16:16:33Z</time></trkpt><trkpt lat="49.548810650499945" lon="2.451062106404184"><ele>124.2</ele><time>2026-04-02T16:16:35Z</time></trkpt><trkpt lat="49.54888772633058" lon="2.451194415579453"><ele>124.4</ele><time>2026-04-02T16:16:37Z</time></trkpt><trkpt lat="49.54895683531898" lon="2.451297942005159"><ele>124.6</ele><time>2026-04-02T16:16:39Z</time></trkpt><trkpt lat="49.54902101415561" lon="2.4513910440494806"><ele>124.8</ele><time>2026-04-02T16:16:41Z</time></trkpt><trkpt lat="49.54907765392628" lon="2.451506215834283"><ele>125.0</ele><time>2026-04-02T16:16:43Z</time></trkpt><trkpt lat="49.549121976099784" lon="2.45160176124533"><ele>124.99999999999999</ele><time>2026-04-02T16:16:45Z</time></trkpt><trkpt lat="49.5491783692548" lon="2.451702053566553"><ele>125.0</ele><time>2026-04-02T16:16:47Z</time></trkpt><trkpt lat="49.549237131654984" lon="2.451792831943605"><ele>125.0</ele><time>2026-04-02T16:16:49Z</time></trkpt><trkpt lat="49.54928905565018" lon="2.4518971068129156"><ele>125.0</ele><time>2026-04-02T16:16:51Z</time></trkpt><trkpt lat="49.5493463847869" lon="2.4520034073883976"><ele>124.99999999999999</ele><time>2026-04-02T16:16:53Z</time></trkpt><trkpt lat="49.549396873944474" lon="2.452117016486524"><ele>125.0</ele><time>2026-04-02T16:16:55Z</time></trkpt><trkpt lat="49.54942256673355" lon="2.4522617901699997"><ele>125.0</ele><time>2026-04-02T16:16:57Z</time></trkpt><trkpt lat="49.54944408000296" lon="2.4523949756392884"><ele>125.0</ele><time>2026-04-02T16:16:59Z</time></trkpt><trkpt lat="49.549492405448916" lon="2.4525740551366284"><ele>125.0</ele><time>2026-04-02T16:17:01Z</time></trkpt><trkpt lat="49.549514327850325" lon="2.4526890056938035"><ele>125.0</ele><time>2026-04-02T16:17:03Z</time></trkpt><trkpt lat="49.549537499525684" lon="2.4528369403312134"><ele>125.0</ele><time>2026-04-02T16:17:05Z</time></trkpt><trkpt lat="49.54957903054128" lon="2.452976462080618"><ele>124.8</ele><time>2026-04-02T16:17:07Z</time></trkpt><trkpt lat="49.54966217644681" lon="2.4530708487752966"><ele>124.6</ele><time>2026-04-02T16:17:09Z</time></trkpt><trkpt lat="49.549741506382105" lon="2.453190041951587"><ele>124.4</ele><time>2026-04-02T16:17:11Z</time></trkpt><trkpt lat="49.549816265472025" lon="2.4532964407040425"><ele>124.2</ele><time>2026-04-02T16:17:13Z</time></trkpt><trkpt lat="49.549893778276136" lon="2.4533985941903786"><ele>124.0</ele><time>2026-04-02T16:17:15Z</time></trkpt><trkpt lat="49.549940641008995" lon="2.4535360516620877"><ele>124.0</ele><time>2026-04-02T16:17:17Z</time></trkpt><trkpt lat="49.54992504161444" lon="2.453682932784979"><ele>124.0</ele><time>2026-04-02T16:17:19Z</time></trkpt><trkpt lat="49.549895748453025" lon="2.453820851088822"><ele>124.0</ele><time>2026-04-02T16:17:21Z</time></trkpt><trkpt lat="49.54985589959245" lon="2.4539546153846987"><ele>124.0</ele><time>2026-04-02T16:17:23Z</time></trkpt><trkpt lat="49.54982112982521" lon="2.4540916689539"><ele>124.0</ele><time>2026-04-02T16:17:25Z</time></trkpt><trkpt lat="49.549783256198985" lon="2.454231401696624"><ele>124.16666666666667</ele><time>2026-04-02T16:17:27Z</time></trkpt><trkpt lat="49.54974536158237" lon="2.4543655079618754"><ele>124.33333333333334</ele><time>2026-04-02T16:17:29Z</time></trkpt><trkpt lat="49.54971307176863" lon="2.454490580152948"><ele>124.5</ele><time>2026-04-02T16:17:31Z</time></trkpt><trkpt lat="49.54968223302205" lon="2.454605095948758"><ele>124.66666666666666</ele><time>2026-04-02T16:17:33Z</time></trkpt><trkpt lat="49.549653809536395" lon="2.4547151138402605"><ele>124.83333333333333</ele><time>2026-04-02T16:17:35Z</time></trkpt><trkpt lat="49.54962004948633" lon="2.4548323971511468"><ele>125.0</ele><time>2026-04-02T16:17:38Z</time></trkpt><trkpt lat="49.54957165756605" lon="2.4549742395205647"><ele>125.2</ele><time>2026-04-02T16:17:42Z</time></trkpt><trkpt lat="49.54953260913032" lon="2.4551001532193917"><ele>125.4</ele><time>2026-04-02T16:17:44Z</time></trkpt><trkpt lat="49.549505272690055" lon="2.4552219245069375"><ele>125.6</ele><time>2026-04-02T16:17:46Z</time></trkpt><trkpt lat="49.5494828443116" lon="2.455356716067875"><ele>125.8</ele><time>2026-04-02T16:17:48Z</time></trkpt><trkpt lat="49.549438612417546" lon="2.455496239228717"><ele>126.0</ele><time>2026-04-02T16:17:50Z</time></trkpt><trkpt lat="49.54939752105484" lon="2.4556421118146408"><ele>126.16666666666667</ele><time>2026-04-02T16:17:52Z</time></trkpt><trkpt lat="49.54936007183243" lon="2.4557679599896782"><ele>126.33333333333334</ele><time>2026-04-02T16:17:54Z</time></trkpt><trkpt lat="49.54932646499172" lon="2.4558932148960584"><ele>126.5</ele><time>2026-04-02T16:17:56Z</time></trkpt><trkpt lat="49.54929164737733" lon="2.4560144595972533"><ele>126.66666666666667</ele><time>2026-04-02T16:17:58Z</time></trkpt><trkpt lat="49.549261638403195" lon="2.4561396418755947"><ele>126.83333333333334</ele><time>2026-04-02T16:18:00.001Z</time></trkpt><trkpt lat="49.549231249415016" lon="2.456259547342662"><ele>127.0</ele><time>2026-04-02T16:18:02.001Z</time></trkpt><trkpt lat="49.5491934843646" lon="2.4563843231449702"><ele>127.00000000000001</ele><time>2026-04-02T16:18:04.001Z</time></trkpt><trkpt lat="49.549163565983065" lon="2.456504740802093"><ele>127.0</ele><time>2026-04-02T16:18:06.001Z</time></trkpt><trkpt lat="49.54913289647503" lon="2.4566295782755376"><ele>127.0</ele><time>2026-04-02T16:18:08.001Z</time></trkpt><trkpt lat="49.54910359446331" lon="2.456747340542996"><ele>127.0</ele><time>2026-04-02T16:18:10.001Z</time></trkpt><trkpt lat="49.54906642616561" lon="2.4568671169129073"><ele>127.00000000000001</ele><time>2026-04-02T16:18:12.001Z</time></trkpt><trkpt lat="49.549034249448674" lon="2.4569911151553523"><ele>127.0</ele><time>2026-04-02T16:18:14.001Z</time></trkpt><trkpt lat="49.548999908881285" lon="2.457111257744639"><ele>127.00000000000001</ele><time>2026-04-02T16:18:16.001Z</time></trkpt><trkpt lat="49.54896476008355" lon="2.4572353347276197"><ele>127.0</ele><time>2026-04-02T16:18:18.001Z</time></trkpt><trkpt lat="49.54894620285752" lon="2.4573425156560607"><ele>127.0</ele><time>2026-04-02T16:18:20Z</time></trkpt><trkpt lat="49.54890617026294" lon="2.4574766119786293"><ele>127.0</ele><time>2026-04-02T16:18:22Z</time></trkpt><trkpt lat="49.54887797432938" lon="2.457602674983195"><ele>127.00000000000001</ele><time>2026-04-02T16:18:24Z</time></trkpt><trkpt lat="49.54884122801702" lon="2.457737442881661"><ele>127.0</ele><time>2026-04-02T16:18:26Z</time></trkpt><trkpt lat="49.548802661454474" lon="2.4578988117136458"><ele>126.75</ele><time>2026-04-02T16:18:28Z</time></trkpt><trkpt lat="49.54876425074837" lon="2.4580727302478187"><ele>126.5</ele><time>2026-04-02T16:18:30Z</time></trkpt><trkpt lat="49.54872175777524" lon="2.4582482301873885"><ele>126.25</ele><time>2026-04-02T16:18:32Z</time></trkpt><trkpt lat="49.5486799620181" lon="2.45842634224638"><ele>126.0</ele><time>2026-04-02T16:18:34Z</time></trkpt><trkpt lat="49.548634738192526" lon="2.458602927238205"><ele>126.0</ele><time>2026-04-02T16:18:36Z</time></trkpt><trkpt lat="49.548589431685436" lon="2.4587842115439207"><ele>126.0</ele><time>2026-04-02T16:18:38Z</time></trkpt><trkpt lat="49.5485455610983" lon="2.4589560312231584"><ele>126.0</ele><time>2026-04-02T16:18:40Z</time></trkpt><trkpt lat="49.54850264056451" lon="2.4591283755311597"><ele>126.0</ele><time>2026-04-02T16:18:42Z</time></trkpt><trkpt lat="49.54846190860639" lon="2.459298682580208"><ele>126.0</ele><time>2026-04-02T16:18:44Z</time></trkpt><trkpt lat="49.548416986630066" lon="2.4594609728644636"><ele>126.0</ele><time>2026-04-02T16:18:46Z</time></trkpt><trkpt lat="49.54838002730845" lon="2.459628005543834"><ele>126.0</ele><time>2026-04-02T16:18:48Z</time></trkpt><trkpt lat="49.548339455854276" lon="2.45978616796306"><ele>126.0</ele><time>2026-04-02T16:18:50Z</time></trkpt><trkpt lat="49.54829993435005" lon="2.4599419694345364"><ele>126.0</ele><time>2026-04-02T16:18:52Z</time></trkpt><trkpt lat="49.54826466393909" lon="2.4600999142268973"><ele>125.8</ele><time>2026-04-02T16:18:54Z</time></trkpt><trkpt lat="49.54822353380251" lon="2.4602491165825606"><ele>125.6</ele><time>2026-04-02T16:18:56Z</time></trkpt><trkpt lat="49.548189419209194" lon="2.460399553726956"><ele>125.4</ele><time>2026-04-02T16:18:58Z</time></trkpt><trkpt lat="49.548151445771325" lon="2.460551910819909"><ele>125.2</ele><time>2026-04-02T16:19:00Z</time></trkpt><trkpt lat="49.548115328061854" lon="2.4607023282016227"><ele>125.0</ele><time>2026-04-02T16:19:02Z</time></trkpt><trkpt lat="49.548076350221685" lon="2.4608512500422517"><ele>124.8</ele><time>2026-04-02T16:19:04Z</time></trkpt><trkpt lat="49.54803937972321" lon="2.4610045020540885"><ele>124.6</ele><time>2026-04-02T16:19:06Z</time></trkpt><trkpt lat="49.548003818202695" lon="2.46116117742504"><ele>124.4</ele><time>2026-04-02T16:19:08Z</time></trkpt><trkpt lat="49.54796530176355" lon="2.46131401563161"><ele>124.2</ele><time>2026-04-02T16:19:10Z</time></trkpt><trkpt lat="49.54792790944654" lon="2.461466690053216"><ele>124.0</ele><time>2026-04-02T16:19:12Z</time></trkpt><trkpt lat="49.547884396330616" lon="2.461618396608624"><ele>124.0</ele><time>2026-04-02T16:19:14Z</time></trkpt><trkpt lat="49.54784899330633" lon="2.46177546234211"><ele>124.0</ele><time>2026-04-02T16:19:16Z</time></trkpt><trkpt lat="49.5478106747009" lon="2.46192934824092"><ele>124.0</ele><time>2026-04-02T16:19:18Z</time></trkpt><trkpt lat="49.54777294849015" lon="2.4620793116699278"><ele>124.0</ele><time>2026-04-02T16:19:20Z</time></trkpt><trkpt lat="49.54773459556129" lon="2.462232147046004"><ele>124.0</ele><time>2026-04-02T16:19:22Z</time></trkpt><trkpt lat="49.547697990677456" lon="2.462379056653133"><ele>124.0</ele><time>2026-04-02T16:19:24Z</time></trkpt><trkpt lat="49.54765960269562" lon="2.4625327364881233"><ele>124.0</ele><time>2026-04-02T16:19:26Z</time></trkpt><trkpt lat="49.54762008045456" lon="2.4626932939340627"><ele>124.0</ele><time>2026-04-02T16:19:28Z</time></trkpt><trkpt lat="49.54758298222175" lon="2.4628528455687464"><ele>124.0</ele><time>2026-04-02T16:19:30Z</time></trkpt><trkpt lat="49.547541967339995" lon="2.463011561645383"><ele>124.0</ele><time>2026-04-02T16:19:32Z</time></trkpt><trkpt lat="49.54751581214369" lon="2.463145577227621"><ele>124.0</ele><time>2026-04-02T16:19:34Z</time></trkpt><trkpt lat="49.54747784365467" lon="2.4633070518973885"><ele>124.0</ele><time>2026-04-02T16:19:36Z</time></trkpt><trkpt lat="49.54744265694694" lon="2.463459094036238"><ele>124.0</ele><time>2026-04-02T16:19:38Z</time></trkpt><trkpt lat="49.54740415008939" lon="2.4636103193096637"><ele>124.0</ele><time>2026-04-02T16:19:40Z</time></trkpt><trkpt lat="49.547368085001054" lon="2.4637648726468306"><ele>124.0</ele><time>2026-04-02T16:19:42Z</time></trkpt><trkpt lat="49.54732441338468" lon="2.463915775787387"><ele>124.0</ele><time>2026-04-02T16:19:44Z</time></trkpt><trkpt lat="49.547210818686274" lon="2.4644306077807183"><ele>124.0</ele><time>2026-04-02T16:19:51Z</time></trkpt><trkpt lat="49.54716885760951" lon="2.4645709477001896"><ele>124.0</ele><time>2026-04-02T16:19:53Z</time></trkpt><trkpt lat="49.547137072642776" lon="2.4647056686640627"><ele>124.0</ele><time>2026-04-02T16:19:55Z</time></trkpt><trkpt lat="49.54710016656117" lon="2.464844444978643"><ele>124.0</ele><time>2026-04-02T16:19:57Z</time></trkpt><trkpt lat="49.54707292429822" lon="2.464989045036391"><ele>124.0</ele><time>2026-04-02T16:19:59Z</time></trkpt><trkpt lat="49.54703229538635" lon="2.465125385224457"><ele>124.0</ele><time>2026-04-02T16:20:01Z</time></trkpt><trkpt lat="49.546999565588024" lon="2.465268116496573"><ele>124.0</ele><time>2026-04-02T16:20:03Z</time></trkpt><trkpt lat="49.54696151820942" lon="2.465410998000471"><ele>124.0</ele><time>2026-04-02T16:20:05.001Z</time></trkpt><trkpt lat="49.54692593585064" lon="2.465559739093059"><ele>124.0</ele><time>2026-04-02T16:20:07.001Z</time></trkpt><trkpt lat="49.54689001664973" lon="2.4657034126745057"><ele>124.0</ele><time>2026-04-02T16:20:09.001Z</time></trkpt><trkpt lat="49.54685391492336" lon="2.465848922779563"><ele>124.0</ele><time>2026-04-02T16:20:11.001Z</time></trkpt><trkpt lat="49.54681766282423" lon="2.4659973017248333"><ele>124.0</ele><time>2026-04-02T16:20:13.001Z</time></trkpt><trkpt lat="49.54678194376968" lon="2.4661464042129935"><ele>124.0</ele><time>2026-04-02T16:20:15.001Z</time></trkpt><trkpt lat="49.546747095460624" lon="2.46629202315662"><ele>124.0</ele><time>2026-04-02T16:20:17.001Z</time></trkpt><trkpt lat="49.54671103792671" lon="2.466441462118598"><ele>124.0</ele><time>2026-04-02T16:20:19.001Z</time></trkpt><trkpt lat="49.54667005993175" lon="2.4665903522142694"><ele>124.0</ele><time>2026-04-02T16:20:21.001Z</time></trkpt><trkpt lat="49.546637471355766" lon="2.4667420987086044"><ele>124.2</ele><time>2026-04-02T16:20:23.001Z</time></trkpt><trkpt lat="49.5466006871234" lon="2.4668882241724472"><ele>124.4</ele><time>2026-04-02T16:20:25.001Z</time></trkpt><trkpt lat="49.54656395879811" lon="2.467026885489059"><ele>124.6</ele><time>2026-04-02T16:20:27.001Z</time></trkpt><trkpt lat="49.54653504220893" lon="2.4671635178691775"><ele>124.8</ele><time>2026-04-02T16:20:29Z</time></trkpt><trkpt lat="49.54650161136317" lon="2.4672947014892364"><ele>125.0</ele><time>2026-04-02T16:20:31Z</time></trkpt><trkpt lat="49.54646994558388" lon="2.4674302047144074"><ele>125.0</ele><time>2026-04-02T16:20:33Z</time></trkpt><trkpt lat="49.54644037907177" lon="2.4675619520094147"><ele>125.0</ele><time>2026-04-02T16:20:35Z</time></trkpt><trkpt lat="49.546406835484774" lon="2.467692418109156"><ele>125.0</ele><time>2026-04-02T16:20:37Z</time></trkpt><trkpt lat="49.546372648827784" lon="2.467823607938936"><ele>125.0</ele><time>2026-04-02T16:20:39Z</time></trkpt><trkpt lat="49.54634265280141" lon="2.467956175630186"><ele>125.0</ele><time>2026-04-02T16:20:41Z</time></trkpt><trkpt lat="49.54631147695269" lon="2.4680913075806203"><ele>125.0</ele><time>2026-04-02T16:20:43Z</time></trkpt><trkpt lat="49.54627505768504" lon="2.46822541155761"><ele>125.0</ele><time>2026-04-02T16:20:45Z</time></trkpt><trkpt lat="49.5462422930353" lon="2.4683582745778216"><ele>125.0</ele><time>2026-04-02T16:20:47Z</time></trkpt><trkpt lat="49.54620764271281" lon="2.468497628812143"><ele>125.0</ele><time>2026-04-02T16:20:49Z</time></trkpt><trkpt lat="49.54617258351192" lon="2.4686404229845027"><ele>125.0</ele><time>2026-04-02T16:20:51Z</time></trkpt><trkpt lat="49.54613985782884" lon="2.4687748060231214"><ele>125.0</ele><time>2026-04-02T16:20:53Z</time></trkpt><trkpt lat="49.54610466532902" lon="2.4689111521730127"><ele>125.0</ele><time>2026-04-02T16:20:55Z</time></trkpt><trkpt lat="49.546073152882705" lon="2.469046257689804"><ele>125.0</ele><time>2026-04-02T16:20:57Z</time></trkpt><trkpt lat="49.54603986015225" lon="2.469179463820803"><ele>125.0</ele><time>2026-04-02T16:20:59Z</time></trkpt><trkpt lat="49.54600750513696" lon="2.4693095789528354"><ele>125.0</ele><time>2026-04-02T16:21:01Z</time></trkpt><trkpt lat="49.545986347311256" lon="2.469437321474546"><ele>124.99999999999999</ele><time>2026-04-02T16:21:03Z</time></trkpt><trkpt lat="49.54596638905935" lon="2.4695732660104803"><ele>125.0</ele><time>2026-04-02T16:21:05Z</time></trkpt><trkpt lat="49.54594997730754" lon="2.4697072496002543"><ele>125.0</ele><time>2026-04-02T16:21:07Z</time></trkpt><trkpt lat="49.545932560002015" lon="2.46983515409274"><ele>125.0</ele><time>2026-04-02T16:21:09Z</time></trkpt><trkpt lat="49.54589669277272" lon="2.4699633329306767"><ele>124.99999999999999</ele><time>2026-04-02T16:21:11Z</time></trkpt><trkpt lat="49.54585107300444" lon="2.470082642785056"><ele>125.0</ele><time>2026-04-02T16:21:13Z</time></trkpt><trkpt lat="49.54582157150133" lon="2.4702230683227264"><ele>125.0</ele><time>2026-04-02T16:21:15Z</time></trkpt><trkpt lat="49.54581699046896" lon="2.4703758212417246"><ele>125.0</ele><time>2026-04-02T16:21:17Z</time></trkpt><trkpt lat="49.54583863233597" lon="2.470530800068172"><ele>125.0</ele><time>2026-04-02T16:21:19Z</time></trkpt><trkpt lat="49.545862115708836" lon="2.4706813039991786"><ele>125.0</ele><time>2026-04-02T16:21:21Z</time></trkpt><trkpt lat="49.54588173444839" lon="2.4708211729637988"><ele>125.0</ele><time>2026-04-02T16:21:23Z</time></trkpt><trkpt lat="49.5459004556008" lon="2.4709686971961973"><ele>124.99999999999999</ele><time>2026-04-02T16:21:25Z</time></trkpt><trkpt lat="49.54592873160827" lon="2.4711086100637165"><ele>125.0</ele><time>2026-04-02T16:21:27Z</time></trkpt><trkpt lat="49.54596024351232" lon="2.4712537345073065"><ele>125.0</ele><time>2026-04-02T16:21:29Z</time></trkpt><trkpt lat="49.54596700424791" lon="2.471351218710089"><ele>125.0</ele><time>2026-04-02T16:21:31Z</time></trkpt><trkpt lat="49.54600383328215" lon="2.4714613903345235"><ele>124.99999999999999</ele><time>2026-04-02T16:21:32Z</time></trkpt><trkpt lat="49.54603718460787" lon="2.471597647425694"><ele>125.0</ele><time>2026-04-02T16:21:34Z</time></trkpt><trkpt lat="49.54606761900018" lon="2.471743042425131"><ele>124.8</ele><time>2026-04-02T16:21:36Z</time></trkpt><trkpt lat="49.5460953581048" lon="2.471882649346547"><ele>124.6</ele><time>2026-04-02T16:21:38Z</time></trkpt><trkpt lat="49.54612365352065" lon="2.4720229877760027"><ele>124.4</ele><time>2026-04-02T16:21:40Z</time></trkpt><trkpt lat="49.546149856940424" lon="2.47215413222544"><ele>124.2</ele><time>2026-04-02T16:21:42Z</time></trkpt><trkpt lat="49.54617458414962" lon="2.472284034066289"><ele>124.0</ele><time>2026-04-02T16:21:44Z</time></trkpt><trkpt lat="49.546198308632114" lon="2.4724166383332427"><ele>124.16666666666667</ele><time>2026-04-02T16:21:46Z</time></trkpt><trkpt lat="49.546223132272495" lon="2.4725497658345343"><ele>124.33333333333334</ele><time>2026-04-02T16:21:48Z</time></trkpt><trkpt lat="49.546245941666136" lon="2.4726841934378907"><ele>124.5</ele><time>2026-04-02T16:21:50Z</time></trkpt><trkpt lat="49.546269206570074" lon="2.472815763243153"><ele>124.66666666666666</ele><time>2026-04-02T16:21:52Z</time></trkpt><trkpt lat="49.5462911553081" lon="2.472950594169156"><ele>124.83333333333333</ele><time>2026-04-02T16:21:54Z</time></trkpt><trkpt lat="49.54631349861087" lon="2.4730782942490963"><ele>125.0</ele><time>2026-04-02T16:21:56Z</time></trkpt><trkpt lat="49.5463383051101" lon="2.4732074475597385"><ele>125.0</ele><time>2026-04-02T16:21:58Z</time></trkpt><trkpt lat="49.546361331990376" lon="2.4733396140569774"><ele>125.0</ele><time>2026-04-02T16:22:00Z</time></trkpt><trkpt lat="49.546383529379206" lon="2.47346867131339"><ele>125.0</ele><time>2026-04-02T16:22:02Z</time></trkpt><trkpt lat="49.5464074148642" lon="2.473610814288636"><ele>125.0</ele><time>2026-04-02T16:22:04Z</time></trkpt><trkpt lat="49.546431232791186" lon="2.473752533582083"><ele>125.0</ele><time>2026-04-02T16:22:06Z</time></trkpt><trkpt lat="49.54645612885949" lon="2.473897134173504"><ele>125.4</ele><time>2026-04-02T16:22:08Z</time></trkpt><trkpt lat="49.54647942114771" lon="2.4740434243416924"><ele>125.8</ele><time>2026-04-02T16:22:10Z</time></trkpt><trkpt lat="49.54650132002699" lon="2.4741850044712654"><ele>126.19999999999999</ele><time>2026-04-02T16:22:12.001Z</time></trkpt><trkpt lat="49.546522861144254" lon="2.474321123200309"><ele>126.6</ele><time>2026-04-02T16:22:14.001Z</time></trkpt><trkpt lat="49.54654509304537" lon="2.4744536354985436"><ele>127.0</ele><time>2026-04-02T16:22:16.001Z</time></trkpt><trkpt lat="49.546565270830314" lon="2.474581287056231"><ele>127.00000000000001</ele><time>2026-04-02T16:22:18.001Z</time></trkpt><trkpt lat="49.546584746257054" lon="2.4747084541638613"><ele>127.0</ele><time>2026-04-02T16:22:20.001Z</time></trkpt><trkpt lat="49.54660466346249" lon="2.4748325733979093"><ele>127.0</ele><time>2026-04-02T16:22:22.001Z</time></trkpt><trkpt lat="49.54662848121759" lon="2.4749460584515925"><ele>127.0</ele><time>2026-04-02T16:22:24.001Z</time></trkpt><trkpt lat="49.54664635785952" lon="2.475064695396473"><ele>127.00000000000001</ele><time>2026-04-02T16:22:26.001Z</time></trkpt><trkpt lat="49.546664555636525" lon="2.4751804462025926"><ele>127.0</ele><time>2026-04-02T16:22:28Z</time></trkpt><trkpt lat="49.54668336954879" lon="2.475300957774827"><ele>127.00000000000001</ele><time>2026-04-02T16:22:30Z</time></trkpt><trkpt lat="49.54669904943561" lon="2.4754238871538528"><ele>127.0</ele><time>2026-04-02T16:22:32Z</time></trkpt><trkpt lat="49.546714721259285" lon="2.475534879661077"><ele>127.0</ele><time>2026-04-02T16:22:34Z</time></trkpt><trkpt lat="49.54673601826062" lon="2.475654928033562"><ele>127.0</ele><time>2026-04-02T16:22:36Z</time></trkpt><trkpt lat="49.546757280756786" lon="2.475780479500324"><ele>127.00000000000001</ele><time>2026-04-02T16:22:38Z</time></trkpt><trkpt lat="49.546780316883954" lon="2.4759134642752523"><ele>127.0</ele><time>2026-04-02T16:22:40Z</time></trkpt><trkpt lat="49.546802561979405" lon="2.476045306583064"><ele>126.8</ele><time>2026-04-02T16:22:42Z</time></trkpt><trkpt lat="49.546824640263424" lon="2.476171992579177"><ele>126.6</ele><time>2026-04-02T16:22:44Z</time></trkpt><trkpt lat="49.54684899917271" lon="2.4763053310196"><ele>126.39999999999999</ele><time>2026-04-02T16:22:46Z</time></trkpt><trkpt lat="49.54687086091121" lon="2.476448295760184"><ele>126.19999999999999</ele><time>2026-04-02T16:22:48Z</time></trkpt><trkpt lat="49.546894884908106" lon="2.4765826067922205"><ele>126.0</ele><time>2026-04-02T16:22:50Z</time></trkpt><trkpt lat="49.5469175948275" lon="2.4767194997831603"><ele>126.0</ele><time>2026-04-02T16:22:52Z</time></trkpt><trkpt lat="49.54694107800005" lon="2.476856881386946"><ele>126.0</ele><time>2026-04-02T16:22:54Z</time></trkpt><trkpt lat="49.54696365154066" lon="2.4770005098676906"><ele>126.0</ele><time>2026-04-02T16:22:56Z</time></trkpt><trkpt lat="49.546986995808616" lon="2.477142117161815"><ele>126.0</ele><time>2026-04-02T16:22:58Z</time></trkpt><trkpt lat="49.547011920827366" lon="2.477280358362626"><ele>126.0</ele><time>2026-04-02T16:23:00Z</time></trkpt><trkpt lat="49.547035038289586" lon="2.4774202561992706"><ele>126.0</ele><time>2026-04-02T16:23:02Z</time></trkpt><trkpt lat="49.5470586561099" lon="2.4775577699572855"><ele>126.0</ele><time>2026-04-02T16:23:04Z</time></trkpt><trkpt lat="49.547081360722515" lon="2.4776973322172813"><ele>126.0</ele><time>2026-04-02T16:23:06Z</time></trkpt><trkpt lat="49.54710509366476" lon="2.4778385767484297"><ele>126.0</ele><time>2026-04-02T16:23:08Z</time></trkpt><trkpt lat="49.54712660851583" lon="2.4779793408228517"><ele>126.0</ele><time>2026-04-02T16:23:10Z</time></trkpt><trkpt lat="49.54714422737367" lon="2.478112942860067"><ele>125.83333333333333</ele><time>2026-04-02T16:23:12Z</time></trkpt><trkpt lat="49.547166943131835" lon="2.47824456566187"><ele>125.66666666666666</ele><time>2026-04-02T16:23:14Z</time></trkpt><trkpt lat="49.54718683359173" lon="2.4783731096984507"><ele>125.5</ele><time>2026-04-02T16:23:16Z</time></trkpt><trkpt lat="49.54720899349823" lon="2.4784995546277804"><ele>125.33333333333333</ele><time>2026-04-02T16:23:18Z</time></trkpt><trkpt lat="49.547225309903524" lon="2.4786297285985643"><ele>125.16666666666666</ele><time>2026-04-02T16:23:20Z</time></trkpt><trkpt lat="49.54725086736837" lon="2.478755595143644"><ele>125.0</ele><time>2026-04-02T16:23:22Z</time></trkpt><trkpt lat="49.54727226948767" lon="2.47886865235314"><ele>124.83333333333333</ele><time>2026-04-02T16:23:24Z</time></trkpt><trkpt lat="49.54728666620794" lon="2.4789780912640023"><ele>124.66666666666666</ele><time>2026-04-02T16:23:26Z</time></trkpt><trkpt lat="49.547305829524454" lon="2.479104411879061"><ele>124.5</ele><time>2026-04-02T16:23:28Z</time></trkpt><trkpt lat="49.54732796685103" lon="2.4792269367864885"><ele>124.33333333333334</ele><time>2026-04-02T16:23:30Z</time></trkpt><trkpt lat="49.547346291049045" lon="2.4793533648920585"><ele>124.16666666666667</ele><time>2026-04-02T16:23:32Z</time></trkpt><trkpt lat="49.54736600797698" lon="2.4794691655456513"><ele>124.0</ele><time>2026-04-02T16:23:34Z</time></trkpt><trkpt lat="49.5473912898092" lon="2.479591805579474"><ele>124.00000000000001</ele><time>2026-04-02T16:23:36Z</time></trkpt><trkpt lat="49.5474083910359" lon="2.479718605567773"><ele>124.0</ele><time>2026-04-02T16:23:38Z</time></trkpt><trkpt lat="49.54742919402033" lon="2.4798489451379533"><ele>124.0</ele><time>2026-04-02T16:23:40Z</time></trkpt><trkpt lat="49.5474488632688" lon="2.479978974183417"><ele>124.0</ele><time>2026-04-02T16:23:42Z</time></trkpt><trkpt lat="49.54747235065506" lon="2.4801064658826983"><ele>124.00000000000001</ele><time>2026-04-02T16:23:44Z</time></trkpt><trkpt lat="49.54749126456984" lon="2.480235324745989"><ele>124.0</ele><time>2026-04-02T16:23:46Z</time></trkpt><trkpt lat="49.547511748258465" lon="2.4803681977893013"><ele>124.0</ele><time>2026-04-02T16:23:48Z</time></trkpt><trkpt lat="49.54753462765794" lon="2.480500008019237"><ele>124.0</ele><time>2026-04-02T16:23:50Z</time></trkpt><trkpt lat="49.54755632600592" lon="2.4806378328871945"><ele>124.0</ele><time>2026-04-02T16:23:52Z</time></trkpt><trkpt lat="49.54757702800886" lon="2.4807729823640288"><ele>124.0</ele><time>2026-04-02T16:23:54Z</time></trkpt><trkpt lat="49.54759912835515" lon="2.4809097196051124"><ele>124.0</ele><time>2026-04-02T16:23:56Z</time></trkpt><trkpt lat="49.547624300447715" lon="2.4810486650834482"><ele>124.0</ele><time>2026-04-02T16:23:58Z</time></trkpt><trkpt lat="49.54764855520957" lon="2.4812008591800296"><ele>124.0</ele><time>2026-04-02T16:24:00Z</time></trkpt><trkpt lat="49.54767408431761" lon="2.48135932719101"><ele>124.0</ele><time>2026-04-02T16:24:02Z</time></trkpt><trkpt lat="49.54769349238983" lon="2.481519277440215"><ele>124.0</ele><time>2026-04-02T16:24:04Z</time></trkpt><trkpt lat="49.54772156894393" lon="2.4816742846728905"><ele>124.0</ele><time>2026-04-02T16:24:06Z</time></trkpt><trkpt lat="49.54774769761333" lon="2.4818362667988136"><ele>123.75</ele><time>2026-04-02T16:24:08Z</time></trkpt><trkpt lat="49.54777290924731" lon="2.482006807177788"><ele>123.5</ele><time>2026-04-02T16:24:10Z</time></trkpt><trkpt lat="49.54780138169926" lon="2.4821705851808744"><ele>123.25</ele><time>2026-04-02T16:24:12Z</time></trkpt><trkpt lat="49.54782438384005" lon="2.4823422370083543"><ele>123.0</ele><time>2026-04-02T16:24:14Z</time></trkpt><trkpt lat="49.54784752821737" lon="2.4825153011970134"><ele>123.0</ele><time>2026-04-02T16:24:16Z</time></trkpt><trkpt lat="49.54786871091575" lon="2.4826803312278845"><ele>123.00000000000001</ele><time>2026-04-02T16:24:18.001Z</time></trkpt><trkpt lat="49.54789174747522" lon="2.482843570189772"><ele>123.00000000000001</ele><time>2026-04-02T16:24:20.001Z</time></trkpt><trkpt lat="49.54791161087992" lon="2.4829995602441626"><ele>123.0</ele><time>2026-04-02T16:24:22.001Z</time></trkpt><trkpt lat="49.547930171955585" lon="2.4831495223868543"><ele>123.0</ele><time>2026-04-02T16:24:24.001Z</time></trkpt><trkpt lat="49.54794976970482" lon="2.4832962312072078"><ele>123.0</ele><time>2026-04-02T16:24:26.001Z</time></trkpt><trkpt lat="49.54796732422326" lon="2.483437766799854"><ele>123.00000000000001</ele><time>2026-04-02T16:24:28Z</time></trkpt><trkpt lat="49.54798072188315" lon="2.483579154261348"><ele>123.00000000000001</ele><time>2026-04-02T16:24:30Z</time></trkpt><trkpt lat="49.54799554001265" lon="2.4837179881659113"><ele>123.0</ele><time>2026-04-02T16:24:32Z</time></trkpt><trkpt lat="49.54801667696936" lon="2.483861923579873"><ele>123.0</ele><time>2026-04-02T16:24:34Z</time></trkpt><trkpt lat="49.548039730173365" lon="2.484011161205683"><ele>123.2</ele><time>2026-04-02T16:24:36Z</time></trkpt><trkpt lat="49.548063272174396" lon="2.484173551361448"><ele>123.4</ele><time>2026-04-02T16:24:38Z</time></trkpt><trkpt lat="49.54807715897146" lon="2.484321974417932"><ele>123.60000000000001</ele><time>2026-04-02T16:24:40Z</time></trkpt><trkpt lat="49.54809752272899" lon="2.4844847564576193"><ele>123.80000000000001</ele><time>2026-04-02T16:24:42Z</time></trkpt><trkpt lat="49.548120923646366" lon="2.484643618229911"><ele>124.0</ele><time>2026-04-02T16:24:44Z</time></trkpt><trkpt lat="49.54813987822987" lon="2.4848003529825573"><ele>124.0</ele><time>2026-04-02T16:24:46Z</time></trkpt><trkpt lat="49.548158423841315" lon="2.484950521094578"><ele>124.0</ele><time>2026-04-02T16:24:48Z</time></trkpt><trkpt lat="49.54818185219105" lon="2.485097900828028"><ele>124.0</ele><time>2026-04-02T16:24:50Z</time></trkpt><trkpt lat="49.5482003184871" lon="2.4852500161016"><ele>124.0</ele><time>2026-04-02T16:24:52Z</time></trkpt><trkpt lat="49.54821935555884" lon="2.4854016787754936"><ele>124.0</ele><time>2026-04-02T16:24:54Z</time></trkpt><trkpt lat="49.548240959996846" lon="2.485552188123966"><ele>123.6</ele><time>2026-04-02T16:24:56Z</time></trkpt><trkpt lat="49.54825732978711" lon="2.48571034319464"><ele>123.2</ele><time>2026-04-02T16:24:58Z</time></trkpt><trkpt lat="49.54827449810526" lon="2.485880575341998"><ele>122.79999999999998</ele><time>2026-04-02T16:25:00Z</time></trkpt><trkpt lat="49.54829592566636" lon="2.486052582327337"><ele>122.39999999999999</ele><time>2026-04-02T16:25:02Z</time></trkpt><trkpt lat="49.54831785967488" lon="2.4862260641028846"><ele>122.0</ele><time>2026-04-02T16:25:04Z</time></trkpt><trkpt lat="49.54833804027128" lon="2.4864017829225604"><ele>121.75</ele><time>2026-04-02T16:25:06Z</time></trkpt><trkpt lat="49.54835599104272" lon="2.486575032848843"><ele>121.5</ele><time>2026-04-02T16:25:08Z</time></trkpt><trkpt lat="49.54837341218563" lon="2.486749236441379"><ele>121.25</ele><time>2026-04-02T16:25:10Z</time></trkpt><trkpt lat="49.54839435520666" lon="2.486918356370006"><ele>121.0</ele><time>2026-04-02T16:25:12Z</time></trkpt><trkpt lat="49.54841339073181" lon="2.4870868785991322"><ele>121.0</ele><time>2026-04-02T16:25:14Z</time></trkpt><trkpt lat="49.54843488749315" lon="2.487250342338131"><ele>121.0</ele><time>2026-04-02T16:25:16Z</time></trkpt><trkpt lat="49.54845488168393" lon="2.487421699548858"><ele>121.0</ele><time>2026-04-02T16:25:18Z</time></trkpt><trkpt lat="49.54847535683018" lon="2.4875894000166565"><ele>121.0</ele><time>2026-04-02T16:25:20Z</time></trkpt><trkpt lat="49.54849634869912" lon="2.487756103876793"><ele>121.0</ele><time>2026-04-02T16:25:22Z</time></trkpt><trkpt lat="49.548516791231386" lon="2.4879301389621267"><ele>121.0</ele><time>2026-04-02T16:25:24Z</time></trkpt><trkpt lat="49.548531942857" lon="2.4880933978653275"><ele>121.0</ele><time>2026-04-02T16:25:26Z</time></trkpt><trkpt lat="49.54855297222216" lon="2.488260256649815"><ele>121.0</ele><time>2026-04-02T16:25:28Z</time></trkpt><trkpt lat="49.548573114947075" lon="2.4884236119582237"><ele>121.0</ele><time>2026-04-02T16:25:30Z</time></trkpt><trkpt lat="49.54859524658212" lon="2.488580240787355"><ele>121.0</ele><time>2026-04-02T16:25:32Z</time></trkpt><trkpt lat="49.548614438676104" lon="2.488734949055018"><ele>120.8</ele><time>2026-04-02T16:25:34Z</time></trkpt><trkpt lat="49.548635392929484" lon="2.488887908447677"><ele>120.6</ele><time>2026-04-02T16:25:36Z</time></trkpt><trkpt lat="49.54865566650054" lon="2.4890304742933047"><ele>120.4</ele><time>2026-04-02T16:25:38Z</time></trkpt><trkpt lat="49.54867504766813" lon="2.4891745361396906"><ele>120.2</ele><time>2026-04-02T16:25:40Z</time></trkpt><trkpt lat="49.54868536001198" lon="2.4893083821836806"><ele>120.0</ele><time>2026-04-02T16:25:42Z</time></trkpt><trkpt lat="49.548698822284834" lon="2.4894371615809474"><ele>120.5</ele><time>2026-04-02T16:25:44Z</time></trkpt><trkpt lat="49.54871578214173" lon="2.4895674299112014"><ele>121.0</ele><time>2026-04-02T16:25:46Z</time></trkpt><trkpt lat="49.54873227648863" lon="2.489700208999025"><ele>121.5</ele><time>2026-04-02T16:25:48Z</time></trkpt><trkpt lat="49.54875124945574" lon="2.489831768771029"><ele>122.0</ele><time>2026-04-02T16:25:50Z</time></trkpt><trkpt lat="49.54876429454015" lon="2.489968113873227"><ele>122.5</ele><time>2026-04-02T16:25:52Z</time></trkpt><trkpt lat="49.54876848694053" lon="2.490110249596997"><ele>123.0</ele><time>2026-04-02T16:25:54Z</time></trkpt><trkpt lat="49.548793619327405" lon="2.4902388867547716"><ele>123.0</ele><time>2026-04-02T16:25:56Z</time></trkpt><trkpt lat="49.548808589583764" lon="2.4903770050792056"><ele>123.00000000000001</ele><time>2026-04-02T16:25:58Z</time></trkpt><trkpt lat="49.54882482308863" lon="2.490514315184386"><ele>123.00000000000001</ele><time>2026-04-02T16:26:00Z</time></trkpt><trkpt lat="49.548846646169935" lon="2.490653765940283"><ele>123.0</ele><time>2026-04-02T16:26:02Z</time></trkpt><trkpt lat="49.54886048715408" lon="2.4907961834042123"><ele>123.0</ele><time>2026-04-02T16:26:04Z</time></trkpt><trkpt lat="49.54888017175459" lon="2.4909420013975465"><ele>122.60000000000001</ele><time>2026-04-02T16:26:06Z</time></trkpt><trkpt lat="49.54889862419225" lon="2.4910817732323203"><ele>122.20000000000002</ele><time>2026-04-02T16:26:08Z</time></trkpt><trkpt lat="49.54891794915002" lon="2.49124283700867"><ele>121.8</ele><time>2026-04-02T16:26:10Z</time></trkpt><trkpt lat="49.54893901728892" lon="2.491399587200778"><ele>121.4</ele><time>2026-04-02T16:26:12Z</time></trkpt><trkpt lat="49.5489566080541" lon="2.491556444941336"><ele>121.0</ele><time>2026-04-02T16:26:14Z</time></trkpt><trkpt lat="49.54897828021632" lon="2.491709873378134"><ele>121.0</ele><time>2026-04-02T16:26:16Z</time></trkpt><trkpt lat="49.54899732203577" lon="2.4918664877235885"><ele>121.0</ele><time>2026-04-02T16:26:18Z</time></trkpt><trkpt lat="49.54901042535377" lon="2.4920269324283035"><ele>121.0</ele><time>2026-04-02T16:26:20Z</time></trkpt><trkpt lat="49.54903498608986" lon="2.4921764217725584"><ele>121.0</ele><time>2026-04-02T16:26:22Z</time></trkpt><trkpt lat="49.549050889928836" lon="2.4923234353460386"><ele>121.0</ele><time>2026-04-02T16:26:24Z</time></trkpt><trkpt lat="49.549069000501184" lon="2.492469062608742"><ele>121.0</ele><time>2026-04-02T16:26:26Z</time></trkpt><trkpt lat="49.54908846887141" lon="2.492611537413292"><ele>121.0</ele><time>2026-04-02T16:26:28Z</time></trkpt><trkpt lat="49.549104642184" lon="2.4927569035892345"><ele>121.0</ele><time>2026-04-02T16:26:30Z</time></trkpt><trkpt lat="49.54912344476602" lon="2.4928975633664194"><ele>121.0</ele><time>2026-04-02T16:26:32Z</time></trkpt><trkpt lat="49.549140827715625" lon="2.493041849947338"><ele>121.0</ele><time>2026-04-02T16:26:34Z</time></trkpt><trkpt lat="49.54915692195662" lon="2.493183096830297"><ele>121.0</ele><time>2026-04-02T16:26:36Z</time></trkpt><trkpt lat="49.54917325416895" lon="2.4933256375263935"><ele>121.0</ele><time>2026-04-02T16:26:38Z</time></trkpt><trkpt lat="49.54918998396577" lon="2.493472506798241"><ele>121.0</ele><time>2026-04-02T16:26:40Z</time></trkpt><trkpt lat="49.549209469807955" lon="2.493615574160969"><ele>121.0</ele><time>2026-04-02T16:26:42Z</time></trkpt><trkpt lat="49.54922858671012" lon="2.493758345904451"><ele>121.0</ele><time>2026-04-02T16:26:44Z</time></trkpt><trkpt lat="49.54924361063525" lon="2.493900369259557"><ele>121.19999999999999</ele><time>2026-04-02T16:26:46Z</time></trkpt><trkpt lat="49.54926555219839" lon="2.4940402727878226"><ele>121.39999999999999</ele><time>2026-04-02T16:26:48Z</time></trkpt><trkpt lat="49.549286742014495" lon="2.49417957067932"><ele>121.6</ele><time>2026-04-02T16:26:50Z</time></trkpt><trkpt lat="49.549299668099465" lon="2.4943251837134457"><ele>121.8</ele><time>2026-04-02T16:26:52Z</time></trkpt><trkpt lat="49.549322810270034" lon="2.4944663273854992"><ele>122.0</ele><time>2026-04-02T16:26:54Z</time></trkpt><trkpt lat="49.5493394660795" lon="2.4946143454280634"><ele>121.6</ele><time>2026-04-02T16:26:56Z</time></trkpt><trkpt lat="49.549358792752145" lon="2.494761087850564"><ele>121.19999999999999</ele><time>2026-04-02T16:26:58Z</time></trkpt><trkpt lat="49.54937808581972" lon="2.494903753601416"><ele>120.8</ele><time>2026-04-02T16:27:00Z</time></trkpt><trkpt lat="49.5493957271508" lon="2.4950453594817077"><ele>120.4</ele><time>2026-04-02T16:27:02Z</time></trkpt><trkpt lat="49.54941369675818" lon="2.495194568321279"><ele>120.0</ele><time>2026-04-02T16:27:04Z</time></trkpt><trkpt lat="49.5494332833597" lon="2.4953409659392474"><ele>120.0</ele><time>2026-04-02T16:27:06Z</time></trkpt><trkpt lat="49.549450318115476" lon="2.495492213533648"><ele>120.0</ele><time>2026-04-02T16:27:08Z</time></trkpt><trkpt lat="49.54947749809769" lon="2.4956368716481285"><ele>120.0</ele><time>2026-04-02T16:27:10Z</time></trkpt><trkpt lat="49.549499745519476" lon="2.4957858401405715"><ele>120.0</ele><time>2026-04-02T16:27:12Z</time></trkpt><trkpt lat="49.54952787060029" lon="2.4959309632920657"><ele>120.0</ele><time>2026-04-02T16:27:14Z</time></trkpt><trkpt lat="49.54955366894312" lon="2.4960774104232413"><ele>119.8</ele><time>2026-04-02T16:27:16Z</time></trkpt><trkpt lat="49.54958447036681" lon="2.496221496171316"><ele>119.6</ele><time>2026-04-02T16:27:18Z</time></trkpt><trkpt lat="49.54961377992215" lon="2.496362010144454"><ele>119.4</ele><time>2026-04-02T16:27:20Z</time></trkpt><trkpt lat="49.54964475285393" lon="2.4964979800718994"><ele>119.2</ele><time>2026-04-02T16:27:22Z</time></trkpt><trkpt lat="49.54966947259667" lon="2.4966299679118698"><ele>119.0</ele><time>2026-04-02T16:27:24Z</time></trkpt><trkpt lat="49.54969341010433" lon="2.4967593196943607"><ele>119.33333333333333</ele><time>2026-04-02T16:27:26Z</time></trkpt><trkpt lat="49.5497232942184" lon="2.496880081247553"><ele>119.66666666666666</ele><time>2026-04-02T16:27:28Z</time></trkpt><trkpt lat="49.54974768519358" lon="2.4969959724735076"><ele>120.0</ele><time>2026-04-02T16:27:30Z</time></trkpt><trkpt lat="49.549775177475205" lon="2.4971118814118864"><ele>120.33333333333334</ele><time>2026-04-02T16:27:32Z</time></trkpt><trkpt lat="49.54979635450049" lon="2.497222831846318"><ele>120.66666666666667</ele><time>2026-04-02T16:27:34Z</time></trkpt><trkpt lat="49.54982220610013" lon="2.4973276185138436"><ele>121.0</ele><time>2026-04-02T16:27:36Z</time></trkpt><trkpt lat="49.54984110693448" lon="2.4974343323754296"><ele>121.0</ele><time>2026-04-02T16:27:38Z</time></trkpt><trkpt lat="49.54986479778373" lon="2.497536232780658"><ele>120.99999999999999</ele><time>2026-04-02T16:27:40Z</time></trkpt><trkpt lat="49.549882988954245" lon="2.4976340202787193"><ele>121.0</ele><time>2026-04-02T16:27:42Z</time></trkpt><trkpt lat="49.54989950876058" lon="2.4977337970808144"><ele>121.0</ele><time>2026-04-02T16:27:44Z</time></trkpt><trkpt lat="49.54992098398175" lon="2.4978501687994297"><ele>120.99999999999999</ele><time>2026-04-02T16:27:46Z</time></trkpt><trkpt lat="49.5499449358176" lon="2.497972765588932"><ele>121.0</ele><time>2026-04-02T16:27:48Z</time></trkpt><trkpt lat="49.54996987945999" lon="2.4980964736539013"><ele>121.0</ele><time>2026-04-02T16:27:50Z</time></trkpt><trkpt lat="49.54999717147975" lon="2.498211604815561"><ele>121.0</ele><time>2026-04-02T16:27:52Z</time></trkpt><trkpt lat="49.550020784657804" lon="2.498321079794175"><ele>120.99999999999999</ele><time>2026-04-02T16:27:54Z</time></trkpt><trkpt lat="49.55003898567975" lon="2.4984285858887225"><ele>121.0</ele><time>2026-04-02T16:27:56Z</time></trkpt><trkpt lat="49.550059970143316" lon="2.498533114080164"><ele>121.0</ele><time>2026-04-02T16:27:58Z</time></trkpt><trkpt lat="49.55008250502198" lon="2.4986462049247518"><ele>120.99999999999999</ele><time>2026-04-02T16:28:00Z</time></trkpt><trkpt lat="49.55010289192162" lon="2.4987584957707156"><ele>121.0</ele><time>2026-04-02T16:28:02Z</time></trkpt><trkpt lat="49.550128595189754" lon="2.498863116858952"><ele>121.0</ele><time>2026-04-02T16:28:04Z</time></trkpt><trkpt lat="49.55015250830652" lon="2.498971994593533"><ele>121.0</ele><time>2026-04-02T16:28:06Z</time></trkpt><trkpt lat="49.55017427391983" lon="2.4990756083861916"><ele>120.99999999999999</ele><time>2026-04-02T16:28:08Z</time></trkpt><trkpt lat="49.55019324426959" lon="2.4991769709143017"><ele>121.0</ele><time>2026-04-02T16:28:10Z</time></trkpt><trkpt lat="49.55021355904439" lon="2.49927877932969"><ele>121.0</ele><time>2026-04-02T16:28:12Z</time></trkpt><trkpt lat="49.550234835495324" lon="2.4993853470594427"><ele>120.99999999999999</ele><time>2026-04-02T16:28:14Z</time></trkpt><trkpt lat="49.55026006972368" lon="2.499486242793441"><ele>121.0</ele><time>2026-04-02T16:28:16Z</time></trkpt><trkpt lat="49.55027785181603" lon="2.499592237395007"><ele>121.0</ele><time>2026-04-02T16:28:18Z</time></trkpt><trkpt lat="49.55030376205364" lon="2.4996931134327864"><ele>121.0</ele><time>2026-04-02T16:28:20Z</time></trkpt><trkpt lat="49.55032510744962" lon="2.4997990049630374"><ele>120.99999999999999</ele><time>2026-04-02T16:28:22Z</time></trkpt><trkpt lat="49.55034672430495" lon="2.4999098764982493"><ele>121.0</ele><time>2026-04-02T16:28:24Z</time></trkpt><trkpt lat="49.55037193010775" lon="2.5000146041485354"><ele>121.0</ele><time>2026-04-02T16:28:26Z</time></trkpt><trkpt lat="49.550390325989575" lon="2.5001249629172473"><ele>120.99999999999999</ele><time>2026-04-02T16:28:28Z</time></trkpt><trkpt lat="49.55040615317369" lon="2.5002305895059598"><ele>121.0</ele><time>2026-04-02T16:28:30Z</time></trkpt><trkpt lat="49.550421410109415" lon="2.500349303261439"><ele>121.0</ele><time>2026-04-02T16:28:32Z</time></trkpt><trkpt lat="49.550434596351316" lon="2.5004597793296064"><ele>121.66666666666667</ele><time>2026-04-02T16:28:34Z</time></trkpt><trkpt lat="49.550459177559254" lon="2.500570721198945"><ele>122.33333333333334</ele><time>2026-04-02T16:28:36Z</time></trkpt><trkpt lat="49.55049434735731" lon="2.5006710144472657"><ele>123.0</ele><time>2026-04-02T16:28:38Z</time></trkpt><trkpt lat="49.5505215721145" lon="2.5007716362574257"><ele>123.66666666666666</ele><time>2026-04-02T16:28:40Z</time></trkpt><trkpt lat="49.55054418901793" lon="2.5008847217508094"><ele>124.33333333333333</ele><time>2026-04-02T16:28:42Z</time></trkpt><trkpt lat="49.550554658093596" lon="2.501003030168828"><ele>125.0</ele><time>2026-04-02T16:28:44Z</time></trkpt><trkpt lat="49.55057234956642" lon="2.5011296372580083"><ele>124.99999999999999</ele><time>2026-04-02T16:28:46Z</time></trkpt><trkpt lat="49.55059474047211" lon="2.501246965297915"><ele>125.0</ele><time>2026-04-02T16:28:48Z</time></trkpt><trkpt lat="49.550617489585164" lon="2.501368991039041"><ele>125.0</ele><time>2026-04-02T16:28:50Z</time></trkpt><trkpt lat="49.55063756538004" lon="2.50149458248383"><ele>125.0</ele><time>2026-04-02T16:28:52Z</time></trkpt><trkpt lat="49.55066440843946" lon="2.501629802602161"><ele>124.99999999999999</ele><time>2026-04-02T16:28:54Z</time></trkpt><trkpt lat="49.55069164288099" lon="2.5017716841764375"><ele>125.0</ele><time>2026-04-02T16:28:56Z</time></trkpt><trkpt lat="49.550717206546835" lon="2.501911695018299"><ele>124.8</ele><time>2026-04-02T16:28:58Z</time></trkpt><trkpt lat="49.55074601719675" lon="2.5020502243355582"><ele>124.6</ele><time>2026-04-02T16:29:00Z</time></trkpt><trkpt lat="49.550769901672595" lon="2.502199292767636"><ele>124.4</ele><time>2026-04-02T16:29:02Z</time></trkpt><trkpt lat="49.550801433002064" lon="2.5023372807163975"><ele>124.2</ele><time>2026-04-02T16:29:04Z</time></trkpt><trkpt lat="49.550824947534295" lon="2.5024743243584155"><ele>124.0</ele><time>2026-04-02T16:29:06Z</time></trkpt><trkpt lat="49.55084848132709" lon="2.5026083591145682"><ele>123.83333333333334</ele><time>2026-04-02T16:29:08Z</time></trkpt><trkpt lat="49.55087617913183" lon="2.50272700126043"><ele>123.66666666666667</ele><time>2026-04-02T16:29:10Z</time></trkpt><trkpt lat="49.55089469613195" lon="2.502850460118483"><ele>123.5</ele><time>2026-04-02T16:29:12Z</time></trkpt><trkpt lat="49.55091625828774" lon="2.5029721235058218"><ele>123.33333333333334</ele><time>2026-04-02T16:29:14Z</time></trkpt><trkpt lat="49.55094537046727" lon="2.5030987558832787"><ele>123.16666666666667</ele><time>2026-04-02T16:29:16Z</time></trkpt><trkpt lat="49.55096985336481" lon="2.50321440746704"><ele>123.0</ele><time>2026-04-02T16:29:18Z</time></trkpt><trkpt lat="49.550988401226135" lon="2.5033394732004686"><ele>123.16666666666667</ele><time>2026-04-02T16:29:20Z</time></trkpt><trkpt lat="49.55101081098713" lon="2.503433056776485"><ele>123.33333333333334</ele><time>2026-04-02T16:29:22Z</time></trkpt><trkpt lat="49.55102442264145" lon="2.5035658137087435"><ele>123.5</ele><time>2026-04-02T16:29:24Z</time></trkpt><trkpt lat="49.5510541213872" lon="2.5037026153425974"><ele>123.66666666666667</ele><time>2026-04-02T16:29:26Z</time></trkpt><trkpt lat="49.551083570856896" lon="2.5038368607867114"><ele>123.83333333333334</ele><time>2026-04-02T16:29:28Z</time></trkpt><trkpt lat="49.55111403407617" lon="2.5039840240556765"><ele>124.0</ele><time>2026-04-02T16:29:30Z</time></trkpt><trkpt lat="49.551141310958855" lon="2.5041419874924027"><ele>124.0</ele><time>2026-04-02T16:29:32Z</time></trkpt><trkpt lat="49.55117436484182" lon="2.504301807696265"><ele>124.0</ele><time>2026-04-02T16:29:34Z</time></trkpt><trkpt lat="49.551213010525295" lon="2.5044620068882697"><ele>124.0</ele><time>2026-04-02T16:29:36Z</time></trkpt><trkpt lat="49.55124652691151" lon="2.5046350968267204"><ele>124.0</ele><time>2026-04-02T16:29:38Z</time></trkpt><trkpt lat="49.551288418117515" lon="2.5048129072297063"><ele>124.14285714285715</ele><time>2026-04-02T16:29:40Z</time></trkpt><trkpt lat="49.551309548370405" lon="2.504913669562817"><ele>124.2857142857143</ele><time>2026-04-02T16:29:41Z</time></trkpt><trkpt lat="49.55132817458034" lon="2.505020118673217"><ele>124.42857142857143</ele><time>2026-04-02T16:29:42Z</time></trkpt><trkpt lat="49.55134616221515" lon="2.5051312139184057"><ele>124.57142857142858</ele><time>2026-04-02T16:29:43Z</time></trkpt><trkpt lat="49.551368965332465" lon="2.5052422466466453"><ele>124.71428571428572</ele><time>2026-04-02T16:29:44Z</time></trkpt><trkpt lat="49.551390641770155" lon="2.5053569728537814"><ele>124.85714285714286</ele><time>2026-04-02T16:29:45Z</time></trkpt><trkpt lat="49.55140916445151" lon="2.5054615892417265"><ele>125.0</ele><time>2026-04-02T16:29:46Z</time></trkpt><trkpt lat="49.551428776962226" lon="2.505567754003293"><ele>124.99999999999999</ele><time>2026-04-02T16:29:47Z</time></trkpt><trkpt lat="49.55145042970848" lon="2.5056687705872274"><ele>125.0</ele><time>2026-04-02T16:29:48Z</time></trkpt><trkpt lat="49.55146931159116" lon="2.5057648141298774"><ele>125.0</ele><time>2026-04-02T16:29:49Z</time></trkpt><trkpt lat="49.55148046892048" lon="2.505871103935283"><ele>125.0</ele><time>2026-04-02T16:29:50Z</time></trkpt><trkpt lat="49.551500707590726" lon="2.5059655379513646"><ele>124.99999999999999</ele><time>2026-04-02T16:29:51Z</time></trkpt><trkpt lat="49.55154218121142" lon="2.5061424226662816"><ele>125.0</ele><time>2026-04-02T16:29:53Z</time></trkpt><trkpt lat="49.55158474450264" lon="2.5063024133167713"><ele>124.6</ele><time>2026-04-02T16:29:55Z</time></trkpt><trkpt lat="49.55163810751852" lon="2.506449187670433"><ele>124.2</ele><time>2026-04-02T16:29:57Z</time></trkpt><trkpt lat="49.551679648968054" lon="2.5065978823673536"><ele>123.80000000000001</ele><time>2026-04-02T16:29:59Z</time></trkpt><trkpt lat="49.551712524192254" lon="2.5067556794956425"><ele>123.4</ele><time>2026-04-02T16:30:01Z</time></trkpt><trkpt lat="49.55174600973336" lon="2.5069207026238103"><ele>123.0</ele><time>2026-04-02T16:30:03Z</time></trkpt><trkpt lat="49.55177141630832" lon="2.5070749863763853"><ele>122.80000000000001</ele><time>2026-04-02T16:30:05Z</time></trkpt><trkpt lat="49.5518040794635" lon="2.507224361615725"><ele>122.60000000000001</ele><time>2026-04-02T16:30:07Z</time></trkpt><trkpt lat="49.55183257015053" lon="2.50737379258921"><ele>122.39999999999999</ele><time>2026-04-02T16:30:09Z</time></trkpt><trkpt lat="49.55185601756241" lon="2.507533962187231"><ele>122.19999999999999</ele><time>2026-04-02T16:30:10.999Z</time></trkpt><trkpt lat="49.55188889499097" lon="2.5076981527022597"><ele>122.0</ele><time>2026-04-02T16:30:12.999Z</time></trkpt><trkpt lat="49.55189648848383" lon="2.5078643929999296"><ele>122.0</ele><time>2026-04-02T16:30:14.999Z</time></trkpt><trkpt lat="49.5518985799255" lon="2.5080297320325604"><ele>121.99999999999999</ele><time>2026-04-02T16:30:16.999Z</time></trkpt><trkpt lat="49.551926792067654" lon="2.5081992422439043"><ele>121.99999999999999</ele><time>2026-04-02T16:30:18.999Z</time></trkpt><trkpt lat="49.55194093687048" lon="2.508358616374625"><ele>122.0</ele><time>2026-04-02T16:30:20.999Z</time></trkpt><trkpt lat="49.55195729689275" lon="2.508516199001438"><ele>122.0</ele><time>2026-04-02T16:30:22.999Z</time></trkpt><trkpt lat="49.551969730014314" lon="2.508666867530382"><ele>122.19999999999999</ele><time>2026-04-02T16:30:24.999Z</time></trkpt><trkpt lat="49.5519871576352" lon="2.5088305972367224"><ele>122.39999999999999</ele><time>2026-04-02T16:30:26.999Z</time></trkpt><trkpt lat="49.55199928205405" lon="2.508997457496394"><ele>122.60000000000001</ele><time>2026-04-02T16:30:28.999Z</time></trkpt><trkpt lat="49.55201419272141" lon="2.50917041187616"><ele>122.80000000000001</ele><time>2026-04-02T16:30:30.999Z</time></trkpt><trkpt lat="49.55201801875083" lon="2.5093439141152984"><ele>123.0</ele><time>2026-04-02T16:30:32.999Z</time></trkpt><trkpt lat="49.5520317771273" lon="2.509512642853867"><ele>123.4</ele><time>2026-04-02T16:30:35Z</time></trkpt><trkpt lat="49.55204333515908" lon="2.509679489872584"><ele>123.80000000000001</ele><time>2026-04-02T16:30:37Z</time></trkpt><trkpt lat="49.552054310806454" lon="2.5098508449975583"><ele>124.2</ele><time>2026-04-02T16:30:39Z</time></trkpt><trkpt lat="49.55206589150905" lon="2.5100114386806416"><ele>124.6</ele><time>2026-04-02T16:30:41Z</time></trkpt><trkpt lat="49.552072804592264" lon="2.5101763684537546"><ele>125.0</ele><time>2026-04-02T16:30:43Z</time></trkpt><trkpt lat="49.552083955778805" lon="2.5103469081053382"><ele>124.2</ele><time>2026-04-02T16:30:45Z</time></trkpt><trkpt lat="49.552082943932646" lon="2.5105076624829197"><ele>123.4</ele><time>2026-04-02T16:30:47Z</time></trkpt><trkpt lat="49.55205947455004" lon="2.510675823663481"><ele>122.6</ele><time>2026-04-02T16:30:49Z</time></trkpt><trkpt lat="49.55204492345077" lon="2.510833984915078"><ele>121.8</ele><time>2026-04-02T16:30:51Z</time></trkpt><trkpt lat="49.552037435308854" lon="2.510992893005424"><ele>121.0</ele><time>2026-04-02T16:30:53Z</time></trkpt><trkpt lat="49.55203301551092" lon="2.5111598735374554"><ele>120.8</ele><time>2026-04-02T16:30:55Z</time></trkpt><trkpt lat="49.552026369573944" lon="2.511334299532811"><ele>120.6</ele><time>2026-04-02T16:30:57Z</time></trkpt><trkpt lat="49.55201812433339" lon="2.511494432472751"><ele>120.4</ele><time>2026-04-02T16:30:59Z</time></trkpt><trkpt lat="49.55201077250167" lon="2.511653114832637"><ele>120.2</ele><time>2026-04-02T16:31:01Z</time></trkpt><trkpt lat="49.55199988696919" lon="2.511828785022361"><ele>120.0</ele><time>2026-04-02T16:31:03Z</time></trkpt><trkpt lat="49.55200317716696" lon="2.512005575721324"><ele>119.85714285714286</ele><time>2026-04-02T16:31:05Z</time></trkpt><trkpt lat="49.551988288640274" lon="2.5121120764022447"><ele>119.71428571428571</ele><time>2026-04-02T16:31:06Z</time></trkpt><trkpt lat="49.551979552703195" lon="2.5122168640381033"><ele>119.57142857142857</ele><time>2026-04-02T16:31:07Z</time></trkpt><trkpt lat="49.55197627600653" lon="2.5123309071505844"><ele>119.42857142857143</ele><time>2026-04-02T16:31:08Z</time></trkpt><trkpt lat="49.55196934171861" lon="2.5124456392614785"><ele>119.28571428571428</ele><time>2026-04-02T16:31:09Z</time></trkpt><trkpt lat="49.55196422470102" lon="2.512570537908646"><ele>119.14285714285714</ele><time>2026-04-02T16:31:10Z</time></trkpt><trkpt lat="49.55195475252797" lon="2.5126922652051595"><ele>119.0</ele><time>2026-04-02T16:31:11Z</time></trkpt><trkpt lat="49.551950404282685" lon="2.51280679419787"><ele>118.85714285714286</ele><time>2026-04-02T16:31:12Z</time></trkpt><trkpt lat="49.551941237635745" lon="2.5129208021591714"><ele>118.71428571428572</ele><time>2026-04-02T16:31:13Z</time></trkpt><trkpt lat="49.551937546544956" lon="2.513031703448381"><ele>118.57142857142857</ele><time>2026-04-02T16:31:14Z</time></trkpt><trkpt lat="49.55193110231239" lon="2.513148713304647"><ele>118.42857142857143</ele><time>2026-04-02T16:31:15Z</time></trkpt><trkpt lat="49.551923966271616" lon="2.5132584365352644"><ele>118.28571428571429</ele><time>2026-04-02T16:31:16Z</time></trkpt><trkpt lat="49.551919228055134" lon="2.5133703516212673"><ele>118.14285714285714</ele><time>2026-04-02T16:31:17Z</time></trkpt><trkpt lat="49.55191717878155" lon="2.5134764525850803"><ele>118.0</ele><time>2026-04-02T16:31:18Z</time></trkpt><trkpt lat="49.55190937731024" lon="2.5135850900573713"><ele>118.0</ele><time>2026-04-02T16:31:19Z</time></trkpt><trkpt lat="49.551906623147104" lon="2.5136885386801278"><ele>118.0</ele><time>2026-04-02T16:31:20Z</time></trkpt><trkpt lat="49.55190505519571" lon="2.5137944612660426"><ele>118.0</ele><time>2026-04-02T16:31:21Z</time></trkpt><trkpt lat="49.5519051051618" lon="2.513894826478364"><ele>118.0</ele><time>2026-04-02T16:31:22Z</time></trkpt><trkpt lat="49.55189995244066" lon="2.5139987314841212"><ele>118.0</ele><time>2026-04-02T16:31:23Z</time></trkpt><trkpt lat="49.55189592798562" lon="2.5140981105801257"><ele>118.0</ele><time>2026-04-02T16:31:24Z</time></trkpt><trkpt lat="49.55189327810866" lon="2.514197756749879"><ele>118.0</ele><time>2026-04-02T16:31:25Z</time></trkpt><trkpt lat="49.551892263354674" lon="2.5143001296250858"><ele>118.0</ele><time>2026-04-02T16:31:26Z</time></trkpt><trkpt lat="49.551887857247976" lon="2.514400960635937"><ele>118.00000000000001</ele><time>2026-04-02T16:31:27Z</time></trkpt><trkpt lat="49.55187787888983" lon="2.5145968590217826"><ele>118.00000000000001</ele><time>2026-04-02T16:31:29Z</time></trkpt><trkpt lat="49.55186730901223" lon="2.514785257467426"><ele>118.0</ele><time>2026-04-02T16:31:31Z</time></trkpt><trkpt lat="49.55185702298884" lon="2.514968362946023"><ele>118.0</ele><time>2026-04-02T16:31:33Z</time></trkpt><trkpt lat="49.55184954520175" lon="2.515141887504286"><ele>118.0</ele><time>2026-04-02T16:31:35Z</time></trkpt><trkpt lat="49.55184249357213" lon="2.515308815245147"><ele>118.00000000000001</ele><time>2026-04-02T16:31:37Z</time></trkpt><trkpt lat="49.55184052860894" lon="2.5154782383635457"><ele>118.00000000000001</ele><time>2026-04-02T16:31:39Z</time></trkpt><trkpt lat="49.55183637845052" lon="2.5156589400486196"><ele>118.0</ele><time>2026-04-02T16:31:41Z</time></trkpt><trkpt lat="49.55182204335305" lon="2.515832283556738"><ele>118.0</ele><time>2026-04-02T16:31:43Z</time></trkpt><trkpt lat="49.55181395218582" lon="2.5159986353510586"><ele>118.33333333333334</ele><time>2026-04-02T16:31:45Z</time></trkpt><trkpt lat="49.55180440291932" lon="2.5161320618033445"><ele>118.66666666666667</ele><time>2026-04-02T16:31:47Z</time></trkpt><trkpt lat="49.55175242688308" lon="2.516204703090182"><ele>119.0</ele><time>2026-04-02T16:31:49Z</time></trkpt><trkpt lat="49.55168655672961" lon="2.516220651041673"><ele>119.33333333333334</ele><time>2026-04-02T16:31:51Z</time></trkpt><trkpt lat="49.551614164328136" lon="2.516246363442197"><ele>119.66666666666667</ele><time>2026-04-02T16:31:53Z</time></trkpt><trkpt lat="49.551540123011165" lon="2.5162547964609825"><ele>120.0</ele><time>2026-04-02T16:31:55Z</time></trkpt><trkpt lat="49.551448996960396" lon="2.5162509593545757"><ele>120.0</ele><time>2026-04-02T16:31:57Z</time></trkpt><trkpt lat="49.55134006457392" lon="2.516237648643391"><ele>120.0</ele><time>2026-04-02T16:31:59Z</time></trkpt><trkpt lat="49.55123430993717" lon="2.5162454319884695"><ele>120.0</ele><time>2026-04-02T16:32:01Z</time></trkpt><trkpt lat="49.55113062139599" lon="2.5162595491500954"><ele>120.0</ele><time>2026-04-02T16:32:03Z</time></trkpt><trkpt lat="49.551022306486836" lon="2.5162631635941075"><ele>120.0</ele><time>2026-04-02T16:32:05Z</time></trkpt><trkpt lat="49.55090904411074" lon="2.5162600519610456"><ele>120.0</ele><time>2026-04-02T16:32:07Z</time></trkpt><trkpt lat="49.55079395678716" lon="2.516266802027218"><ele>120.0</ele><time>2026-04-02T16:32:09Z</time></trkpt><trkpt lat="49.550730475914" lon="2.516266189271396"><ele>120.0</ele><time>2026-04-02T16:32:10Z</time></trkpt><trkpt lat="49.55060877066803" lon="2.5162614733477917"><ele>120.0</ele><time>2026-04-02T16:32:12Z</time></trkpt><trkpt lat="49.550487408779645" lon="2.5162585947799845"><ele>120.0</ele><time>2026-04-02T16:32:14Z</time></trkpt><trkpt lat="49.550423690235334" lon="2.5162651966747194"><ele>119.2</ele><time>2026-04-02T16:32:15Z</time></trkpt><trkpt lat="49.550299206374405" lon="2.5162622140803004"><ele>118.4</ele><time>2026-04-02T16:32:17Z</time></trkpt><trkpt lat="49.550174754727706" lon="2.5162663383881756"><ele>117.6</ele><time>2026-04-02T16:32:18.999Z</time></trkpt><trkpt lat="49.5500532139499" lon="2.5162728682775457"><ele>116.8</ele><time>2026-04-02T16:32:20.999Z</time></trkpt><trkpt lat="49.54998943259809" lon="2.5162766710320903"><ele>116.0</ele><time>2026-04-02T16:32:21.999Z</time></trkpt><trkpt lat="49.5498636944411" lon="2.5162762114591164"><ele>116.0</ele><time>2026-04-02T16:32:23.999Z</time></trkpt><trkpt lat="49.549740675972004" lon="2.516254474884477"><ele>116.0</ele><time>2026-04-02T16:32:25.999Z</time></trkpt><trkpt lat="49.54962621483949" lon="2.516230152282931"><ele>116.0</ele><time>2026-04-02T16:32:27.999Z</time></trkpt><trkpt lat="49.54953767590572" lon="2.516157890304234"><ele>116.0</ele><time>2026-04-02T16:32:29.999Z</time></trkpt><trkpt lat="49.549477152811846" lon="2.5160243769087893"><ele>116.0</ele><time>2026-04-02T16:32:31.999Z</time></trkpt><trkpt lat="49.54943222901431" lon="2.5159372303662657"><ele>115.6</ele><time>2026-04-02T16:32:33.999Z</time></trkpt><trkpt lat="49.5493686128261" lon="2.515842475524261"><ele>115.19999999999999</ele><time>2026-04-02T16:32:36.999Z</time></trkpt><trkpt lat="49.54930235115379" lon="2.5157398551122014"><ele>114.80000000000001</ele><time>2026-04-02T16:32:38.999Z</time></trkpt><trkpt lat="49.54922847889429" lon="2.515610988634613"><ele>114.4</ele><time>2026-04-02T16:32:41Z</time></trkpt><trkpt lat="49.54914635210828" lon="2.5154818503904592"><ele>114.0</ele><time>2026-04-02T16:32:43Z</time></trkpt><trkpt lat="49.549064028581626" lon="2.5153671725474096"><ele>114.0</ele><time>2026-04-02T16:32:45Z</time></trkpt><trkpt lat="49.5489827958107" lon="2.5152443884864355"><ele>114.0</ele><time>2026-04-02T16:32:47Z</time></trkpt><trkpt lat="49.548901688538734" lon="2.5151349167588406"><ele>114.0</ele><time>2026-04-02T16:32:49Z</time></trkpt><trkpt lat="49.54881352415253" lon="2.5150259920721334"><ele>114.0</ele><time>2026-04-02T16:32:51Z</time></trkpt><trkpt lat="49.54871959197406" lon="2.514923222391698"><ele>113.75</ele><time>2026-04-02T16:32:53Z</time></trkpt><trkpt lat="49.54862254272756" lon="2.5148301831583293"><ele>113.5</ele><time>2026-04-02T16:32:55Z</time></trkpt><trkpt lat="49.54851594156277" lon="2.5147436676691597"><ele>113.25</ele><time>2026-04-02T16:32:57Z</time></trkpt><trkpt lat="49.548413615220596" lon="2.514660761614101"><ele>113.0</ele><time>2026-04-02T16:32:59Z</time></trkpt><trkpt lat="49.54830929499681" lon="2.514597605656315"><ele>113.75</ele><time>2026-04-02T16:33:01Z</time></trkpt><trkpt lat="49.54820601514171" lon="2.5145272064862354"><ele>114.5</ele><time>2026-04-02T16:33:03Z</time></trkpt><trkpt lat="49.54810409652474" lon="2.5144726800306336"><ele>115.25</ele><time>2026-04-02T16:33:05Z</time></trkpt><trkpt lat="49.54799452696271" lon="2.51441603473761"><ele>116.0</ele><time>2026-04-02T16:33:07Z</time></trkpt><trkpt lat="49.5478830402381" lon="2.5143335215372398"><ele>115.42857142857144</ele><time>2026-04-02T16:33:09Z</time></trkpt><trkpt lat="49.547824267092" lon="2.514280361296021"><ele>114.85714285714286</ele><time>2026-04-02T16:33:10Z</time></trkpt><trkpt lat="49.54775963545965" lon="2.5142341219240256"><ele>114.28571428571429</ele><time>2026-04-02T16:33:11Z</time></trkpt><trkpt lat="49.54769325020797" lon="2.5141875060286605"><ele>113.71428571428572</ele><time>2026-04-02T16:33:12Z</time></trkpt><trkpt lat="49.54762334754828" lon="2.514143972542452"><ele>113.14285714285714</ele><time>2026-04-02T16:33:13Z</time></trkpt><trkpt lat="49.54755471224594" lon="2.514099466645647"><ele>112.57142857142857</ele><time>2026-04-02T16:33:14Z</time></trkpt><trkpt lat="49.54748701058359" lon="2.5140606113300104"><ele>112.0</ele><time>2026-04-02T16:33:15Z</time></trkpt><trkpt lat="49.54742859182621" lon="2.5139883675237935"><ele>112.0</ele><time>2026-04-02T16:33:16Z</time></trkpt><trkpt lat="49.547353140985074" lon="2.5139687558244623"><ele>112.0</ele><time>2026-04-02T16:33:17Z</time></trkpt><trkpt lat="49.54728470512171" lon="2.5139346115500967"><ele>112.0</ele><time>2026-04-02T16:33:18Z</time></trkpt><trkpt lat="49.54722216386228" lon="2.5138880049694268"><ele>112.0</ele><time>2026-04-02T16:33:19Z</time></trkpt><trkpt lat="49.547159979583235" lon="2.5138360528386254"><ele>112.0</ele><time>2026-04-02T16:33:20Z</time></trkpt><trkpt lat="49.547097594040615" lon="2.5137896244510505"><ele>112.0</ele><time>2026-04-02T16:33:21Z</time></trkpt><trkpt lat="49.54703649358074" lon="2.513740098156796"><ele>112.0</ele><time>2026-04-02T16:33:22Z</time></trkpt><trkpt lat="49.546985035069355" lon="2.513668776112997"><ele>112.0</ele><time>2026-04-02T16:33:23Z</time></trkpt><trkpt lat="49.54692357126168" lon="2.513622564530817"><ele>112.0</ele><time>2026-04-02T16:33:24Z</time></trkpt><trkpt lat="49.54686276445755" lon="2.5135768469188053"><ele>112.0</ele><time>2026-04-02T16:33:25Z</time></trkpt><trkpt lat="49.54679655017576" lon="2.513550471132596"><ele>112.0</ele><time>2026-04-02T16:33:26Z</time></trkpt><trkpt lat="49.546738087263265" lon="2.5134966263954515"><ele>112.0</ele><time>2026-04-02T16:33:27Z</time></trkpt><trkpt lat="49.54667911888231" lon="2.513452960717722"><ele>112.0</ele><time>2026-04-02T16:33:28Z</time></trkpt><trkpt lat="49.54662246305008" lon="2.5134018674344616"><ele>112.0</ele><time>2026-04-02T16:33:29Z</time></trkpt><trkpt lat="49.54656251213355" lon="2.5133559256503517"><ele>112.0</ele><time>2026-04-02T16:33:30Z</time></trkpt><trkpt lat="49.546501997533355" lon="2.5133135208261606"><ele>112.0</ele><time>2026-04-02T16:33:31Z</time></trkpt><trkpt lat="49.54644065917231" lon="2.513262664500771"><ele>112.0</ele><time>2026-04-02T16:33:32Z</time></trkpt><trkpt lat="49.54637862156544" lon="2.513220107218768"><ele>112.0</ele><time>2026-04-02T16:33:33Z</time></trkpt><trkpt lat="49.546314919217636" lon="2.5131706279843056"><ele>112.0</ele><time>2026-04-02T16:33:34Z</time></trkpt><trkpt lat="49.54625173206354" lon="2.5131216132269474"><ele>112.0</ele><time>2026-04-02T16:33:35Z</time></trkpt><trkpt lat="49.5461890974369" lon="2.5130692836980653"><ele>112.0</ele><time>2026-04-02T16:33:36Z</time></trkpt><trkpt lat="49.54612360416024" lon="2.513023002407452"><ele>112.0</ele><time>2026-04-02T16:33:37Z</time></trkpt><trkpt lat="49.546058006910194" lon="2.512987697398357"><ele>112.0</ele><time>2026-04-02T16:33:38Z</time></trkpt><trkpt lat="49.545991721741245" lon="2.51293643587443"><ele>112.0</ele><time>2026-04-02T16:33:39Z</time></trkpt><trkpt lat="49.545934811920574" lon="2.5128721948815453"><ele>112.0</ele><time>2026-04-02T16:33:40Z</time></trkpt><trkpt lat="49.545862086787885" lon="2.5128421509125314"><ele>112.0</ele><time>2026-04-02T16:33:41Z</time></trkpt><trkpt lat="49.54580141417558" lon="2.512794970044077"><ele>112.0</ele><time>2026-04-02T16:33:42Z</time></trkpt><trkpt lat="49.545735673422065" lon="2.512744265824332"><ele>112.0</ele><time>2026-04-02T16:33:43Z</time></trkpt><trkpt lat="49.545672574854414" lon="2.5126983460800774"><ele>112.0</ele><time>2026-04-02T16:33:44Z</time></trkpt><trkpt lat="49.545604545014065" lon="2.5126568751213343"><ele>112.0</ele><time>2026-04-02T16:33:45Z</time></trkpt><trkpt lat="49.54553883890516" lon="2.5126145571049077"><ele>112.0</ele><time>2026-04-02T16:33:46Z</time></trkpt><trkpt lat="49.54547326004147" lon="2.51258015948465"><ele>112.0</ele><time>2026-04-02T16:33:47Z</time></trkpt><trkpt lat="49.54540794762852" lon="2.5125317596701198"><ele>112.0</ele><time>2026-04-02T16:33:48Z</time></trkpt><trkpt lat="49.54534236418139" lon="2.512505907728787"><ele>112.0</ele><time>2026-04-02T16:33:49Z</time></trkpt><trkpt lat="49.5452769580557" lon="2.5124635317777906"><ele>112.0</ele><time>2026-04-02T16:33:50Z</time></trkpt><trkpt lat="49.54520428268389" lon="2.512406843987819"><ele>111.28571428571429</ele><time>2026-04-02T16:33:51Z</time></trkpt><trkpt lat="49.54514328266362" lon="2.5123810339065353"><ele>110.57142857142857</ele><time>2026-04-02T16:33:52Z</time></trkpt><trkpt lat="49.54508177750611" lon="2.512326891782464"><ele>109.85714285714286</ele><time>2026-04-02T16:33:53Z</time></trkpt><trkpt lat="49.54502700552119" lon="2.5122650644262086"><ele>109.14285714285714</ele><time>2026-04-02T16:33:54Z</time></trkpt><trkpt lat="49.54497128270968" lon="2.512191883607058"><ele>108.42857142857143</ele><time>2026-04-02T16:33:55Z</time></trkpt><trkpt lat="49.54492525828984" lon="2.5121057906364728"><ele>107.71428571428572</ele><time>2026-04-02T16:33:56Z</time></trkpt><trkpt lat="49.54487924653553" lon="2.5120254887754143"><ele>107.0</ele><time>2026-04-02T16:33:57Z</time></trkpt><trkpt lat="49.54482734404222" lon="2.511950457930879"><ele>107.00000000000001</ele><time>2026-04-02T16:33:58Z</time></trkpt><trkpt lat="49.54477392684001" lon="2.5118722407970937"><ele>107.0</ele><time>2026-04-02T16:33:59Z</time></trkpt><trkpt lat="49.54472057123557" lon="2.5117900357887093"><ele>107.0</ele><time>2026-04-02T16:34:00Z</time></trkpt><trkpt lat="49.544672875022655" lon="2.511715100495634"><ele>107.0</ele><time>2026-04-02T16:34:01Z</time></trkpt><trkpt lat="49.544624256239196" lon="2.511632213123495"><ele>107.0</ele><time>2026-04-02T16:34:02Z</time></trkpt><trkpt lat="49.544574764838686" lon="2.511566140047287"><ele>107.00000000000001</ele><time>2026-04-02T16:34:03Z</time></trkpt><trkpt lat="49.54452314193885" lon="2.511494802235974"><ele>107.0</ele><time>2026-04-02T16:34:04Z</time></trkpt><trkpt lat="49.54447473054524" lon="2.5114160277409003"><ele>106.99999999999999</ele><time>2026-04-02T16:34:05Z</time></trkpt><trkpt lat="49.544383620789056" lon="2.5112847721802116"><ele>107.0</ele><time>2026-04-02T16:34:07Z</time></trkpt><trkpt lat="49.54429640445494" lon="2.511143643035687"><ele>107.0</ele><time>2026-04-02T16:34:09Z</time></trkpt><trkpt lat="49.544251271880526" lon="2.5110754232687933"><ele>107.0</ele><time>2026-04-02T16:34:10Z</time></trkpt><trkpt lat="49.54420458655557" lon="2.5110059892600525"><ele>106.99999999999999</ele><time>2026-04-02T16:34:11Z</time></trkpt><trkpt lat="49.54415763037378" lon="2.5109264579669257"><ele>107.0</ele><time>2026-04-02T16:34:12Z</time></trkpt><trkpt lat="49.544106312584724" lon="2.5108556153424284"><ele>107.00000000000001</ele><time>2026-04-02T16:34:13Z</time></trkpt><trkpt lat="49.54406070107154" lon="2.5107750517200147"><ele>107.0</ele><time>2026-04-02T16:34:14Z</time></trkpt><trkpt lat="49.544006569271716" lon="2.5107048607717224"><ele>107.0</ele><time>2026-04-02T16:34:15Z</time></trkpt><trkpt lat="49.5439636871131" lon="2.5106237565171488"><ele>107.0</ele><time>2026-04-02T16:34:15.999Z</time></trkpt><trkpt lat="49.543916303695255" lon="2.510548751948247"><ele>107.0</ele><time>2026-04-02T16:34:16.999Z</time></trkpt><trkpt lat="49.5438739193484" lon="2.510465885617179"><ele>107.00000000000001</ele><time>2026-04-02T16:34:17.999Z</time></trkpt><trkpt lat="49.54382470037111" lon="2.5103959192760694"><ele>107.0</ele><time>2026-04-02T16:34:18.999Z</time></trkpt><trkpt lat="49.5437743397078" lon="2.5103270103013515"><ele>107.16666666666666</ele><time>2026-04-02T16:34:19.999Z</time></trkpt><trkpt lat="49.54372409331592" lon="2.510259497898124"><ele>107.33333333333333</ele><time>2026-04-02T16:34:20.999Z</time></trkpt><trkpt lat="49.543678397175974" lon="2.5101899418431994"><ele>107.5</ele><time>2026-04-02T16:34:21.999Z</time></trkpt><trkpt lat="49.54364034155022" lon="2.5101092998748826"><ele>107.66666666666666</ele><time>2026-04-02T16:34:22.999Z</time></trkpt><trkpt lat="49.543572949713486" lon="2.5099634123010683"><ele>107.83333333333333</ele><time>2026-04-02T16:34:24.999Z</time></trkpt><trkpt lat="49.54351757380038" lon="2.50980879885227"><ele>108.0</ele><time>2026-04-02T16:34:26.999Z</time></trkpt><trkpt lat="49.54346159395137" lon="2.5096865862947886"><ele>107.60000000000001</ele><time>2026-04-02T16:34:28.999Z</time></trkpt><trkpt lat="49.54341492038194" lon="2.509554932807659"><ele>107.20000000000002</ele><time>2026-04-02T16:34:30.999Z</time></trkpt><trkpt lat="49.54336472676942" lon="2.5094246246860963"><ele>106.8</ele><time>2026-04-02T16:34:32.999Z</time></trkpt><trkpt lat="49.54331717922081" lon="2.5092664865603025"><ele>106.4</ele><time>2026-04-02T16:34:34.999Z</time></trkpt><trkpt lat="49.54328185883457" lon="2.509088278336056"><ele>106.0</ele><time>2026-04-02T16:34:36.999Z</time></trkpt><trkpt lat="49.543237844916554" lon="2.5089169138247063"><ele>106.00000000000001</ele><time>2026-04-02T16:34:38.999Z</time></trkpt><trkpt lat="49.54321618012983" lon="2.5088254699027495"><ele>106.0</ele><time>2026-04-02T16:34:39.999Z</time></trkpt><trkpt lat="49.543145125467554" lon="2.5086735830505593"><ele>106.0</ele><time>2026-04-02T16:34:41.999Z</time></trkpt><trkpt lat="49.54309156486327" lon="2.508617580277409"><ele>106.0</ele><time>2026-04-02T16:34:42.999Z</time></trkpt><trkpt lat="49.54300689000176" lon="2.508486251321879"><ele>106.00000000000001</ele><time>2026-04-02T16:34:44.999Z</time></trkpt><trkpt lat="49.54296605762221" lon="2.5084121606701864"><ele>106.0</ele><time>2026-04-02T16:34:45.999Z</time></trkpt><trkpt lat="49.542923495672" lon="2.5083399238704667"><ele>106.0</ele><time>2026-04-02T16:34:47Z</time></trkpt><trkpt lat="49.54286264893063" lon="2.5081794048805306"><ele>106.0</ele><time>2026-04-02T16:34:49Z</time></trkpt><trkpt lat="49.542824073229255" lon="2.508030303015185"><ele>106.0</ele><time>2026-04-02T16:34:51Z</time></trkpt><trkpt lat="49.542800691399364" lon="2.507890685115544"><ele>106.0</ele><time>2026-04-02T16:34:53Z</time></trkpt><trkpt lat="49.54278710474994" lon="2.5077623255802357"><ele>106.0</ele><time>2026-04-02T16:34:55Z</time></trkpt><trkpt lat="49.54266256720861" lon="2.507702554110197"><ele>106.0</ele><time>2026-04-02T16:34:58Z</time></trkpt><trkpt lat="49.54258060984706" lon="2.507757008951437"><ele>106.0</ele><time>2026-04-02T16:35:00Z</time></trkpt><trkpt lat="49.54250035832785" lon="2.5078013882045465"><ele>106.0</ele><time>2026-04-02T16:35:02Z</time></trkpt><trkpt lat="49.54241752234454" lon="2.5078615609210955"><ele>106.0</ele><time>2026-04-02T16:35:04Z</time></trkpt><trkpt lat="49.54233045505919" lon="2.507910698905679"><ele>106.0</ele><time>2026-04-02T16:35:06Z</time></trkpt><trkpt lat="49.54223775977627" lon="2.507944572343842"><ele>105.6</ele><time>2026-04-02T16:35:08Z</time></trkpt><trkpt lat="49.54214893404607" lon="2.507957781665507"><ele>105.19999999999999</ele><time>2026-04-02T16:35:10Z</time></trkpt><trkpt lat="49.542056577828106" lon="2.5079805124155348"><ele>104.80000000000001</ele><time>2026-04-02T16:35:12Z</time></trkpt><trkpt lat="49.54196207064416" lon="2.508000937734752"><ele>104.4</ele><time>2026-04-02T16:35:14Z</time></trkpt><trkpt lat="49.54186441111395" lon="2.5080135931792094"><ele>104.0</ele><time>2026-04-02T16:35:16Z</time></trkpt><trkpt lat="49.54177344239185" lon="2.508036869108096"><ele>104.80000000000001</ele><time>2026-04-02T16:35:18Z</time></trkpt><trkpt lat="49.541674548082945" lon="2.508043578760061"><ele>105.60000000000001</ele><time>2026-04-02T16:35:20Z</time></trkpt><trkpt lat="49.5415771128766" lon="2.508047221602446"><ele>106.4</ele><time>2026-04-02T16:35:22Z</time></trkpt><trkpt lat="49.54147310830498" lon="2.5080466866034783"><ele>107.2</ele><time>2026-04-02T16:35:24Z</time></trkpt><trkpt lat="49.54137727469319" lon="2.508044392625364"><ele>108.0</ele><time>2026-04-02T16:35:26Z</time></trkpt><trkpt lat="49.541281129145545" lon="2.508035317046867"><ele>108.4</ele><time>2026-04-02T16:35:28Z</time></trkpt><trkpt lat="49.54118254880515" lon="2.508037762751076"><ele>108.80000000000001</ele><time>2026-04-02T16:35:30Z</time></trkpt><trkpt lat="49.54108694288523" lon="2.508015808694429"><ele>109.2</ele><time>2026-04-02T16:35:32Z</time></trkpt><trkpt lat="49.54098845094561" lon="2.5080251981844555"><ele>109.6</ele><time>2026-04-02T16:35:34Z</time></trkpt><trkpt lat="49.54089319138828" lon="2.508019578006552"><ele>110.0</ele><time>2026-04-02T16:35:36Z</time></trkpt><trkpt lat="49.54080240886456" lon="2.5080173878293928"><ele>109.99999999999999</ele><time>2026-04-02T16:35:38Z</time></trkpt><trkpt lat="49.54071803385242" lon="2.508010472468655"><ele>110.0</ele><time>2026-04-02T16:35:40Z</time></trkpt><trkpt lat="49.54063030761204" lon="2.5080066810498427"><ele>110.0</ele><time>2026-04-02T16:35:42Z</time></trkpt><trkpt lat="49.54054772332945" lon="2.508000398279261"><ele>110.0</ele><time>2026-04-02T16:35:44Z</time></trkpt><trkpt lat="49.54046484907168" lon="2.5079986714292417"><ele>109.99999999999999</ele><time>2026-04-02T16:35:46Z</time></trkpt><trkpt lat="49.540386391276265" lon="2.508005313888454"><ele>110.0</ele><time>2026-04-02T16:35:48Z</time></trkpt><trkpt lat="49.54030651281905" lon="2.5079909570143206"><ele>110.33333333333333</ele><time>2026-04-02T16:35:50Z</time></trkpt><trkpt lat="49.54022784917484" lon="2.50798020174358"><ele>110.66666666666666</ele><time>2026-04-02T16:35:52Z</time></trkpt><trkpt lat="49.540152996750265" lon="2.5079695343214015"><ele>111.0</ele><time>2026-04-02T16:35:54Z</time></trkpt><trkpt lat="49.54007553514805" lon="2.507967701333103"><ele>111.33333333333334</ele><time>2026-04-02T16:35:56Z</time></trkpt><trkpt lat="49.540000716664586" lon="2.507956294090588"><ele>111.66666666666667</ele><time>2026-04-02T16:35:58Z</time></trkpt><trkpt lat="49.53992069836885" lon="2.50794509757321"><ele>112.0</ele><time>2026-04-02T16:36:00Z</time></trkpt><trkpt lat="49.53984379896538" lon="2.5079344660379017"><ele>112.00000000000001</ele><time>2026-04-02T16:36:02Z</time></trkpt><trkpt lat="49.53976789350095" lon="2.5079255336204547"><ele>112.0</ele><time>2026-04-02T16:36:04Z</time></trkpt><trkpt lat="49.53969062384942" lon="2.507912392836632"><ele>112.0</ele><time>2026-04-02T16:36:06Z</time></trkpt><trkpt lat="49.539614071450515" lon="2.5078952298218833"><ele>112.0</ele><time>2026-04-02T16:36:08Z</time></trkpt><trkpt lat="49.53953540316843" lon="2.507885358044676"><ele>112.00000000000001</ele><time>2026-04-02T16:36:10Z</time></trkpt><trkpt lat="49.53945811105314" lon="2.507871381363099"><ele>112.0</ele><time>2026-04-02T16:36:12Z</time></trkpt><trkpt lat="49.53938264965998" lon="2.5078645131511745"><ele>112.16666666666667</ele><time>2026-04-02T16:36:14Z</time></trkpt><trkpt lat="49.53930695785642" lon="2.507856040273047"><ele>112.33333333333334</ele><time>2026-04-02T16:36:16Z</time></trkpt><trkpt lat="49.53923303477239" lon="2.5078380295342466"><ele>112.5</ele><time>2026-04-02T16:36:18Z</time></trkpt><trkpt lat="49.53915963059478" lon="2.5078327488188212"><ele>112.66666666666666</ele><time>2026-04-02T16:36:20Z</time></trkpt><trkpt lat="49.539087805673056" lon="2.5078153133707057"><ele>112.83333333333333</ele><time>2026-04-02T16:36:21.999Z</time></trkpt><trkpt lat="49.539008659634945" lon="2.507805355536104"><ele>113.0</ele><time>2026-04-02T16:36:23.999Z</time></trkpt><trkpt lat="49.53892778164472" lon="2.5077940987302783"><ele>112.99999999999999</ele><time>2026-04-02T16:36:25.999Z</time></trkpt><trkpt lat="49.538848728726954" lon="2.507802283390349"><ele>113.0</ele><time>2026-04-02T16:36:27.999Z</time></trkpt><trkpt lat="49.53876686070957" lon="2.5077739004935546"><ele>113.0</ele><time>2026-04-02T16:36:29.999Z</time></trkpt><trkpt lat="49.538682389323405" lon="2.5077545177009575"><ele>113.0</ele><time>2026-04-02T16:36:31.999Z</time></trkpt><trkpt lat="49.53859932000513" lon="2.50773280931738"><ele>112.99999999999999</ele><time>2026-04-02T16:36:33.999Z</time></trkpt><trkpt lat="49.538517999787835" lon="2.5077046441470787"><ele>113.0</ele><time>2026-04-02T16:36:35.999Z</time></trkpt><trkpt lat="49.538434762045355" lon="2.507677048631657"><ele>112.83333333333333</ele><time>2026-04-02T16:36:37.999Z</time></trkpt><trkpt lat="49.53835624182528" lon="2.507642770140723"><ele>112.66666666666666</ele><time>2026-04-02T16:36:39.999Z</time></trkpt><trkpt lat="49.53827671239297" lon="2.5076080088201116"><ele>112.5</ele><time>2026-04-02T16:36:41.999Z</time></trkpt><trkpt lat="49.53819751890381" lon="2.5075633207688943"><ele>112.33333333333334</ele><time>2026-04-02T16:36:43.999Z</time></trkpt><trkpt lat="49.53811054412349" lon="2.5075203624453932"><ele>112.16666666666667</ele><time>2026-04-02T16:36:45.999Z</time></trkpt><trkpt lat="49.53802162424422" lon="2.507475772145269"><ele>112.0</ele><time>2026-04-02T16:36:47.999Z</time></trkpt><trkpt lat="49.53792980511729" lon="2.507425725386596"><ele>111.8</ele><time>2026-04-02T16:36:49.999Z</time></trkpt><trkpt lat="49.53783280145005" lon="2.5073732648710214"><ele>111.6</ele><time>2026-04-02T16:36:51.999Z</time></trkpt><trkpt lat="49.53773592317314" lon="2.507322306012523"><ele>111.39999999999999</ele><time>2026-04-02T16:36:54Z</time></trkpt><trkpt lat="49.53763575430003" lon="2.507270373152323"><ele>111.19999999999999</ele><time>2026-04-02T16:36:56Z</time></trkpt><trkpt lat="49.53753337239882" lon="2.507207812700858"><ele>111.0</ele><time>2026-04-02T16:36:58Z</time></trkpt><trkpt lat="49.537427530732124" lon="2.507152614500486"><ele>111.0</ele><time>2026-04-02T16:37:00Z</time></trkpt><trkpt lat="49.53732073669492" lon="2.507094224762193"><ele>111.0</ele><time>2026-04-02T16:37:02Z</time></trkpt><trkpt lat="49.537207714265776" lon="2.5070305147409253"><ele>111.0</ele><time>2026-04-02T16:37:04Z</time></trkpt><trkpt lat="49.537145884673826" lon="2.5070024781135105"><ele>111.0</ele><time>2026-04-02T16:37:05Z</time></trkpt><trkpt lat="49.53708601809895" lon="2.506966074232302"><ele>111.0</ele><time>2026-04-02T16:37:06Z</time></trkpt><trkpt lat="49.537025579254475" lon="2.5069344461019654"><ele>111.0</ele><time>2026-04-02T16:37:07Z</time></trkpt><trkpt lat="49.536963106985255" lon="2.5068970413306046"><ele>110.85714285714285</ele><time>2026-04-02T16:37:08Z</time></trkpt><trkpt lat="49.536900013566914" lon="2.5068588637114213"><ele>110.71428571428572</ele><time>2026-04-02T16:37:09Z</time></trkpt><trkpt lat="49.53683536630426" lon="2.5068290080834816"><ele>110.57142857142857</ele><time>2026-04-02T16:37:10Z</time></trkpt><trkpt lat="49.53677105733931" lon="2.5067928873951906"><ele>110.42857142857142</ele><time>2026-04-02T16:37:11Z</time></trkpt><trkpt lat="49.536707458701805" lon="2.5067568352679275"><ele>110.28571428571428</ele><time>2026-04-02T16:37:12Z</time></trkpt><trkpt lat="49.53664391510414" lon="2.5067221741714936"><ele>110.14285714285714</ele><time>2026-04-02T16:37:13Z</time></trkpt><trkpt lat="49.536578603636215" lon="2.506686277209954"><ele>110.0</ele><time>2026-04-02T16:37:14Z</time></trkpt><trkpt lat="49.536514940034245" lon="2.5066526479880866"><ele>109.99999999999999</ele><time>2026-04-02T16:37:15Z</time></trkpt><trkpt lat="49.536449994200076" lon="2.5066179734163585"><ele>110.0</ele><time>2026-04-02T16:37:16Z</time></trkpt><trkpt lat="49.536386813623004" lon="2.506581918838362"><ele>110.0</ele><time>2026-04-02T16:37:17Z</time></trkpt><trkpt lat="49.53632378215675" lon="2.5065554244743966"><ele>110.0</ele><time>2026-04-02T16:37:18Z</time></trkpt><trkpt lat="49.536257590465" lon="2.5065215124906906"><ele>110.0</ele><time>2026-04-02T16:37:19Z</time></trkpt><trkpt lat="49.53619519938729" lon="2.5064816585328704"><ele>109.99999999999999</ele><time>2026-04-02T16:37:20Z</time></trkpt><trkpt lat="49.53613234304926" lon="2.5064399240775694"><ele>110.0</ele><time>2026-04-02T16:37:21Z</time></trkpt><trkpt lat="49.53606695685419" lon="2.506404026655342"><ele>109.99999999999999</ele><time>2026-04-02T16:37:22Z</time></trkpt><trkpt lat="49.53599699415222" lon="2.5063638904721395"><ele>110.0</ele><time>2026-04-02T16:37:23Z</time></trkpt><trkpt lat="49.53592730022721" lon="2.506325313177884"><ele>110.0</ele><time>2026-04-02T16:37:24Z</time></trkpt><trkpt lat="49.53585487093494" lon="2.5062881129925016"><ele>110.0</ele><time>2026-04-02T16:37:25Z</time></trkpt><trkpt lat="49.535784463265394" lon="2.5062522390692217"><ele>109.99999999999999</ele><time>2026-04-02T16:37:26Z</time></trkpt><trkpt lat="49.53571256580077" lon="2.506214651677525"><ele>110.0</ele><time>2026-04-02T16:37:27Z</time></trkpt><trkpt lat="49.53564013261761" lon="2.506175328098188"><ele>109.99999999999999</ele><time>2026-04-02T16:37:28Z</time></trkpt><trkpt lat="49.5355667715291" lon="2.506136738315572"><ele>110.0</ele><time>2026-04-02T16:37:29Z</time></trkpt><trkpt lat="49.53549277358846" lon="2.5060990982460543"><ele>110.0</ele><time>2026-04-02T16:37:30Z</time></trkpt><trkpt lat="49.53541952877957" lon="2.5060612137623175"><ele>110.0</ele><time>2026-04-02T16:37:31Z</time></trkpt><trkpt lat="49.535349493628466" lon="2.506023622097606"><ele>109.99999999999999</ele><time>2026-04-02T16:37:32Z</time></trkpt><trkpt lat="49.53527806175327" lon="2.5059807074304117"><ele>110.0</ele><time>2026-04-02T16:37:33Z</time></trkpt><trkpt lat="49.53520956903323" lon="2.505947229894315"><ele>109.99999999999999</ele><time>2026-04-02T16:37:34Z</time></trkpt><trkpt lat="49.53513941649549" lon="2.505917475657915"><ele>110.0</ele><time>2026-04-02T16:37:35Z</time></trkpt><trkpt lat="49.535074832904996" lon="2.5058821345966464"><ele>110.0</ele><time>2026-04-02T16:37:36Z</time></trkpt><trkpt lat="49.5350125672931" lon="2.5058422991963156"><ele>110.0</ele><time>2026-04-02T16:37:37Z</time></trkpt><trkpt lat="49.53494912069423" lon="2.505808608427771"><ele>110.0</ele><time>2026-04-02T16:37:38Z</time></trkpt><trkpt lat="49.53488745550703" lon="2.5057824342428274"><ele>109.99999999999999</ele><time>2026-04-02T16:37:39Z</time></trkpt><trkpt lat="49.5348282999506" lon="2.505743131819552"><ele>110.0</ele><time>2026-04-02T16:37:40Z</time></trkpt><trkpt lat="49.53471730456718" lon="2.5056793210034685"><ele>110.0</ele><time>2026-04-02T16:37:42Z</time></trkpt><trkpt lat="49.53461319500399" lon="2.50561338787337"><ele>110.0</ele><time>2026-04-02T16:37:44Z</time></trkpt><trkpt lat="49.5345130963132" lon="2.5055537235819925"><ele>110.0</ele><time>2026-04-02T16:37:46Z</time></trkpt><trkpt lat="49.534422936400716" lon="2.505498485534119"><ele>110.0</ele><time>2026-04-02T16:37:48Z</time></trkpt><trkpt lat="49.534336818198014" lon="2.505450808962037"><ele>110.0</ele><time>2026-04-02T16:37:50Z</time></trkpt><trkpt lat="49.5342580018285" lon="2.5054006255191505"><ele>110.33333333333333</ele><time>2026-04-02T16:37:52Z</time></trkpt><trkpt lat="49.534177776276515" lon="2.505352040562493"><ele>110.66666666666666</ele><time>2026-04-02T16:37:54Z</time></trkpt><trkpt lat="49.53410029276193" lon="2.5053038434821637"><ele>111.0</ele><time>2026-04-02T16:37:56Z</time></trkpt><trkpt lat="49.53402221486277" lon="2.5052559101739527"><ele>111.33333333333334</ele><time>2026-04-02T16:37:58Z</time></trkpt><trkpt lat="49.5339483376795" lon="2.505206988318584"><ele>111.66666666666667</ele><time>2026-04-02T16:38:00Z</time></trkpt><trkpt lat="49.53387368129986" lon="2.5051593542647175"><ele>112.0</ele><time>2026-04-02T16:38:02Z</time></trkpt><trkpt lat="49.53379842196057" lon="2.5051137048656793"><ele>112.33333333333334</ele><time>2026-04-02T16:38:04Z</time></trkpt><trkpt lat="49.53372183197336" lon="2.505061296445308"><ele>112.66666666666667</ele><time>2026-04-02T16:38:06Z</time></trkpt><trkpt lat="49.53364576822583" lon="2.5050154978064447"><ele>113.0</ele><time>2026-04-02T16:38:08Z</time></trkpt><trkpt lat="49.53356812976214" lon="2.5049678760937515"><ele>113.33333333333334</ele><time>2026-04-02T16:38:10Z</time></trkpt><trkpt lat="49.533490813879126" lon="2.504915328000261"><ele>113.66666666666667</ele><time>2026-04-02T16:38:12Z</time></trkpt><trkpt lat="49.53341358113767" lon="2.5048646641511128"><ele>114.0</ele><time>2026-04-02T16:38:14Z</time></trkpt><trkpt lat="49.533337004909264" lon="2.5048178145129683"><ele>114.0</ele><time>2026-04-02T16:38:16Z</time></trkpt><trkpt lat="49.53326179721349" lon="2.5047726407848487"><ele>114.0</ele><time>2026-04-02T16:38:18Z</time></trkpt><trkpt lat="49.533186598784376" lon="2.5047279221194185"><ele>114.0</ele><time>2026-04-02T16:38:20Z</time></trkpt><trkpt lat="49.53311382961243" lon="2.504683550671129"><ele>114.0</ele><time>2026-04-02T16:38:21.999Z</time></trkpt><trkpt lat="49.533039439774534" lon="2.5046496502312423"><ele>114.0</ele><time>2026-04-02T16:38:23.999Z</time></trkpt><trkpt lat="49.53296903619312" lon="2.504606773608436"><ele>114.0</ele><time>2026-04-02T16:38:25.999Z</time></trkpt><trkpt lat="49.53289604503154" lon="2.5045798516263806"><ele>114.33333333333333</ele><time>2026-04-02T16:38:27.999Z</time></trkpt><trkpt lat="49.53282305676144" lon="2.5045464140267746"><ele>114.66666666666666</ele><time>2026-04-02T16:38:29.999Z</time></trkpt><trkpt lat="49.53274888858037" lon="2.5045159476289918"><ele>115.0</ele><time>2026-04-02T16:38:31.999Z</time></trkpt><trkpt lat="49.53267618939369" lon="2.504490160694125"><ele>115.33333333333333</ele><time>2026-04-02T16:38:33.999Z</time></trkpt><trkpt lat="49.53260322032556" lon="2.504458299812486"><ele>115.66666666666666</ele><time>2026-04-02T16:38:35.999Z</time></trkpt><trkpt lat="49.53252919810791" lon="2.5044341623437645"><ele>116.0</ele><time>2026-04-02T16:38:37.999Z</time></trkpt><trkpt lat="49.53245789838843" lon="2.5044047753446925"><ele>116.00000000000001</ele><time>2026-04-02T16:38:39.999Z</time></trkpt><trkpt lat="49.53238543849511" lon="2.504385834917322"><ele>116.0</ele><time>2026-04-02T16:38:41.999Z</time></trkpt><trkpt lat="49.532312866422956" lon="2.5043589914556206"><ele>116.00000000000001</ele><time>2026-04-02T16:38:43.999Z</time></trkpt><trkpt lat="49.53224267607664" lon="2.5043290740025843"><ele>116.00000000000001</ele><time>2026-04-02T16:38:45.999Z</time></trkpt><trkpt lat="49.53216938058876" lon="2.504305892932961"><ele>116.0</ele><time>2026-04-02T16:38:47.999Z</time></trkpt><trkpt lat="49.53209802252317" lon="2.50428015920359"><ele>116.00000000000001</ele><time>2026-04-02T16:38:49.999Z</time></trkpt><trkpt lat="49.53202875833346" lon="2.5042562058486553"><ele>116.00000000000001</ele><time>2026-04-02T16:38:51.999Z</time></trkpt><trkpt lat="49.53195778566607" lon="2.504238085045649"><ele>116.33333333333333</ele><time>2026-04-02T16:38:53.999Z</time></trkpt><trkpt lat="49.53189058283618" lon="2.504211337176864"><ele>116.66666666666666</ele><time>2026-04-02T16:38:55.999Z</time></trkpt><trkpt lat="49.53181924106482" lon="2.5041873255458666"><ele>117.0</ele><time>2026-04-02T16:38:57.999Z</time></trkpt><trkpt lat="49.53174846006036" lon="2.5041625548992013"><ele>117.33333333333334</ele><time>2026-04-02T16:39:00Z</time></trkpt><trkpt lat="49.53163614043702" lon="2.5041121762136287"><ele>117.66666666666667</ele><time>2026-04-02T16:39:03Z</time></trkpt><trkpt lat="49.531555947197546" lon="2.5040888071514527"><ele>118.0</ele><time>2026-04-02T16:39:05Z</time></trkpt><trkpt lat="49.53147389131823" lon="2.5040582758565546"><ele>118.0</ele><time>2026-04-02T16:39:07Z</time></trkpt><trkpt lat="49.53138865778593" lon="2.504023634520213"><ele>118.00000000000001</ele><time>2026-04-02T16:39:09Z</time></trkpt><trkpt lat="49.53130176458635" lon="2.5039946099215555"><ele>118.00000000000001</ele><time>2026-04-02T16:39:11Z</time></trkpt><trkpt lat="49.531213739416934" lon="2.503966371964625"><ele>118.0</ele><time>2026-04-02T16:39:13Z</time></trkpt><trkpt lat="49.531127409587214" lon="2.5039390561741754"><ele>118.0</ele><time>2026-04-02T16:39:15Z</time></trkpt><trkpt lat="49.53103407546985" lon="2.5039048514764244"><ele>117.80000000000001</ele><time>2026-04-02T16:39:17Z</time></trkpt><trkpt lat="49.53093728334046" lon="2.5038721143543765"><ele>117.60000000000001</ele><time>2026-04-02T16:39:19Z</time></trkpt><trkpt lat="49.53083620728125" lon="2.5038354223329846"><ele>117.39999999999999</ele><time>2026-04-02T16:39:21Z</time></trkpt><trkpt lat="49.53073229755911" lon="2.5038021514984012"><ele>117.19999999999999</ele><time>2026-04-02T16:39:23Z</time></trkpt><trkpt lat="49.530630873755975" lon="2.503763039899611"><ele>117.0</ele><time>2026-04-02T16:39:25Z</time></trkpt><trkpt lat="49.53052023711579" lon="2.5037223381809857"><ele>117.0</ele><time>2026-04-02T16:39:27Z</time></trkpt><trkpt lat="49.530409758295846" lon="2.503675197051989"><ele>117.0</ele><time>2026-04-02T16:39:29Z</time></trkpt><trkpt lat="49.53029925470712" lon="2.5036242795394603"><ele>117.0</ele><time>2026-04-02T16:39:31Z</time></trkpt><trkpt lat="49.530187455438906" lon="2.5035654725363603"><ele>117.0</ele><time>2026-04-02T16:39:33Z</time></trkpt><trkpt lat="49.53008099907085" lon="2.50350464541444"><ele>117.0</ele><time>2026-04-02T16:39:35Z</time></trkpt><trkpt lat="49.5299780313474" lon="2.503442763966464"><ele>116.99999999999999</ele><time>2026-04-02T16:39:37Z</time></trkpt><trkpt lat="49.529879846675776" lon="2.5033830046140957"><ele>116.99999999999999</ele><time>2026-04-02T16:39:39Z</time></trkpt><trkpt lat="49.529786369846036" lon="2.50331914313995"><ele>117.0</ele><time>2026-04-02T16:39:41Z</time></trkpt><trkpt lat="49.52969466746332" lon="2.5032556243811306"><ele>117.0</ele><time>2026-04-02T16:39:43Z</time></trkpt><trkpt lat="49.529604532725884" lon="2.5031989351343644"><ele>117.0</ele><time>2026-04-02T16:39:45Z</time></trkpt><trkpt lat="49.52951372674183" lon="2.5031392810057373"><ele>116.99999999999999</ele><time>2026-04-02T16:39:47Z</time></trkpt><trkpt lat="49.529424313935735" lon="2.5030860767914884"><ele>116.99999999999999</ele><time>2026-04-02T16:39:49Z</time></trkpt><trkpt lat="49.529337484706744" lon="2.503020465526843"><ele>117.0</ele><time>2026-04-02T16:39:51Z</time></trkpt><trkpt lat="49.52924769057431" lon="2.502964777415061"><ele>117.0</ele><time>2026-04-02T16:39:53Z</time></trkpt><trkpt lat="49.52915450099846" lon="2.5029019930189524"><ele>117.0</ele><time>2026-04-02T16:39:55Z</time></trkpt><trkpt lat="49.5290610953319" lon="2.5028393296383324"><ele>116.99999999999999</ele><time>2026-04-02T16:39:57Z</time></trkpt><trkpt lat="49.52896677058745" lon="2.5027807375377242"><ele>116.99999999999999</ele><time>2026-04-02T16:39:59Z</time></trkpt><trkpt lat="49.52887593637037" lon="2.5027166837521158"><ele>117.0</ele><time>2026-04-02T16:40:01Z</time></trkpt><trkpt lat="49.528784093944275" lon="2.502659156628926"><ele>117.0</ele><time>2026-04-02T16:40:03Z</time></trkpt><trkpt lat="49.52869074203727" lon="2.5026039457605895"><ele>117.19999999999999</ele><time>2026-04-02T16:40:05Z</time></trkpt><trkpt lat="49.52859922891893" lon="2.5025426020378605"><ele>117.39999999999999</ele><time>2026-04-02T16:40:07Z</time></trkpt><trkpt lat="49.52850813835099" lon="2.5024865591190184"><ele>117.60000000000001</ele><time>2026-04-02T16:40:09Z</time></trkpt><trkpt lat="49.52841923877713" lon="2.502428889234107"><ele>117.80000000000001</ele><time>2026-04-02T16:40:11Z</time></trkpt><trkpt lat="49.52832822929909" lon="2.5023708172081056"><ele>118.0</ele><time>2026-04-02T16:40:13Z</time></trkpt><trkpt lat="49.52823676516921" lon="2.5023162855988"><ele>118.0</ele><time>2026-04-02T16:40:15Z</time></trkpt><trkpt lat="49.52814646268448" lon="2.5022575781539427"><ele>118.00000000000001</ele><time>2026-04-02T16:40:17Z</time></trkpt><trkpt lat="49.52805389330795" lon="2.502205448822298"><ele>118.00000000000001</ele><time>2026-04-02T16:40:19Z</time></trkpt><trkpt lat="49.527964997579055" lon="2.5021482961406436"><ele>118.0</ele><time>2026-04-02T16:40:20.999Z</time></trkpt><trkpt lat="49.52787719836433" lon="2.502080382981237"><ele>118.0</ele><time>2026-04-02T16:40:22.999Z</time></trkpt><trkpt lat="49.52778513017803" lon="2.5020277081756763"><ele>118.0</ele><time>2026-04-02T16:40:24.999Z</time></trkpt><trkpt lat="49.52769409037713" lon="2.501967711742905"><ele>118.00000000000001</ele><time>2026-04-02T16:40:26.999Z</time></trkpt><trkpt lat="49.52760104870429" lon="2.5019084062418155"><ele>118.00000000000001</ele><time>2026-04-02T16:40:28.999Z</time></trkpt><trkpt lat="49.527506758153095" lon="2.5018578247611836"><ele>118.0</ele><time>2026-04-02T16:40:30.999Z</time></trkpt><trkpt lat="49.52741338061086" lon="2.5018058874071003"><ele>118.0</ele><time>2026-04-02T16:40:32.999Z</time></trkpt><trkpt lat="49.52732184157694" lon="2.501750338324202"><ele>118.0</ele><time>2026-04-02T16:40:34.999Z</time></trkpt><trkpt lat="49.52723027437744" lon="2.5016924207862945"><ele>118.00000000000001</ele><time>2026-04-02T16:40:36.999Z</time></trkpt><trkpt lat="49.52713694743051" lon="2.5016432809970564"><ele>118.00000000000001</ele><time>2026-04-02T16:40:38.999Z</time></trkpt><trkpt lat="49.52705023654267" lon="2.5015900329329503"><ele>118.0</ele><time>2026-04-02T16:40:40.999Z</time></trkpt><trkpt lat="49.52695988126593" lon="2.5015341614183457"><ele>118.0</ele><time>2026-04-02T16:40:42.999Z</time></trkpt><trkpt lat="49.526867398501174" lon="2.5014844094451916"><ele>118.2</ele><time>2026-04-02T16:40:44.999Z</time></trkpt><trkpt lat="49.52677484900492" lon="2.5014286965580226"><ele>118.4</ele><time>2026-04-02T16:40:46.999Z</time></trkpt><trkpt lat="49.526683004097016" lon="2.501374690888216"><ele>118.60000000000001</ele><time>2026-04-02T16:40:48.999Z</time></trkpt><trkpt lat="49.526591622447306" lon="2.501325207915497"><ele>118.80000000000001</ele><time>2026-04-02T16:40:50.999Z</time></trkpt><trkpt lat="49.526505588831725" lon="2.5012710104733533"><ele>119.0</ele><time>2026-04-02T16:40:52.999Z</time></trkpt><trkpt lat="49.52641642901869" lon="2.501220813137541"><ele>118.99999999999999</ele><time>2026-04-02T16:40:54.999Z</time></trkpt><trkpt lat="49.526330978977356" lon="2.501167884547117"><ele>119.0</ele><time>2026-04-02T16:40:56.999Z</time></trkpt><trkpt lat="49.526246216676554" lon="2.5011199787217295"><ele>119.0</ele><time>2026-04-02T16:40:58.999Z</time></trkpt><trkpt lat="49.526164629557115" lon="2.5010678802428026"><ele>119.0</ele><time>2026-04-02T16:41:00.999Z</time></trkpt><trkpt lat="49.526080375423696" lon="2.501024820807411"><ele>118.99999999999999</ele><time>2026-04-02T16:41:02.999Z</time></trkpt><trkpt lat="49.52600103568816" lon="2.5009768696933796"><ele>119.0</ele><time>2026-04-02T16:41:05Z</time></trkpt><trkpt lat="49.52592446796321" lon="2.500929281159294"><ele>118.99999999999999</ele><time>2026-04-02T16:41:07Z</time></trkpt><trkpt lat="49.525846886033136" lon="2.5008741903967513"><ele>119.0</ele><time>2026-04-02T16:41:09Z</time></trkpt><trkpt lat="49.52576357889258" lon="2.5008290678717318"><ele>119.0</ele><time>2026-04-02T16:41:11Z</time></trkpt><trkpt lat="49.52568253163165" lon="2.5007833308698184"><ele>119.0</ele><time>2026-04-02T16:41:13Z</time></trkpt><trkpt lat="49.52560074706149" lon="2.5007301843710197"><ele>118.99999999999999</ele><time>2026-04-02T16:41:15Z</time></trkpt><trkpt lat="49.52551189447326" lon="2.500688585035152"><ele>119.0</ele><time>2026-04-02T16:41:17Z</time></trkpt><trkpt lat="49.52542087612606" lon="2.5006395198227547"><ele>119.0</ele><time>2026-04-02T16:41:19Z</time></trkpt><trkpt lat="49.52533032965811" lon="2.5005832718914274"><ele>119.0</ele><time>2026-04-02T16:41:21Z</time></trkpt><trkpt lat="49.52523665277632" lon="2.500529934667693"><ele>119.0</ele><time>2026-04-02T16:41:23Z</time></trkpt><trkpt lat="49.52514082599341" lon="2.5004783532838792"><ele>119.0</ele><time>2026-04-02T16:41:25Z</time></trkpt><trkpt lat="49.52504436389611" lon="2.500420367062905"><ele>119.0</ele><time>2026-04-02T16:41:27Z</time></trkpt><trkpt lat="49.52494356562938" lon="2.500368792905013"><ele>119.0</ele><time>2026-04-02T16:41:29Z</time></trkpt><trkpt lat="49.5248394181293" lon="2.5003084361544303"><ele>119.0</ele><time>2026-04-02T16:41:31Z</time></trkpt><trkpt lat="49.52473145981284" lon="2.500258220188878"><ele>119.0</ele><time>2026-04-02T16:41:33Z</time></trkpt><trkpt lat="49.5246180733912" lon="2.5001953772573"><ele>119.0</ele><time>2026-04-02T16:41:35Z</time></trkpt><trkpt lat="49.52450510276945" lon="2.5001358414689587"><ele>118.6</ele><time>2026-04-02T16:41:37Z</time></trkpt><trkpt lat="49.52444043590135" lon="2.500098495149742"><ele>118.2</ele><time>2026-04-02T16:41:38Z</time></trkpt><trkpt lat="49.52431966939287" lon="2.5000399296691085"><ele>117.79999999999998</ele><time>2026-04-02T16:41:40Z</time></trkpt><trkpt lat="49.52425692835323" lon="2.5000044862603974"><ele>117.39999999999999</ele><time>2026-04-02T16:41:41Z</time></trkpt><trkpt lat="49.52419525894661" lon="2.49997510699996"><ele>117.0</ele><time>2026-04-02T16:41:42Z</time></trkpt><trkpt lat="49.52407147940422" lon="2.499907672474319"><ele>117.0</ele><time>2026-04-02T16:41:44Z</time></trkpt><trkpt lat="49.524009701963934" lon="2.4998696445488036"><ele>117.00000000000001</ele><time>2026-04-02T16:41:45Z</time></trkpt><trkpt lat="49.52394467332924" lon="2.4998336130288523"><ele>117.0</ele><time>2026-04-02T16:41:46Z</time></trkpt><trkpt lat="49.523880785087194" lon="2.4997980729600786"><ele>117.0</ele><time>2026-04-02T16:41:47Z</time></trkpt><trkpt lat="49.52381461216213" lon="2.4997612037711896"><ele>117.00000000000001</ele><time>2026-04-02T16:41:48Z</time></trkpt><trkpt lat="49.52374517239063" lon="2.4997246634497814"><ele>117.0</ele><time>2026-04-02T16:41:49Z</time></trkpt><trkpt lat="49.5236759539307" lon="2.499689823623441"><ele>117.0</ele><time>2026-04-02T16:41:50Z</time></trkpt><trkpt lat="49.523602479780216" lon="2.4996483300536236"><ele>116.83333333333333</ele><time>2026-04-02T16:41:51Z</time></trkpt><trkpt lat="49.523528767140235" lon="2.49960778445543"><ele>116.66666666666666</ele><time>2026-04-02T16:41:52Z</time></trkpt><trkpt lat="49.52345032496804" lon="2.4995742989344896"><ele>116.5</ele><time>2026-04-02T16:41:53Z</time></trkpt><trkpt lat="49.52336920427366" lon="2.4995403374263008"><ele>116.33333333333333</ele><time>2026-04-02T16:41:54Z</time></trkpt><trkpt lat="49.52328380858972" lon="2.4995153698901706"><ele>116.16666666666666</ele><time>2026-04-02T16:41:55Z</time></trkpt><trkpt lat="49.5231963451865" lon="2.4994954870495034"><ele>116.0</ele><time>2026-04-02T16:41:56Z</time></trkpt><trkpt lat="49.52310285930332" lon="2.4994870131345306"><ele>116.0</ele><time>2026-04-02T16:41:57Z</time></trkpt><trkpt lat="49.523010235420244" lon="2.4994824780622382"><ele>116.0</ele><time>2026-04-02T16:41:58Z</time></trkpt><trkpt lat="49.52291118297851" lon="2.4994866106487934"><ele>116.0</ele><time>2026-04-02T16:41:59Z</time></trkpt><trkpt lat="49.52281242460857" lon="2.4995024798290406"><ele>116.0</ele><time>2026-04-02T16:42:00Z</time></trkpt><trkpt lat="49.522712030465236" lon="2.499533558294127"><ele>116.0</ele><time>2026-04-02T16:42:01Z</time></trkpt><trkpt lat="49.522611639062205" lon="2.4995698839184475"><ele>115.19999999999999</ele><time>2026-04-02T16:42:02Z</time></trkpt><trkpt lat="49.52250759583915" lon="2.4996154683029204"><ele>114.39999999999999</ele><time>2026-04-02T16:42:03Z</time></trkpt><trkpt lat="49.5224057523147" lon="2.499661733071314"><ele>113.6</ele><time>2026-04-02T16:42:04Z</time></trkpt><trkpt lat="49.52230230607441" lon="2.499706242360956"><ele>112.8</ele><time>2026-04-02T16:42:05Z</time></trkpt><trkpt lat="49.52219460320123" lon="2.4997520431069007"><ele>112.0</ele><time>2026-04-02T16:42:06Z</time></trkpt><trkpt lat="49.522091821647884" lon="2.499797896179925"><ele>111.25</ele><time>2026-04-02T16:42:07Z</time></trkpt><trkpt lat="49.52198315398901" lon="2.4998444092644263"><ele>110.5</ele><time>2026-04-02T16:42:08Z</time></trkpt><trkpt lat="49.52187364700228" lon="2.4998931154413166"><ele>109.75</ele><time>2026-04-02T16:42:09Z</time></trkpt><trkpt lat="49.52176507542318" lon="2.499940481006613"><ele>109.0</ele><time>2026-04-02T16:42:10Z</time></trkpt><trkpt lat="49.52165640798081" lon="2.4999837709240733"><ele>109.0</ele><time>2026-04-02T16:42:11Z</time></trkpt><trkpt lat="49.521549992389325" lon="2.5000261299201494"><ele>109.0</ele><time>2026-04-02T16:42:12Z</time></trkpt><trkpt lat="49.521438280520535" lon="2.50006456948682"><ele>109.0</ele><time>2026-04-02T16:42:13Z</time></trkpt><trkpt lat="49.521328934529315" lon="2.50009182871713"><ele>109.0</ele><time>2026-04-02T16:42:14Z</time></trkpt><trkpt lat="49.52122270667793" lon="2.5001131771895855"><ele>109.0</ele><time>2026-04-02T16:42:15Z</time></trkpt><trkpt lat="49.521118079504234" lon="2.500136083297905"><ele>108.4</ele><time>2026-04-02T16:42:16Z</time></trkpt><trkpt lat="49.52101610673196" lon="2.5001601808880474"><ele>107.80000000000001</ele><time>2026-04-02T16:42:17Z</time></trkpt><trkpt lat="49.520917139550996" lon="2.500177476009941"><ele>107.19999999999999</ele><time>2026-04-02T16:42:18Z</time></trkpt><trkpt lat="49.520843440191015" lon="2.500167770909567"><ele>106.6</ele><time>2026-04-02T16:42:19Z</time></trkpt><trkpt lat="49.52073397012566" lon="2.5002111316488747"><ele>106.0</ele><time>2026-04-02T16:42:20Z</time></trkpt><trkpt lat="49.52064401333773" lon="2.5002216911013986"><ele>106.00000000000001</ele><time>2026-04-02T16:42:21Z</time></trkpt><trkpt lat="49.52055679305731" lon="2.500236149356552"><ele>106.0</ele><time>2026-04-02T16:42:21.999Z</time></trkpt><trkpt lat="49.520471291327965" lon="2.500249945538219"><ele>106.0</ele><time>2026-04-02T16:42:22.999Z</time></trkpt><trkpt lat="49.520390834862646" lon="2.5002659835494945"><ele>106.0</ele><time>2026-04-02T16:42:23.999Z</time></trkpt><trkpt lat="49.52031292202816" lon="2.500275894582768"><ele>106.00000000000001</ele><time>2026-04-02T16:42:24.999Z</time></trkpt><trkpt lat="49.520234849527995" lon="2.5002898129524525"><ele>106.0</ele><time>2026-04-02T16:42:25.999Z</time></trkpt><trkpt lat="49.520160594059384" lon="2.500301250742888"><ele>106.19999999999999</ele><time>2026-04-02T16:42:26.999Z</time></trkpt><trkpt lat="49.52008815931483" lon="2.5003084854719204"><ele>106.39999999999999</ele><time>2026-04-02T16:42:27.999Z</time></trkpt><trkpt lat="49.520021768975845" lon="2.5003200258191667"><ele>106.6</ele><time>2026-04-02T16:42:28.999Z</time></trkpt><trkpt lat="49.51990121585211" lon="2.500348780801242"><ele>106.8</ele><time>2026-04-02T16:42:30.999Z</time></trkpt><trkpt lat="49.51979846316812" lon="2.5003510567192064"><ele>107.0</ele><time>2026-04-02T16:42:32.999Z</time></trkpt><trkpt lat="49.51970096846334" lon="2.5003512884202554"><ele>107.0</ele><time>2026-04-02T16:42:34.999Z</time></trkpt><trkpt lat="49.51960566999342" lon="2.500354281057898"><ele>106.99999999999999</ele><time>2026-04-02T16:42:36.999Z</time></trkpt><trkpt lat="49.51951043504969" lon="2.5003316647284644"><ele>106.99999999999999</ele><time>2026-04-02T16:42:38.999Z</time></trkpt><trkpt lat="49.51942292103106" lon="2.5002995660650917"><ele>107.0</ele><time>2026-04-02T16:42:40.999Z</time></trkpt><trkpt lat="49.51934163234582" lon="2.500282423030875"><ele>107.0</ele><time>2026-04-02T16:42:42.999Z</time></trkpt><trkpt lat="49.51925569743049" lon="2.5002681548542736"><ele>107.28571428571429</ele><time>2026-04-02T16:42:44.999Z</time></trkpt><trkpt lat="49.51917420632195" lon="2.500259088883666"><ele>107.57142857142857</ele><time>2026-04-02T16:42:46.999Z</time></trkpt><trkpt lat="49.519092410223585" lon="2.5002561264323915"><ele>107.85714285714286</ele><time>2026-04-02T16:42:48.999Z</time></trkpt><trkpt lat="49.519012302118725" lon="2.500264869587331"><ele>108.14285714285714</ele><time>2026-04-02T16:42:50.999Z</time></trkpt><trkpt lat="49.518940234280535" lon="2.5002788104375897"><ele>108.42857142857143</ele><time>2026-04-02T16:42:52.999Z</time></trkpt><trkpt lat="49.518875103573635" lon="2.5002851253373737"><ele>108.71428571428572</ele><time>2026-04-02T16:42:54.999Z</time></trkpt><trkpt lat="49.51881352821647" lon="2.5003137158464046"><ele>109.0</ele><time>2026-04-02T16:42:56.999Z</time></trkpt><trkpt lat="49.518751314479275" lon="2.500338134435095"><ele>109.33333333333334</ele><time>2026-04-02T16:42:58.999Z</time></trkpt><trkpt lat="49.51869338653105" lon="2.5003827047819915"><ele>109.66666666666667</ele><time>2026-04-02T16:43:00.999Z</time></trkpt><trkpt lat="49.51861105988568" lon="2.5004593396669876"><ele>110.0</ele><time>2026-04-02T16:43:03.999Z</time></trkpt><trkpt lat="49.51854457212525" lon="2.5004942926312426"><ele>110.33333333333334</ele><time>2026-04-02T16:43:05.999Z</time></trkpt><trkpt lat="49.51846521148507" lon="2.5005570824654333"><ele>110.66666666666667</ele><time>2026-04-02T16:43:08.999Z</time></trkpt><trkpt lat="49.51838846438351" lon="2.500622504777125"><ele>111.0</ele><time>2026-04-02T16:43:12Z</time></trkpt><trkpt lat="49.51831062751445" lon="2.5006775924350597"><ele>111.33333333333333</ele><time>2026-04-02T16:43:15Z</time></trkpt><trkpt lat="49.518250046827994" lon="2.50071530670677"><ele>111.66666666666666</ele><time>2026-04-02T16:43:17Z</time></trkpt><trkpt lat="49.51817271510837" lon="2.5007548468814313"><ele>112.0</ele><time>2026-04-02T16:43:20Z</time></trkpt><trkpt lat="49.51809833679482" lon="2.500825077609429"><ele>112.33333333333333</ele><time>2026-04-02T16:43:23Z</time></trkpt><trkpt lat="49.51801024298052" lon="2.5008691365770956"><ele>112.66666666666666</ele><time>2026-04-02T16:43:26Z</time></trkpt><trkpt lat="49.517946809820714" lon="2.500893142863387"><ele>113.0</ele><time>2026-04-02T16:43:28Z</time></trkpt><trkpt lat="49.5178864701104" lon="2.5009246523043225"><ele>113.28571428571429</ele><time>2026-04-02T16:43:30Z</time></trkpt><trkpt lat="49.51782538381968" lon="2.500972983512229"><ele>113.57142857142856</ele><time>2026-04-02T16:43:32Z</time></trkpt><trkpt lat="49.51775990844409" lon="2.5010126005369435"><ele>113.85714285714285</ele><time>2026-04-02T16:43:34Z</time></trkpt><trkpt lat="49.517687260919345" lon="2.5010688385386985"><ele>114.14285714285714</ele><time>2026-04-02T16:43:36Z</time></trkpt><trkpt lat="49.51762213989605" lon="2.501124714034722"><ele>114.42857142857142</ele><time>2026-04-02T16:43:38Z</time></trkpt><trkpt lat="49.51754734060947" lon="2.5011642250455233"><ele>114.7142857142857</ele><time>2026-04-02T16:43:40Z</time></trkpt><trkpt lat="49.517480602517836" lon="2.5011945138744966"><ele>114.99999999999999</ele><time>2026-04-02T16:43:42Z</time></trkpt><trkpt lat="49.517400572099554" lon="2.5012438264936305"><ele>115.00000000000001</ele><time>2026-04-02T16:43:44Z</time></trkpt><trkpt lat="49.51733815096679" lon="2.501264436228039"><ele>115.0</ele><time>2026-04-02T16:43:46Z</time></trkpt><trkpt lat="49.51727317181814" lon="2.5012899972753173"><ele>115.0</ele><time>2026-04-02T16:43:48Z</time></trkpt><trkpt lat="49.51720815715786" lon="2.501314951787696"><ele>115.0</ele><time>2026-04-02T16:43:50Z</time></trkpt><trkpt lat="49.51713886286887" lon="2.5013434981768334"><ele>115.00000000000001</ele><time>2026-04-02T16:43:52Z</time></trkpt><trkpt lat="49.51703896156767" lon="2.501406832002072"><ele>115.0</ele><time>2026-04-02T16:43:55Z</time></trkpt><trkpt lat="49.51696998410012" lon="2.501453399842007"><ele>114.99999999999999</ele><time>2026-04-02T16:43:57Z</time></trkpt><trkpt lat="49.51690724668204" lon="2.501482202729443"><ele>115.0</ele><time>2026-04-02T16:43:59Z</time></trkpt><trkpt lat="49.51684413742269" lon="2.5015249759088602"><ele>114.99999999999999</ele><time>2026-04-02T16:44:01Z</time></trkpt><trkpt lat="49.51678207464791" lon="2.5015717477956527"><ele>114.99999999999999</ele><time>2026-04-02T16:44:03Z</time></trkpt><trkpt lat="49.51671851502007" lon="2.501604067971206"><ele>115.0</ele><time>2026-04-02T16:44:05Z</time></trkpt><trkpt lat="49.516646085119056" lon="2.501635281089614"><ele>114.99999999999999</ele><time>2026-04-02T16:44:07Z</time></trkpt><trkpt lat="49.51657691158259" lon="2.501687163147516"><ele>114.99999999999999</ele><time>2026-04-02T16:44:09Z</time></trkpt><trkpt lat="49.51650124365234" lon="2.5017386359910074"><ele>115.0</ele><time>2026-04-02T16:44:11Z</time></trkpt><trkpt lat="49.51643051325926" lon="2.5018013811735025"><ele>115.0</ele><time>2026-04-02T16:44:13Z</time></trkpt><trkpt lat="49.5163565259587" lon="2.501874331836353"><ele>115.0</ele><time>2026-04-02T16:44:15Z</time></trkpt><trkpt lat="49.51627804971004" lon="2.5019551094270196"><ele>115.0</ele><time>2026-04-02T16:44:17Z</time></trkpt><trkpt lat="49.51620045381762" lon="2.5020429921016567"><ele>115.0</ele><time>2026-04-02T16:44:19Z</time></trkpt><trkpt lat="49.51613129829505" lon="2.502149726398785"><ele>114.6</ele><time>2026-04-02T16:44:21Z</time></trkpt><trkpt lat="49.516028875687695" lon="2.5022156722662414"><ele>114.2</ele><time>2026-04-02T16:44:23Z</time></trkpt><trkpt lat="49.515941006573634" lon="2.5023163420911922"><ele>113.80000000000001</ele><time>2026-04-02T16:44:25Z</time></trkpt><trkpt lat="49.51585304526579" lon="2.502407372225203"><ele>113.4</ele><time>2026-04-02T16:44:27Z</time></trkpt><trkpt lat="49.515766618258546" lon="2.502477051779365"><ele>113.0</ele><time>2026-04-02T16:44:29Z</time></trkpt><trkpt lat="49.51578046080318" lon="2.5023684781158733"><ele>113.0</ele><time>2026-04-02T16:44:40Z</time></trkpt><trkpt lat="49.515748825693656" lon="2.5022761236124973"><ele>113.0</ele><time>2026-04-02T16:44:43Z</time></trkpt><trkpt lat="49.51571547110879" lon="2.502163373363024"><ele>113.0</ele><time>2026-04-02T16:44:45.999Z</time></trkpt><trkpt lat="49.51566728054588" lon="2.502057435828643"><ele>113.0</ele><time>2026-04-02T16:44:48.999Z</time></trkpt><trkpt lat="49.515612144037476" lon="2.5019981160735822"><ele>113.0</ele><time>2026-04-02T16:44:50.999Z</time></trkpt><trkpt lat="49.51554916880595" lon="2.50197407524071"><ele>113.0</ele><time>2026-04-02T16:44:52.999Z</time></trkpt><trkpt lat="49.51547417687484" lon="2.5019692042477613"><ele>113.0</ele><time>2026-04-02T16:44:54.999Z</time></trkpt><trkpt lat="49.51539431366755" lon="2.50195993296093"><ele>112.83333333333333</ele><time>2026-04-02T16:44:56.999Z</time></trkpt><trkpt lat="49.51530347388349" lon="2.5019820567366406"><ele>112.66666666666666</ele><time>2026-04-02T16:44:58.999Z</time></trkpt><trkpt lat="49.515240423256984" lon="2.501969488893844"><ele>112.5</ele><time>2026-04-02T16:45:00.999Z</time></trkpt><trkpt lat="49.51518152878278" lon="2.501930145810118"><ele>112.33333333333334</ele><time>2026-04-02T16:45:03.999Z</time></trkpt><trkpt lat="49.515144229239176" lon="2.501813818037449"><ele>112.16666666666667</ele><time>2026-04-02T16:45:06.999Z</time></trkpt><trkpt lat="49.51513271277523" lon="2.501706955579889"><ele>112.0</ele><time>2026-04-02T16:45:08.999Z</time></trkpt><trkpt lat="49.515112080363984" lon="2.5015633908638644"><ele>112.0</ele><time>2026-04-02T16:45:10.999Z</time></trkpt><trkpt lat="49.51509135987162" lon="2.501453587951745"><ele>111.99999999999999</ele><time>2026-04-02T16:45:12.999Z</time></trkpt><trkpt lat="49.51505483500203" lon="2.5013191230256187"><ele>111.99999999999999</ele><time>2026-04-02T16:45:14.999Z</time></trkpt><trkpt lat="49.51504836797953" lon="2.5011613500203116"><ele>112.0</ele><time>2026-04-02T16:45:17Z</time></trkpt><trkpt lat="49.515027507320156" lon="2.501017842037199"><ele>112.0</ele><time>2026-04-02T16:45:19Z</time></trkpt><trkpt lat="49.515020074479914" lon="2.500886418810179"><ele>112.33333333333334</ele><time>2026-04-02T16:45:21Z</time></trkpt><trkpt lat="49.5149939556396" lon="2.5007620075102985"><ele>112.66666666666667</ele><time>2026-04-02T16:45:23Z</time></trkpt><trkpt lat="49.51496639095483" lon="2.5006469478197544"><ele>113.0</ele><time>2026-04-02T16:45:25Z</time></trkpt><trkpt lat="49.51493013679505" lon="2.50053876950779"><ele>113.33333333333334</ele><time>2026-04-02T16:45:27Z</time></trkpt><trkpt lat="49.514879703379584" lon="2.5004435966738927"><ele>113.66666666666667</ele><time>2026-04-02T16:45:29Z</time></trkpt><trkpt lat="49.514835239362604" lon="2.500362914542305"><ele>114.0</ele><time>2026-04-02T16:45:31Z</time></trkpt><trkpt lat="49.51476805660775" lon="2.5002868688678253"><ele>114.0</ele><time>2026-04-02T16:45:33Z</time></trkpt><trkpt lat="49.51471443024905" lon="2.5001846815881565"><ele>114.0</ele><time>2026-04-02T16:45:35Z</time></trkpt><trkpt lat="49.514658845977515" lon="2.50009348835172"><ele>114.0</ele><time>2026-04-02T16:45:37Z</time></trkpt><trkpt lat="49.51459582882764" lon="2.500005705637252"><ele>114.0</ele><time>2026-04-02T16:45:39Z</time></trkpt><trkpt lat="49.51455916939099" lon="2.499909747770243"><ele>114.0</ele><time>2026-04-02T16:45:41Z</time></trkpt><trkpt lat="49.51448903579933" lon="2.4998287781727484"><ele>114.0</ele><time>2026-04-02T16:45:43Z</time></trkpt><trkpt lat="49.51443441474336" lon="2.4997455254222576"><ele>114.33333333333333</ele><time>2026-04-02T16:45:45Z</time></trkpt><trkpt lat="49.51438011421484" lon="2.499674959866176"><ele>114.66666666666666</ele><time>2026-04-02T16:45:47Z</time></trkpt><trkpt lat="49.514329832215545" lon="2.499597986755256"><ele>115.0</ele><time>2026-04-02T16:45:49Z</time></trkpt><trkpt lat="49.514278507021594" lon="2.4995049263589877"><ele>115.33333333333333</ele><time>2026-04-02T16:45:51Z</time></trkpt><trkpt lat="49.514221885666004" lon="2.499417462695345"><ele>115.66666666666666</ele><time>2026-04-02T16:45:53Z</time></trkpt><trkpt lat="49.51417539318293" lon="2.4993262749738596"><ele>116.0</ele><time>2026-04-02T16:45:55Z</time></trkpt><trkpt lat="49.51412897171802" lon="2.4992376709066737"><ele>115.99999999999999</ele><time>2026-04-02T16:45:57Z</time></trkpt><trkpt lat="49.51408052380218" lon="2.499143370053925"><ele>116.0</ele><time>2026-04-02T16:45:59Z</time></trkpt><trkpt lat="49.51402385267631" lon="2.499026572336477"><ele>116.0</ele><time>2026-04-02T16:46:02Z</time></trkpt><trkpt lat="49.513972559110336" lon="2.498947019541393"><ele>116.0</ele><time>2026-04-02T16:46:04Z</time></trkpt><trkpt lat="49.513916033772766" lon="2.4988683214434797"><ele>115.99999999999999</ele><time>2026-04-02T16:46:06Z</time></trkpt><trkpt lat="49.51386995246013" lon="2.49878839684507"><ele>116.0</ele><time>2026-04-02T16:46:08Z</time></trkpt><trkpt lat="49.51381264519744" lon="2.4986978365393977"><ele>116.00000000000001</ele><time>2026-04-02T16:46:10Z</time></trkpt><trkpt lat="49.5137666253345" lon="2.4986053516068742"><ele>116.0</ele><time>2026-04-02T16:46:12Z</time></trkpt><trkpt lat="49.51379710136162" lon="2.498489333189963"><ele>116.00000000000001</ele><time>2026-04-02T16:46:14Z</time></trkpt><trkpt lat="49.51384508842537" lon="2.498411083794768"><ele>116.00000000000001</ele><time>2026-04-02T16:46:16Z</time></trkpt><trkpt lat="49.51389612011463" lon="2.4983418528108565"><ele>116.0</ele><time>2026-04-02T16:46:18Z</time></trkpt><trkpt lat="49.5139506858955" lon="2.498264158146538"><ele>116.00000000000001</ele><time>2026-04-02T16:46:20Z</time></trkpt><trkpt lat="49.514010182516365" lon="2.4981992216059723"><ele>116.00000000000001</ele><time>2026-04-02T16:46:22Z</time></trkpt><trkpt lat="49.51406564282055" lon="2.4981247134837257"><ele>116.00000000000001</ele><time>2026-04-02T16:46:24Z</time></trkpt><trkpt lat="49.51411687958493" lon="2.4980506301578274"><ele>116.0</ele><time>2026-04-02T16:46:26Z</time></trkpt><trkpt lat="49.51417375779362" lon="2.4979777728298997"><ele>116.00000000000001</ele><time>2026-04-02T16:46:28Z</time></trkpt><trkpt lat="49.51422348258031" lon="2.4979070378155686"><ele>116.00000000000001</ele><time>2026-04-02T16:46:30Z</time></trkpt><trkpt lat="49.514279941521835" lon="2.497844516750996"><ele>116.0</ele><time>2026-04-02T16:46:32Z</time></trkpt><trkpt lat="49.51432835900243" lon="2.4977540225930523"><ele>116.00000000000001</ele><time>2026-04-02T16:46:34Z</time></trkpt><trkpt lat="49.51438103217028" lon="2.497688883566446"><ele>116.00000000000001</ele><time>2026-04-02T16:46:35.999Z</time></trkpt><trkpt lat="49.51444765413308" lon="2.4975682337548863"><ele>115.99999999999999</ele><time>2026-04-02T16:46:38.999Z</time></trkpt><trkpt lat="49.51448622463309" lon="2.49745545350356"><ele>116.0</ele><time>2026-04-02T16:46:40.999Z</time></trkpt><trkpt lat="49.5145277077825" lon="2.497362710733625"><ele>116.0</ele><time>2026-04-02T16:46:42.999Z</time></trkpt><trkpt lat="49.514589317591984" lon="2.4972990752890434"><ele>116.0</ele><time>2026-04-02T16:46:44.999Z</time></trkpt><trkpt lat="49.514605650422254" lon="2.497169588777777"><ele>115.99999999999999</ele><time>2026-04-02T16:46:46.999Z</time></trkpt><trkpt lat="49.51465530613596" lon="2.497074196238119"><ele>116.0</ele><time>2026-04-02T16:46:48.999Z</time></trkpt><trkpt lat="49.51469404453066" lon="2.4969684653641626"><ele>115.99999999999999</ele><time>2026-04-02T16:46:50.999Z</time></trkpt><trkpt lat="49.514746801310224" lon="2.4968786012840196"><ele>116.0</ele><time>2026-04-02T16:46:52.999Z</time></trkpt><trkpt lat="49.51479208399713" lon="2.49678360857095"><ele>116.0</ele><time>2026-04-02T16:46:54.999Z</time></trkpt><trkpt lat="49.5148341955495" lon="2.496658692819047"><ele>116.0</ele><time>2026-04-02T16:46:56.999Z</time></trkpt><trkpt lat="49.51487225915634" lon="2.49658055205113"><ele>115.99999999999999</ele><time>2026-04-02T16:46:58.999Z</time></trkpt><trkpt lat="49.51491097267137" lon="2.4964809468980196"><ele>116.0</ele><time>2026-04-02T16:47:00.999Z</time></trkpt><trkpt lat="49.51495053426745" lon="2.4963910409847943"><ele>115.99999999999999</ele><time>2026-04-02T16:47:02.999Z</time></trkpt><trkpt lat="49.5149865280837" lon="2.496292573763264"><ele>116.0</ele><time>2026-04-02T16:47:04.999Z</time></trkpt><trkpt lat="49.515022358474106" lon="2.496197690483105"><ele>116.0</ele><time>2026-04-02T16:47:06.999Z</time></trkpt><trkpt lat="49.51507038775304" lon="2.496111150402483"><ele>116.0</ele><time>2026-04-02T16:47:08.999Z</time></trkpt><trkpt lat="49.51512068569662" lon="2.4960219634890497"><ele>115.99999999999999</ele><time>2026-04-02T16:47:10.999Z</time></trkpt><trkpt lat="49.51516774131135" lon="2.4959331948504055"><ele>116.0</ele><time>2026-04-02T16:47:12.999Z</time></trkpt><trkpt lat="49.51521942154405" lon="2.4958369881415847"><ele>116.14285714285717</ele><time>2026-04-02T16:47:14.999Z</time></trkpt><trkpt lat="49.51525962294694" lon="2.495743372930592"><ele>116.28571428571429</ele><time>2026-04-02T16:47:16.999Z</time></trkpt><trkpt lat="49.515304840215045" lon="2.49564830504697"><ele>116.42857142857144</ele><time>2026-04-02T16:47:18.999Z</time></trkpt><trkpt lat="49.51534969067288" lon="2.495557870651431"><ele>116.57142857142858</ele><time>2026-04-02T16:47:20.999Z</time></trkpt><trkpt lat="49.51538800939837" lon="2.4954688941830137"><ele>116.71428571428572</ele><time>2026-04-02T16:47:23Z</time></trkpt><trkpt lat="49.5154228572375" lon="2.4953792990377286"><ele>116.85714285714286</ele><time>2026-04-02T16:47:25Z</time></trkpt><trkpt lat="49.51545461782432" lon="2.4952918204103085"><ele>117.0</ele><time>2026-04-02T16:47:27Z</time></trkpt><trkpt lat="49.51549261911117" lon="2.4951998275963208"><ele>117.0</ele><time>2026-04-02T16:47:29Z</time></trkpt><trkpt lat="49.51554370578692" lon="2.49512794775628"><ele>117.00000000000001</ele><time>2026-04-02T16:47:31Z</time></trkpt><trkpt lat="49.5155796219854" lon="2.4950418374669248"><ele>117.0</ele><time>2026-04-02T16:47:33Z</time></trkpt><trkpt lat="49.51561831830537" lon="2.4949530121484353"><ele>117.0</ele><time>2026-04-02T16:47:35Z</time></trkpt><trkpt lat="49.5156600053812" lon="2.4948617231117485"><ele>117.00000000000001</ele><time>2026-04-02T16:47:37Z</time></trkpt><trkpt lat="49.51570045620532" lon="2.4947709596307956"><ele>117.0</ele><time>2026-04-02T16:47:39Z</time></trkpt><trkpt lat="49.515742089550244" lon="2.4946834635907003"><ele>117.0</ele><time>2026-04-02T16:47:41Z</time></trkpt><trkpt lat="49.515779800281805" lon="2.4945908985712055"><ele>117.33333333333333</ele><time>2026-04-02T16:47:43Z</time></trkpt><trkpt lat="49.515818036437025" lon="2.494501158813423"><ele>117.66666666666666</ele><time>2026-04-02T16:47:45Z</time></trkpt><trkpt lat="49.51585867740244" lon="2.49440579677553"><ele>118.0</ele><time>2026-04-02T16:47:47Z</time></trkpt><trkpt lat="49.51590042211456" lon="2.4943088243048654"><ele>118.33333333333333</ele><time>2026-04-02T16:47:49Z</time></trkpt><trkpt lat="49.51594341650631" lon="2.494206338807416"><ele>118.66666666666666</ele><time>2026-04-02T16:47:51Z</time></trkpt><trkpt lat="49.51599227591032" lon="2.494110065359321"><ele>119.0</ele><time>2026-04-02T16:47:53Z</time></trkpt><trkpt lat="49.516039821134356" lon="2.494000410588199"><ele>119.0</ele><time>2026-04-02T16:47:55Z</time></trkpt><trkpt lat="49.51608763984957" lon="2.493888201695732"><ele>119.0</ele><time>2026-04-02T16:47:57Z</time></trkpt><trkpt lat="49.516137931590976" lon="2.4937734023829856"><ele>119.0</ele><time>2026-04-02T16:47:59Z</time></trkpt><trkpt lat="49.516187155423395" lon="2.493656266518733"><ele>119.0</ele><time>2026-04-02T16:48:01Z</time></trkpt><trkpt lat="49.516241788027706" lon="2.4935444075857776"><ele>119.0</ele><time>2026-04-02T16:48:03Z</time></trkpt><trkpt lat="49.51629862034115" lon="2.4934319019673135"><ele>118.66666666666666</ele><time>2026-04-02T16:48:05Z</time></trkpt><trkpt lat="49.51634723615249" lon="2.4933203798178614"><ele>118.33333333333333</ele><time>2026-04-02T16:48:07Z</time></trkpt><trkpt lat="49.516395797655754" lon="2.493213869167139"><ele>118.0</ele><time>2026-04-02T16:48:09Z</time></trkpt><trkpt lat="49.51644302639824" lon="2.493101561738783"><ele>117.66666666666666</ele><time>2026-04-02T16:48:11Z</time></trkpt><trkpt lat="49.51648713574019" lon="2.492989089656628"><ele>117.33333333333333</ele><time>2026-04-02T16:48:13Z</time></trkpt><trkpt lat="49.51653535471696" lon="2.4928852002436153"><ele>117.0</ele><time>2026-04-02T16:48:15Z</time></trkpt><trkpt lat="49.51658291004513" lon="2.4927761529734815"><ele>117.0</ele><time>2026-04-02T16:48:17Z</time></trkpt><trkpt lat="49.5166354748619" lon="2.4926885902645597"><ele>117.0</ele><time>2026-04-02T16:48:19Z</time></trkpt><trkpt lat="49.5166764078585" lon="2.492558527283593"><ele>117.0</ele><time>2026-04-02T16:48:21Z</time></trkpt><trkpt lat="49.51673004162485" lon="2.4924521430667133"><ele>117.0</ele><time>2026-04-02T16:48:23Z</time></trkpt><trkpt lat="49.51677973006679" lon="2.492336084246815"><ele>117.0</ele><time>2026-04-02T16:48:25Z</time></trkpt><trkpt lat="49.51683467852786" lon="2.4922174686803973"><ele>117.0</ele><time>2026-04-02T16:48:27Z</time></trkpt><trkpt lat="49.51688750245945" lon="2.4921003084799995"><ele>116.8</ele><time>2026-04-02T16:48:29Z</time></trkpt><trkpt lat="49.51696777503844" lon="2.491964683775926"><ele>116.6</ele><time>2026-04-02T16:48:31Z</time></trkpt><trkpt lat="49.516997399202054" lon="2.491871842421757"><ele>116.39999999999999</ele><time>2026-04-02T16:48:33Z</time></trkpt><trkpt lat="49.51705285859071" lon="2.4917546578826815"><ele>116.19999999999999</ele><time>2026-04-02T16:48:35Z</time></trkpt><trkpt lat="49.51710759777499" lon="2.4916397135171273"><ele>116.0</ele><time>2026-04-02T16:48:37Z</time></trkpt><trkpt lat="49.51715780011689" lon="2.491527315740507"><ele>115.66666666666666</ele><time>2026-04-02T16:48:39Z</time></trkpt><trkpt lat="49.51720917741272" lon="2.49141486251176"><ele>115.33333333333333</ele><time>2026-04-02T16:48:41Z</time></trkpt><trkpt lat="49.51726038249923" lon="2.491303136252307"><ele>115.0</ele><time>2026-04-02T16:48:43Z</time></trkpt><trkpt lat="49.517309465148976" lon="2.4911880427244175"><ele>114.66666666666666</ele><time>2026-04-02T16:48:45Z</time></trkpt><trkpt lat="49.517358604964414" lon="2.4910717728451406"><ele>114.33333333333333</ele><time>2026-04-02T16:48:46.999Z</time></trkpt><trkpt lat="49.51741083401966" lon="2.4909563783341357"><ele>114.0</ele><time>2026-04-02T16:48:48.999Z</time></trkpt><trkpt lat="49.517459664956384" lon="2.490840766044193"><ele>114.0</ele><time>2026-04-02T16:48:50.999Z</time></trkpt><trkpt lat="49.517512642648754" lon="2.490728584050015"><ele>114.0</ele><time>2026-04-02T16:48:52.999Z</time></trkpt><trkpt lat="49.517564113956574" lon="2.490623007021817"><ele>114.0</ele><time>2026-04-02T16:48:54.999Z</time></trkpt><trkpt lat="49.51760821848658" lon="2.4905061166944313"><ele>114.0</ele><time>2026-04-02T16:48:56.999Z</time></trkpt><trkpt lat="49.51765126070431" lon="2.490396210298359"><ele>114.0</ele><time>2026-04-02T16:48:58.999Z</time></trkpt><trkpt lat="49.51769535620284" lon="2.4902894919226912"><ele>114.0</ele><time>2026-04-02T16:49:00.999Z</time></trkpt><trkpt lat="49.51773555080646" lon="2.4901715340579553"><ele>114.16666666666667</ele><time>2026-04-02T16:49:02.999Z</time></trkpt><trkpt lat="49.51777062483886" lon="2.4900515808368913"><ele>114.33333333333334</ele><time>2026-04-02T16:49:04.999Z</time></trkpt><trkpt lat="49.51780004500966" lon="2.4899340043859217"><ele>114.5</ele><time>2026-04-02T16:49:06.999Z</time></trkpt><trkpt lat="49.51781857749077" lon="2.4898172949382644"><ele>114.66666666666667</ele><time>2026-04-02T16:49:08.999Z</time></trkpt><trkpt lat="49.51782546931047" lon="2.489707758314795"><ele>114.83333333333334</ele><time>2026-04-02T16:49:10.999Z</time></trkpt><trkpt lat="49.51782202733917" lon="2.4895951434539785"><ele>115.0</ele><time>2026-04-02T16:49:12.999Z</time></trkpt><trkpt lat="49.51781341074595" lon="2.4894868309263782"><ele>115.33333333333334</ele><time>2026-04-02T16:49:14.999Z</time></trkpt><trkpt lat="49.517800220932955" lon="2.489377043872076"><ele>115.66666666666667</ele><time>2026-04-02T16:49:16.999Z</time></trkpt><trkpt lat="49.51778212465891" lon="2.4892615954505586"><ele>116.0</ele><time>2026-04-02T16:49:18.999Z</time></trkpt><trkpt lat="49.51776253437663" lon="2.4891438289848673"><ele>116.33333333333334</ele><time>2026-04-02T16:49:20.999Z</time></trkpt><trkpt lat="49.51774003698194" lon="2.4890252343649704"><ele>116.66666666666667</ele><time>2026-04-02T16:49:22.999Z</time></trkpt><trkpt lat="49.51772029972217" lon="2.4889034312183473"><ele>117.0</ele><time>2026-04-02T16:49:24.999Z</time></trkpt><trkpt lat="49.51769567795443" lon="2.488786732025572"><ele>117.16666666666667</ele><time>2026-04-02T16:49:26.999Z</time></trkpt><trkpt lat="49.5176695990568" lon="2.488669601208861"><ele>117.33333333333334</ele><time>2026-04-02T16:49:29Z</time></trkpt><trkpt lat="49.51764561134992" lon="2.488548167145653"><ele>117.5</ele><time>2026-04-02T16:49:31Z</time></trkpt><trkpt lat="49.51762047551019" lon="2.4884236939575115"><ele>117.66666666666667</ele><time>2026-04-02T16:49:33Z</time></trkpt><trkpt lat="49.51759055503181" lon="2.488299173096721"><ele>117.83333333333334</ele><time>2026-04-02T16:49:35Z</time></trkpt><trkpt lat="49.51756263828247" lon="2.4881764219255267"><ele>118.0</ele><time>2026-04-02T16:49:37Z</time></trkpt><trkpt lat="49.51753903283619" lon="2.488051219845673"><ele>118.00000000000001</ele><time>2026-04-02T16:49:39Z</time></trkpt><trkpt lat="49.51751424004649" lon="2.4879303706960694"><ele>118.0</ele><time>2026-04-02T16:49:41Z</time></trkpt><trkpt lat="49.51748673983972" lon="2.4878187547464603"><ele>118.0</ele><time>2026-04-02T16:49:43Z</time></trkpt><trkpt lat="49.51746878376927" lon="2.487708432225628"><ele>118.0</ele><time>2026-04-02T16:49:45Z</time></trkpt><trkpt lat="49.51744282876217" lon="2.487594187130428"><ele>118.00000000000001</ele><time>2026-04-02T16:49:47Z</time></trkpt><trkpt lat="49.517420089432825" lon="2.48748380143391"><ele>118.0</ele><time>2026-04-02T16:49:49Z</time></trkpt><trkpt lat="49.51740195566237" lon="2.4873749429390024"><ele>118.00000000000001</ele><time>2026-04-02T16:49:51Z</time></trkpt><trkpt lat="49.517375078478246" lon="2.4872747403457853"><ele>118.0</ele><time>2026-04-02T16:49:53Z</time></trkpt><trkpt lat="49.51735491989299" lon="2.4871724048899413"><ele>118.0</ele><time>2026-04-02T16:49:55Z</time></trkpt><trkpt lat="49.5173306001654" lon="2.487046219911415"><ele>118.0</ele><time>2026-04-02T16:49:57Z</time></trkpt><trkpt lat="49.51730288623922" lon="2.4869172697154642"><ele>118.00000000000001</ele><time>2026-04-02T16:49:59Z</time></trkpt><trkpt lat="49.51726739627145" lon="2.4867894547986773"><ele>118.0</ele><time>2026-04-02T16:50:01Z</time></trkpt><trkpt lat="49.517241915915" lon="2.486664102442066"><ele>118.33333333333334</ele><time>2026-04-02T16:50:03Z</time></trkpt><trkpt lat="49.51722058629688" lon="2.4865387239576715"><ele>118.66666666666667</ele><time>2026-04-02T16:50:05Z</time></trkpt><trkpt lat="49.51719536627463" lon="2.486417788636601"><ele>119.0</ele><time>2026-04-02T16:50:07Z</time></trkpt><trkpt lat="49.51717104086757" lon="2.486293258367674"><ele>119.33333333333334</ele><time>2026-04-02T16:50:09Z</time></trkpt><trkpt lat="49.51714891782553" lon="2.486170693329694"><ele>119.66666666666667</ele><time>2026-04-02T16:50:11Z</time></trkpt><trkpt lat="49.517118859438455" lon="2.4860475563711026"><ele>120.0</ele><time>2026-04-02T16:50:13Z</time></trkpt><trkpt lat="49.51709548699716" lon="2.4859215048080014"><ele>120.0</ele><time>2026-04-02T16:50:15Z</time></trkpt><trkpt lat="49.51707232445589" lon="2.4857982908989644"><ele>120.0</ele><time>2026-04-02T16:50:17Z</time></trkpt><trkpt lat="49.5170449059648" lon="2.4856768349962914"><ele>120.0</ele><time>2026-04-02T16:50:19Z</time></trkpt><trkpt lat="49.517018119733244" lon="2.4855547626033005"><ele>120.0</ele><time>2026-04-02T16:50:21Z</time></trkpt><trkpt lat="49.516990908469324" lon="2.4854320536234873"><ele>120.0</ele><time>2026-04-02T16:50:23Z</time></trkpt><trkpt lat="49.51696537661617" lon="2.485310743507886"><ele>120.0</ele><time>2026-04-02T16:50:25Z</time></trkpt><trkpt lat="49.516939258646374" lon="2.4851908664245097"><ele>120.16666666666667</ele><time>2026-04-02T16:50:27Z</time></trkpt><trkpt lat="49.516917571443216" lon="2.4850692696588523"><ele>120.33333333333334</ele><time>2026-04-02T16:50:29Z</time></trkpt><trkpt lat="49.51688912778932" lon="2.4849502828729713"><ele>120.5</ele><time>2026-04-02T16:50:31Z</time></trkpt><trkpt lat="49.51686000765916" lon="2.484830855394781"><ele>120.66666666666667</ele><time>2026-04-02T16:50:33Z</time></trkpt><trkpt lat="49.51683306036007" lon="2.4847072937146635"><ele>120.83333333333334</ele><time>2026-04-02T16:50:35Z</time></trkpt><trkpt lat="49.51681008754661" lon="2.484580850238806"><ele>121.0</ele><time>2026-04-02T16:50:37Z</time></trkpt><trkpt lat="49.516782129069384" lon="2.4844504222907853"><ele>121.16666666666667</ele><time>2026-04-02T16:50:39Z</time></trkpt><trkpt lat="49.51676075318144" lon="2.48432657690186"><ele>121.33333333333334</ele><time>2026-04-02T16:50:41Z</time></trkpt><trkpt lat="49.516739600754185" lon="2.4842047381255576"><ele>121.5</ele><time>2026-04-02T16:50:43Z</time></trkpt><trkpt lat="49.516720148862206" lon="2.484081759595336"><ele>121.66666666666666</ele><time>2026-04-02T16:50:45Z</time></trkpt><trkpt lat="49.516704448116016" lon="2.4839564296585332"><ele>121.83333333333333</ele><time>2026-04-02T16:50:47Z</time></trkpt><trkpt lat="49.51669415246524" lon="2.4838294995907026"><ele>122.0</ele><time>2026-04-02T16:50:49Z</time></trkpt><trkpt lat="49.51668029065428" lon="2.48370506578499"><ele>122.16666666666666</ele><time>2026-04-02T16:50:51Z</time></trkpt><trkpt lat="49.51666968256671" lon="2.4835816262698915"><ele>122.33333333333333</ele><time>2026-04-02T16:50:53Z</time></trkpt><trkpt lat="49.51666334413629" lon="2.483459353531777"><ele>122.5</ele><time>2026-04-02T16:50:55Z</time></trkpt><trkpt lat="49.51665729059784" lon="2.4833442744115795"><ele>122.66666666666666</ele><time>2026-04-02T16:50:56.999Z</time></trkpt><trkpt lat="49.51665080902786" lon="2.4832256275178186"><ele>122.83333333333333</ele><time>2026-04-02T16:50:58.999Z</time></trkpt><trkpt lat="49.516648635431196" lon="2.4831149983155916"><ele>123.0</ele><time>2026-04-02T16:51:00.999Z</time></trkpt><trkpt lat="49.51665082584857" lon="2.4829995962465374"><ele>123.0</ele><time>2026-04-02T16:51:02.999Z</time></trkpt><trkpt lat="49.51664023937201" lon="2.4828867367724086"><ele>123.0</ele><time>2026-04-02T16:51:04.999Z</time></trkpt><trkpt lat="49.51663907019971" lon="2.482769243746515"><ele>123.0</ele><time>2026-04-02T16:51:06.999Z</time></trkpt><trkpt lat="49.5166332612268" lon="2.48265676930131"><ele>123.0</ele><time>2026-04-02T16:51:08.999Z</time></trkpt><trkpt lat="49.51662852902322" lon="2.4825418370084398"><ele>123.0</ele><time>2026-04-02T16:51:10.999Z</time></trkpt><trkpt lat="49.51662257199138" lon="2.482420515354479"><ele>123.0</ele><time>2026-04-02T16:51:12.999Z</time></trkpt><trkpt lat="49.51661857806931" lon="2.4822871979506886"><ele>123.0</ele><time>2026-04-02T16:51:14.999Z</time></trkpt><trkpt lat="49.51661061204737" lon="2.4821614237364624"><ele>123.0</ele><time>2026-04-02T16:51:16.999Z</time></trkpt><trkpt lat="49.516607766354774" lon="2.4820349086349625"><ele>123.0</ele><time>2026-04-02T16:51:18.999Z</time></trkpt><trkpt lat="49.51660559502331" lon="2.481906780877102"><ele>123.0</ele><time>2026-04-02T16:51:20.999Z</time></trkpt><trkpt lat="49.51660259692569" lon="2.481775678949132"><ele>123.0</ele><time>2026-04-02T16:51:22.999Z</time></trkpt><trkpt lat="49.516597003683344" lon="2.4816461033342296"><ele>123.0</ele><time>2026-04-02T16:51:24.999Z</time></trkpt><trkpt lat="49.5165939300737" lon="2.481513772747687"><ele>123.0</ele><time>2026-04-02T16:51:26.999Z</time></trkpt><trkpt lat="49.51659120686553" lon="2.4813800150110366"><ele>123.0</ele><time>2026-04-02T16:51:28.999Z</time></trkpt><trkpt lat="49.51658758392342" lon="2.4812498773541596"><ele>123.0</ele><time>2026-04-02T16:51:30.999Z</time></trkpt><trkpt lat="49.51658022066047" lon="2.4811167203548017"><ele>123.0</ele><time>2026-04-02T16:51:32.999Z</time></trkpt><trkpt lat="49.51657720974379" lon="2.480979548297673"><ele>123.0</ele><time>2026-04-02T16:51:35Z</time></trkpt><trkpt lat="49.51657705187009" lon="2.4808370458493116"><ele>123.0</ele><time>2026-04-02T16:51:37Z</time></trkpt><trkpt lat="49.51656824668005" lon="2.4806797084493284"><ele>123.0</ele><time>2026-04-02T16:51:39Z</time></trkpt><trkpt lat="49.51655986041138" lon="2.480492087684837"><ele>123.00000000000001</ele><time>2026-04-02T16:51:41Z</time></trkpt><trkpt lat="49.51655818080832" lon="2.4803921348165567"><ele>123.00000000000001</ele><time>2026-04-02T16:51:42Z</time></trkpt><trkpt lat="49.516554786802395" lon="2.4802891756538834"><ele>123.0</ele><time>2026-04-02T16:51:43Z</time></trkpt><trkpt lat="49.51654634131593" lon="2.4801028124037985"><ele>123.0</ele><time>2026-04-02T16:51:45Z</time></trkpt><trkpt lat="49.51654508831193" lon="2.4799233526638425"><ele>122.80000000000001</ele><time>2026-04-02T16:51:47Z</time></trkpt><trkpt lat="49.51654408621947" lon="2.479750570649777"><ele>122.60000000000001</ele><time>2026-04-02T16:51:49Z</time></trkpt><trkpt lat="49.516534837563064" lon="2.479583413468993"><ele>122.39999999999999</ele><time>2026-04-02T16:51:51Z</time></trkpt><trkpt lat="49.51653083939331" lon="2.479414800843315"><ele>122.19999999999999</ele><time>2026-04-02T16:51:53Z</time></trkpt><trkpt lat="49.51652720841882" lon="2.4792408917300666"><ele>122.0</ele><time>2026-04-02T16:51:55Z</time></trkpt><trkpt lat="49.51652062542545" lon="2.4790712229317484"><ele>121.8</ele><time>2026-04-02T16:51:57Z</time></trkpt><trkpt lat="49.51651431018889" lon="2.4789092651043196"><ele>121.6</ele><time>2026-04-02T16:51:59Z</time></trkpt><trkpt lat="49.5165024191766" lon="2.4787416055365803"><ele>121.39999999999999</ele><time>2026-04-02T16:52:01Z</time></trkpt><trkpt lat="49.51649867700082" lon="2.47858381386221"><ele>121.19999999999999</ele><time>2026-04-02T16:52:03Z</time></trkpt><trkpt lat="49.51649572645536" lon="2.478426987729146"><ele>121.0</ele><time>2026-04-02T16:52:05Z</time></trkpt><trkpt lat="49.51649013313723" lon="2.4782687288020826"><ele>120.8</ele><time>2026-04-02T16:52:07Z</time></trkpt><trkpt lat="49.51648730712394" lon="2.4781129536577393"><ele>120.6</ele><time>2026-04-02T16:52:09Z</time></trkpt><trkpt lat="49.516480552847426" lon="2.4779585606300465"><ele>120.4</ele><time>2026-04-02T16:52:11Z</time></trkpt><trkpt lat="49.51647710789134" lon="2.477801687853396"><ele>120.2</ele><time>2026-04-02T16:52:13Z</time></trkpt><trkpt lat="49.51647212711193" lon="2.477644257275694"><ele>120.0</ele><time>2026-04-02T16:52:15Z</time></trkpt><trkpt lat="49.51646546681322" lon="2.4774834864612707"><ele>120.0</ele><time>2026-04-02T16:52:17Z</time></trkpt><trkpt lat="49.51646269706511" lon="2.4773209352511114"><ele>120.0</ele><time>2026-04-02T16:52:19Z</time></trkpt><trkpt lat="49.51645742067776" lon="2.4771620245247066"><ele>120.0</ele><time>2026-04-02T16:52:21Z</time></trkpt><trkpt lat="49.51645318262533" lon="2.477000178915254"><ele>120.0</ele><time>2026-04-02T16:52:23Z</time></trkpt><trkpt lat="49.51644562803942" lon="2.4768388689315897"><ele>120.0</ele><time>2026-04-02T16:52:25Z</time></trkpt><trkpt lat="49.51644583263059" lon="2.4766845826144714"><ele>119.8</ele><time>2026-04-02T16:52:27Z</time></trkpt><trkpt lat="49.5164396847958" lon="2.476528901151163"><ele>119.6</ele><time>2026-04-02T16:52:29Z</time></trkpt><trkpt lat="49.51643101380362" lon="2.4763805356993336"><ele>119.4</ele><time>2026-04-02T16:52:31Z</time></trkpt><trkpt lat="49.516427131025715" lon="2.476231874268924"><ele>119.2</ele><time>2026-04-02T16:52:33Z</time></trkpt><trkpt lat="49.51641823310164" lon="2.4760865247440553"><ele>119.0</ele><time>2026-04-02T16:52:35Z</time></trkpt><trkpt lat="49.516420230968016" lon="2.475938407655501"><ele>119.0</ele><time>2026-04-02T16:52:37Z</time></trkpt><trkpt lat="49.516413657530904" lon="2.4757915349636446"><ele>119.0</ele><time>2026-04-02T16:52:39Z</time></trkpt><trkpt lat="49.516409317602104" lon="2.475647344072757"><ele>119.0</ele><time>2026-04-02T16:52:41Z</time></trkpt><trkpt lat="49.51640335914574" lon="2.4755048840568143"><ele>119.0</ele><time>2026-04-02T16:52:43Z</time></trkpt><trkpt lat="49.516399467632375" lon="2.4753605530168805"><ele>119.0</ele><time>2026-04-02T16:52:45Z</time></trkpt><trkpt lat="49.516396441210425" lon="2.4752203651417237"><ele>119.0</ele><time>2026-04-02T16:52:47Z</time></trkpt><trkpt lat="49.51639323016143" lon="2.475083406406872"><ele>119.0</ele><time>2026-04-02T16:52:49Z</time></trkpt><trkpt lat="49.51638665931331" lon="2.4749477029168916"><ele>119.0</ele><time>2026-04-02T16:52:51Z</time></trkpt><trkpt lat="49.516386215568374" lon="2.474809688494581"><ele>119.0</ele><time>2026-04-02T16:52:53Z</time></trkpt><trkpt lat="49.51638417692704" lon="2.474664127427515"><ele>119.0</ele><time>2026-04-02T16:52:55Z</time></trkpt><trkpt lat="49.51638032471946" lon="2.4745125007452566"><ele>119.0</ele><time>2026-04-02T16:52:57Z</time></trkpt><trkpt lat="49.51637079951281" lon="2.4743686783350776"><ele>119.0</ele><time>2026-04-02T16:52:59Z</time></trkpt><trkpt lat="49.51636788146373" lon="2.4742054656879136"><ele>119.0</ele><time>2026-04-02T16:53:01Z</time></trkpt><trkpt lat="49.51636433516829" lon="2.474043787561064"><ele>119.0</ele><time>2026-04-02T16:53:03Z</time></trkpt><trkpt lat="49.51635984783531" lon="2.4738826308821054"><ele>119.0</ele><time>2026-04-02T16:53:05Z</time></trkpt><trkpt lat="49.5163552234626" lon="2.4737258522477763"><ele>119.4</ele><time>2026-04-02T16:53:06.999Z</time></trkpt><trkpt lat="49.51635052872567" lon="2.473570519716185"><ele>119.80000000000001</ele><time>2026-04-02T16:53:08.999Z</time></trkpt><trkpt lat="49.516344209288775" lon="2.473421617594143"><ele>120.19999999999999</ele><time>2026-04-02T16:53:10.999Z</time></trkpt><trkpt lat="49.51634129701522" lon="2.473276337298757"><ele>120.6</ele><time>2026-04-02T16:53:12.999Z</time></trkpt><trkpt lat="49.51633354807126" lon="2.4731276945840617"><ele>121.0</ele><time>2026-04-02T16:53:14.999Z</time></trkpt><trkpt lat="49.51633190287623" lon="2.4729962170608624"><ele>120.83333333333334</ele><time>2026-04-02T16:53:16.999Z</time></trkpt><trkpt lat="49.51632808375682" lon="2.47286087363386"><ele>120.66666666666667</ele><time>2026-04-02T16:53:18.999Z</time></trkpt><trkpt lat="49.51632676311872" lon="2.4727335950186795"><ele>120.5</ele><time>2026-04-02T16:53:20.999Z</time></trkpt><trkpt lat="49.51632189189759" lon="2.472605486410922"><ele>120.33333333333334</ele><time>2026-04-02T16:53:22.999Z</time></trkpt><trkpt lat="49.51631724797879" lon="2.472478628370009"><ele>120.16666666666667</ele><time>2026-04-02T16:53:24.999Z</time></trkpt><trkpt lat="49.51631391373515" lon="2.4723488916368854"><ele>120.0</ele><time>2026-04-02T16:53:26.999Z</time></trkpt><trkpt lat="49.5163076857539" lon="2.4722224411061418"><ele>119.66666666666667</ele><time>2026-04-02T16:53:28.999Z</time></trkpt><trkpt lat="49.51630149626015" lon="2.4720991199165314"><ele>119.33333333333334</ele><time>2026-04-02T16:53:30.999Z</time></trkpt><trkpt lat="49.516300708735855" lon="2.471972469304963"><ele>119.0</ele><time>2026-04-02T16:53:32.999Z</time></trkpt><trkpt lat="49.5162963619409" lon="2.47184402017575"><ele>118.66666666666667</ele><time>2026-04-02T16:53:34.999Z</time></trkpt><trkpt lat="49.516291380217304" lon="2.4717072969210627"><ele>118.33333333333334</ele><time>2026-04-02T16:53:36.999Z</time></trkpt><trkpt lat="49.5162888453423" lon="2.4715633235620493"><ele>118.0</ele><time>2026-04-02T16:53:38.999Z</time></trkpt><trkpt lat="49.51627955746633" lon="2.4714179490661863"><ele>118.0</ele><time>2026-04-02T16:53:41Z</time></trkpt><trkpt lat="49.51627559306302" lon="2.47127189361338"><ele>118.00000000000001</ele><time>2026-04-02T16:53:43Z</time></trkpt><trkpt lat="49.516269251562505" lon="2.4711207174501078"><ele>118.00000000000001</ele><time>2026-04-02T16:53:45Z</time></trkpt><trkpt lat="49.516259144516894" lon="2.470964135709677"><ele>118.0</ele><time>2026-04-02T16:53:47Z</time></trkpt><trkpt lat="49.51625287059074" lon="2.4708073341590793"><ele>118.0</ele><time>2026-04-02T16:53:49Z</time></trkpt><trkpt lat="49.516243842565764" lon="2.4706520156808014"><ele>118.2</ele><time>2026-04-02T16:53:51Z</time></trkpt><trkpt lat="49.51622897061306" lon="2.4704956999124477"><ele>118.4</ele><time>2026-04-02T16:53:53Z</time></trkpt><trkpt lat="49.5162129360492" lon="2.4703415174798193"><ele>118.60000000000001</ele><time>2026-04-02T16:53:55Z</time></trkpt><trkpt lat="49.516200313794805" lon="2.47019105508062"><ele>118.80000000000001</ele><time>2026-04-02T16:53:57Z</time></trkpt><trkpt lat="49.516185391546706" lon="2.470039748376687"><ele>119.0</ele><time>2026-04-02T16:53:59Z</time></trkpt><trkpt lat="49.51616787790671" lon="2.4698941546812416"><ele>119.0</ele><time>2026-04-02T16:54:01Z</time></trkpt><trkpt lat="49.5161527721437" lon="2.469743311233001"><ele>119.0</ele><time>2026-04-02T16:54:03Z</time></trkpt><trkpt lat="49.51613613807753" lon="2.469589520826348"><ele>119.0</ele><time>2026-04-02T16:54:05Z</time></trkpt><trkpt lat="49.516121090077704" lon="2.4694302486966753"><ele>119.0</ele><time>2026-04-02T16:54:07Z</time></trkpt><trkpt lat="49.51610872046807" lon="2.4692818128402507"><ele>119.0</ele><time>2026-04-02T16:54:09Z</time></trkpt><trkpt lat="49.51610259544308" lon="2.4691366506784678"><ele>119.16666666666666</ele><time>2026-04-02T16:54:11Z</time></trkpt><trkpt lat="49.51609247790905" lon="2.4689962855981418"><ele>119.33333333333333</ele><time>2026-04-02T16:54:13Z</time></trkpt><trkpt lat="49.516089237457116" lon="2.468861796118708"><ele>119.5</ele><time>2026-04-02T16:54:15Z</time></trkpt><trkpt lat="49.51608250024228" lon="2.4687277829238954"><ele>119.66666666666666</ele><time>2026-04-02T16:54:17Z</time></trkpt><trkpt lat="49.51607443138164" lon="2.4685934547957507"><ele>119.83333333333333</ele><time>2026-04-02T16:54:19Z</time></trkpt><trkpt lat="49.51607164041859" lon="2.468458856906766"><ele>120.0</ele><time>2026-04-02T16:54:21Z</time></trkpt><trkpt lat="49.51606161480916" lon="2.468329890929589"><ele>120.16666666666667</ele><time>2026-04-02T16:54:23Z</time></trkpt><trkpt lat="49.51605461611269" lon="2.4681984980112355"><ele>120.33333333333334</ele><time>2026-04-02T16:54:25Z</time></trkpt><trkpt lat="49.516049393473274" lon="2.4680619539015156"><ele>120.5</ele><time>2026-04-02T16:54:27Z</time></trkpt><trkpt lat="49.516038382124876" lon="2.4679321407268935"><ele>120.66666666666667</ele><time>2026-04-02T16:54:29Z</time></trkpt><trkpt lat="49.516033877858966" lon="2.467814807465916"><ele>120.83333333333334</ele><time>2026-04-02T16:54:31Z</time></trkpt><trkpt lat="49.51601984785642" lon="2.467684252615472"><ele>121.0</ele><time>2026-04-02T16:54:33Z</time></trkpt><trkpt lat="49.516013640993584" lon="2.4675642086935867"><ele>121.0</ele><time>2026-04-02T16:54:35Z</time></trkpt><trkpt lat="49.51600073645564" lon="2.46745242997187"><ele>120.99999999999999</ele><time>2026-04-02T16:54:37Z</time></trkpt><trkpt lat="49.51599152628808" lon="2.4673486012371577"><ele>121.0</ele><time>2026-04-02T16:54:39Z</time></trkpt><trkpt lat="49.515978882678446" lon="2.46724935311354"><ele>121.0</ele><time>2026-04-02T16:54:41Z</time></trkpt><trkpt lat="49.51596151984426" lon="2.467101286539104"><ele>120.99999999999999</ele><time>2026-04-02T16:54:44Z</time></trkpt><trkpt lat="49.51595005240789" lon="2.467000353508424"><ele>121.0</ele><time>2026-04-02T16:54:46Z</time></trkpt><trkpt lat="49.51593844127012" lon="2.4668989416638865"><ele>121.0</ele><time>2026-04-02T16:54:48Z</time></trkpt><trkpt lat="49.51592654194511" lon="2.4667965851699205"><ele>121.16666666666667</ele><time>2026-04-02T16:54:50Z</time></trkpt><trkpt lat="49.51591104789182" lon="2.4666922516922622"><ele>121.33333333333334</ele><time>2026-04-02T16:54:52Z</time></trkpt><trkpt lat="49.515895024141024" lon="2.466586666375771"><ele>121.5</ele><time>2026-04-02T16:54:54Z</time></trkpt><trkpt lat="49.51587983817164" lon="2.4664704940744238"><ele>121.66666666666666</ele><time>2026-04-02T16:54:56Z</time></trkpt><trkpt lat="49.51586172568583" lon="2.466349352029734"><ele>121.83333333333333</ele><time>2026-04-02T16:54:58Z</time></trkpt><trkpt lat="49.51584019715446" lon="2.466216989071454"><ele>122.0</ele><time>2026-04-02T16:55:00Z</time></trkpt><trkpt lat="49.51581734452888" lon="2.466077138745427"><ele>121.6</ele><time>2026-04-02T16:55:02Z</time></trkpt><trkpt lat="49.51579183567701" lon="2.4659295147032845"><ele>121.19999999999999</ele><time>2026-04-02T16:55:04Z</time></trkpt><trkpt lat="49.515762769040556" lon="2.465780352439932"><ele>120.8</ele><time>2026-04-02T16:55:06Z</time></trkpt><trkpt lat="49.51573751917584" lon="2.4656261069512038"><ele>120.4</ele><time>2026-04-02T16:55:08Z</time></trkpt><trkpt lat="49.515710059220986" lon="2.46547344580333"><ele>120.0</ele><time>2026-04-02T16:55:10Z</time></trkpt><trkpt lat="49.51568627956913" lon="2.4653219561816235"><ele>120.0</ele><time>2026-04-02T16:55:12Z</time></trkpt><trkpt lat="49.515659133354085" lon="2.4651618891251954"><ele>120.0</ele><time>2026-04-02T16:55:13.999Z</time></trkpt><trkpt lat="49.5156388331993" lon="2.464979510491446"><ele>120.0</ele><time>2026-04-02T16:55:15.999Z</time></trkpt><trkpt lat="49.515603709988504" lon="2.4648270661003084"><ele>120.0</ele><time>2026-04-02T16:55:17.999Z</time></trkpt><trkpt lat="49.5155745405987" lon="2.4646504783144816"><ele>120.0</ele><time>2026-04-02T16:55:19.999Z</time></trkpt><trkpt lat="49.515542827319415" lon="2.4644721164776326"><ele>120.0</ele><time>2026-04-02T16:55:21.999Z</time></trkpt><trkpt lat="49.51551350209552" lon="2.4642901690118872"><ele>120.0</ele><time>2026-04-02T16:55:23.999Z</time></trkpt><trkpt lat="49.51548184003246" lon="2.4641088127712893"><ele>120.0</ele><time>2026-04-02T16:55:25.999Z</time></trkpt><trkpt lat="49.51545038131704" lon="2.4639269524373955"><ele>119.75</ele><time>2026-04-02T16:55:27.999Z</time></trkpt><trkpt lat="49.515418978199754" lon="2.4637500246827817"><ele>119.5</ele><time>2026-04-02T16:55:29.999Z</time></trkpt><trkpt lat="49.51538867938979" lon="2.4635721623917015"><ele>119.25</ele><time>2026-04-02T16:55:31.999Z</time></trkpt><trkpt lat="49.51535269065076" lon="2.4633896662712007"><ele>119.0</ele><time>2026-04-02T16:55:33.999Z</time></trkpt><trkpt lat="49.51531435423441" lon="2.4632011582205244"><ele>118.66666666666666</ele><time>2026-04-02T16:55:35.999Z</time></trkpt><trkpt lat="49.51529592760054" lon="2.4631054458537815"><ele>118.33333333333333</ele><time>2026-04-02T16:55:36.999Z</time></trkpt><trkpt lat="49.5152605371661" lon="2.462914905480444"><ele>118.0</ele><time>2026-04-02T16:55:38.999Z</time></trkpt><trkpt lat="49.51523989625786" lon="2.4628153016645027"><ele>117.66666666666666</ele><time>2026-04-02T16:55:39.999Z</time></trkpt><trkpt lat="49.51521992517218" lon="2.4627092619318613"><ele>117.33333333333333</ele><time>2026-04-02T16:55:40.999Z</time></trkpt><trkpt lat="49.51519942420194" lon="2.4626032320698985"><ele>117.0</ele><time>2026-04-02T16:55:41.999Z</time></trkpt><trkpt lat="49.51517777838747" lon="2.462496308141531"><ele>116.5</ele><time>2026-04-02T16:55:42.999Z</time></trkpt><trkpt lat="49.515158970689136" lon="2.462385717899276"><ele>116.0</ele><time>2026-04-02T16:55:43.999Z</time></trkpt><trkpt lat="49.515137399282835" lon="2.4622680352986843"><ele>115.5</ele><time>2026-04-02T16:55:44.999Z</time></trkpt><trkpt lat="49.51511370308771" lon="2.4621464756667257"><ele>115.0</ele><time>2026-04-02T16:55:45.999Z</time></trkpt><trkpt lat="49.51508933626732" lon="2.4620199239365252"><ele>114.5</ele><time>2026-04-02T16:55:47Z</time></trkpt><trkpt lat="49.515064044376345" lon="2.461889560369819"><ele>114.0</ele><time>2026-04-02T16:55:48Z</time></trkpt><trkpt lat="49.515041052676054" lon="2.4617535395484755"><ele>113.80000000000001</ele><time>2026-04-02T16:55:49Z</time></trkpt><trkpt lat="49.51502570558159" lon="2.461626848286658"><ele>113.60000000000001</ele><time>2026-04-02T16:55:50Z</time></trkpt><trkpt lat="49.51498871343077" lon="2.461480300814153"><ele>113.4</ele><time>2026-04-02T16:55:51Z</time></trkpt><trkpt lat="49.51495941713515" lon="2.4613394088862908"><ele>113.2</ele><time>2026-04-02T16:55:52Z</time></trkpt><trkpt lat="49.514933115524684" lon="2.461198506778729"><ele>113.0</ele><time>2026-04-02T16:55:53Z</time></trkpt><trkpt lat="49.514906485909705" lon="2.4610561262507202"><ele>113.0</ele><time>2026-04-02T16:55:54Z</time></trkpt><trkpt lat="49.51487861519966" lon="2.4609106543887767"><ele>113.00000000000001</ele><time>2026-04-02T16:55:55Z</time></trkpt><trkpt lat="49.514853243092304" lon="2.4607637582739508"><ele>113.00000000000001</ele><time>2026-04-02T16:55:56Z</time></trkpt><trkpt lat="49.51482421231142" lon="2.4606182834610646"><ele>113.0</ele><time>2026-04-02T16:55:57Z</time></trkpt><trkpt lat="49.514792786407874" lon="2.460470331709092"><ele>113.0</ele><time>2026-04-02T16:55:58Z</time></trkpt><trkpt lat="49.514766933274515" lon="2.4603205361968947"><ele>112.60000000000001</ele><time>2026-04-02T16:55:59Z</time></trkpt><trkpt lat="49.51474241368619" lon="2.4601771031804374"><ele>112.20000000000002</ele><time>2026-04-02T16:56:00Z</time></trkpt><trkpt lat="49.51471956869635" lon="2.460022883231576"><ele>111.8</ele><time>2026-04-02T16:56:01Z</time></trkpt><trkpt lat="49.514695285954694" lon="2.4598743603572126"><ele>111.4</ele><time>2026-04-02T16:56:02Z</time></trkpt><trkpt lat="49.51466936337844" lon="2.4597241108817873"><ele>111.0</ele><time>2026-04-02T16:56:03Z</time></trkpt><trkpt lat="49.514646289833564" lon="2.459575456603758"><ele>111.0</ele><time>2026-04-02T16:56:04Z</time></trkpt><trkpt lat="49.514619480272756" lon="2.4594311176009"><ele>111.0</ele><time>2026-04-02T16:56:05Z</time></trkpt><trkpt lat="49.51459559906297" lon="2.459285660869027"><ele>111.0</ele><time>2026-04-02T16:56:06Z</time></trkpt><trkpt lat="49.51457175949673" lon="2.4591448436286334"><ele>111.0</ele><time>2026-04-02T16:56:07Z</time></trkpt><trkpt lat="49.51454988554378" lon="2.4590010445625206"><ele>111.0</ele><time>2026-04-02T16:56:08Z</time></trkpt><trkpt lat="49.51452163748253" lon="2.458856619927181"><ele>110.0</ele><time>2026-04-02T16:56:09Z</time></trkpt><trkpt lat="49.51449706177092" lon="2.4587250187730074"><ele>109.0</ele><time>2026-04-02T16:56:10Z</time></trkpt><trkpt lat="49.51446205075054" lon="2.45858775631208"><ele>108.0</ele><time>2026-04-02T16:56:11Z</time></trkpt><trkpt lat="49.51442518165967" lon="2.4584586185269566"><ele>107.0</ele><time>2026-04-02T16:56:12Z</time></trkpt><trkpt lat="49.51439655303847" lon="2.458336808021078"><ele>106.0</ele><time>2026-04-02T16:56:13Z</time></trkpt><trkpt lat="49.51437211400268" lon="2.458211344087867"><ele>105.0</ele><time>2026-04-02T16:56:14Z</time></trkpt><trkpt lat="49.514349582940824" lon="2.4580920087179123"><ele>105.0</ele><time>2026-04-02T16:56:15Z</time></trkpt><trkpt lat="49.51432685765231" lon="2.4579808528772435"><ele>105.0</ele><time>2026-04-02T16:56:16Z</time></trkpt><trkpt lat="49.51429909597319" lon="2.4578724838133295"><ele>105.0</ele><time>2026-04-02T16:56:17Z</time></trkpt><trkpt lat="49.51427605933458" lon="2.4577648044769687"><ele>105.0</ele><time>2026-04-02T16:56:18Z</time></trkpt><trkpt lat="49.514252361540095" lon="2.4576661487548828"><ele>105.0</ele><time>2026-04-02T16:56:19Z</time></trkpt><trkpt lat="49.51423155198634" lon="2.4575679661872973"><ele>105.0</ele><time>2026-04-02T16:56:20Z</time></trkpt><trkpt lat="49.51419838921687" lon="2.4573831876758296"><ele>104.75</ele><time>2026-04-02T16:56:22Z</time></trkpt><trkpt lat="49.51415585048188" lon="2.4572017267760926"><ele>104.5</ele><time>2026-04-02T16:56:24Z</time></trkpt><trkpt lat="49.51412310602167" lon="2.4570285161614565"><ele>104.25</ele><time>2026-04-02T16:56:26Z</time></trkpt><trkpt lat="49.51408834916695" lon="2.4568636228760905"><ele>104.0</ele><time>2026-04-02T16:56:28Z</time></trkpt><trkpt lat="49.514047290507854" lon="2.4567073527709598"><ele>104.0</ele><time>2026-04-02T16:56:30Z</time></trkpt><trkpt lat="49.5140175297468" lon="2.4565653904271416"><ele>104.0</ele><time>2026-04-02T16:56:32Z</time></trkpt><trkpt lat="49.51399229190709" lon="2.456423014711526"><ele>104.0</ele><time>2026-04-02T16:56:34Z</time></trkpt><trkpt lat="49.51396077009506" lon="2.456290567703832"><ele>104.0</ele><time>2026-04-02T16:56:36Z</time></trkpt><trkpt lat="49.51393238597644" lon="2.4561605009884246"><ele>104.0</ele><time>2026-04-02T16:56:38Z</time></trkpt><trkpt lat="49.51390552604667" lon="2.4560376113461904"><ele>103.99999999999999</ele><time>2026-04-02T16:56:40Z</time></trkpt><trkpt lat="49.513880044478455" lon="2.4559155517858358"><ele>104.0</ele><time>2026-04-02T16:56:42Z</time></trkpt><trkpt lat="49.51386015215752" lon="2.455803167684011"><ele>104.0</ele><time>2026-04-02T16:56:44Z</time></trkpt><trkpt lat="49.513836958606596" lon="2.455698505153044"><ele>104.0</ele><time>2026-04-02T16:56:46Z</time></trkpt><trkpt lat="49.51381564064863" lon="2.455597910692682"><ele>103.99999999999999</ele><time>2026-04-02T16:56:48Z</time></trkpt><trkpt lat="49.51379391539853" lon="2.455497405104074"><ele>104.0</ele><time>2026-04-02T16:56:50Z</time></trkpt><trkpt lat="49.51376251407134" lon="2.4553625367750667"><ele>104.99999999999999</ele><time>2026-04-02T16:56:53Z</time></trkpt><trkpt lat="49.513737552729594" lon="2.4552691560090545"><ele>106.0</ele><time>2026-04-02T16:56:55Z</time></trkpt><trkpt lat="49.51372009557665" lon="2.455174919202768"><ele>107.0</ele><time>2026-04-02T16:56:57Z</time></trkpt><trkpt lat="49.51368727334852" lon="2.45505290620522"><ele>108.0</ele><time>2026-04-02T16:57:00Z</time></trkpt><trkpt lat="49.51365216055637" lon="2.4549218639828454"><ele>108.99999999999999</ele><time>2026-04-02T16:57:02.999Z</time></trkpt><trkpt lat="49.513621126963" lon="2.4547904532366105"><ele>110.0</ele><time>2026-04-02T16:57:05.999Z</time></trkpt><trkpt lat="49.513599341059276" lon="2.4546953531356817"><ele>109.85714285714285</ele><time>2026-04-02T16:57:07.999Z</time></trkpt><trkpt lat="49.51357604287615" lon="2.4545946773606153"><ele>109.71428571428571</ele><time>2026-04-02T16:57:09.999Z</time></trkpt><trkpt lat="49.51355437177255" lon="2.4544958514616537"><ele>109.57142857142857</ele><time>2026-04-02T16:57:11.999Z</time></trkpt><trkpt lat="49.51353819540873" lon="2.4543951357963296"><ele>109.42857142857142</ele><time>2026-04-02T16:57:13.999Z</time></trkpt><trkpt lat="49.513513520018286" lon="2.454300401142241"><ele>109.28571428571429</ele><time>2026-04-02T16:57:15.999Z</time></trkpt><trkpt lat="49.51349103937061" lon="2.4542023663306165"><ele>109.14285714285714</ele><time>2026-04-02T16:57:17.999Z</time></trkpt><trkpt lat="49.51347162750941" lon="2.4540994832544496"><ele>109.0</ele><time>2026-04-02T16:57:19.999Z</time></trkpt><trkpt lat="49.513448370249534" lon="2.4539990657878237"><ele>109.00000000000001</ele><time>2026-04-02T16:57:21.999Z</time></trkpt><trkpt lat="49.51342638784613" lon="2.4539034962564705"><ele>109.0</ele><time>2026-04-02T16:57:23.999Z</time></trkpt><trkpt lat="49.51341110332887" lon="2.453799772086427"><ele>109.0</ele><time>2026-04-02T16:57:25.999Z</time></trkpt><trkpt lat="49.513396817697775" lon="2.4536870551452603"><ele>109.0</ele><time>2026-04-02T16:57:27.999Z</time></trkpt><trkpt lat="49.51337138181046" lon="2.453555268587369"><ele>109.00000000000001</ele><time>2026-04-02T16:57:29.999Z</time></trkpt><trkpt lat="49.513351394935476" lon="2.453408201270704"><ele>109.0</ele><time>2026-04-02T16:57:31.999Z</time></trkpt><trkpt lat="49.513323800713756" lon="2.453232214454586"><ele>108.2</ele><time>2026-04-02T16:57:33.999Z</time></trkpt><trkpt lat="49.51329410365937" lon="2.453049529811976"><ele>107.4</ele><time>2026-04-02T16:57:35.999Z</time></trkpt><trkpt lat="49.51327765618077" lon="2.452955470447943"><ele>106.6</ele><time>2026-04-02T16:57:36.999Z</time></trkpt><trkpt lat="49.5132451493831" lon="2.45276901675933"><ele>105.8</ele><time>2026-04-02T16:57:38.999Z</time></trkpt><trkpt lat="49.513215491858396" lon="2.4525831001921405"><ele>105.0</ele><time>2026-04-02T16:57:40.999Z</time></trkpt><trkpt lat="49.51318740473342" lon="2.452403740151391"><ele>104.4</ele><time>2026-04-02T16:57:42.999Z</time></trkpt><trkpt lat="49.51316032062772" lon="2.4522251524650915"><ele>103.8</ele><time>2026-04-02T16:57:44.999Z</time></trkpt><trkpt lat="49.51313746706027" lon="2.452054546690932"><ele>103.19999999999999</ele><time>2026-04-02T16:57:46.999Z</time></trkpt><trkpt lat="49.51311421289609" lon="2.45189065381077"><ele>102.6</ele><time>2026-04-02T16:57:48.999Z</time></trkpt><trkpt lat="49.51309504945737" lon="2.451735494384038"><ele>102.0</ele><time>2026-04-02T16:57:50.999Z</time></trkpt><trkpt lat="49.5130745306294" lon="2.451583308688941"><ele>102.0</ele><time>2026-04-02T16:57:53Z</time></trkpt><trkpt lat="49.51305295740559" lon="2.4514454658811595"><ele>102.0</ele><time>2026-04-02T16:57:55Z</time></trkpt><trkpt lat="49.513038932910476" lon="2.451316044592747"><ele>102.0</ele><time>2026-04-02T16:57:57Z</time></trkpt><trkpt lat="49.51301849381883" lon="2.4511846528947134"><ele>102.0</ele><time>2026-04-02T16:57:59Z</time></trkpt><trkpt lat="49.51300095473033" lon="2.451044581971065"><ele>102.0</ele><time>2026-04-02T16:58:01Z</time></trkpt><trkpt lat="49.51298242702542" lon="2.450907445938762"><ele>102.0</ele><time>2026-04-02T16:58:03Z</time></trkpt><trkpt lat="49.5129631235242" lon="2.450772937022921"><ele>102.0</ele><time>2026-04-02T16:58:05Z</time></trkpt><trkpt lat="49.5129417263965" lon="2.45064158200822"><ele>102.0</ele><time>2026-04-02T16:58:07Z</time></trkpt><trkpt lat="49.51291898447816" lon="2.4505142837880136"><ele>102.0</ele><time>2026-04-02T16:58:09Z</time></trkpt><trkpt lat="49.51289548636567" lon="2.4503865732309222"><ele>102.0</ele><time>2026-04-02T16:58:11Z</time></trkpt><trkpt lat="49.51287632239494" lon="2.4502645460333654"><ele>102.0</ele><time>2026-04-02T16:58:13Z</time></trkpt><trkpt lat="49.51285629771334" lon="2.4501457246162315"><ele>102.0</ele><time>2026-04-02T16:58:15Z</time></trkpt><trkpt lat="49.5128307068085" lon="2.4500329192886627"><ele>102.39999999999999</ele><time>2026-04-02T16:58:17Z</time></trkpt><trkpt lat="49.51280476253929" lon="2.44990728118327"><ele>102.8</ele><time>2026-04-02T16:58:19Z</time></trkpt><trkpt lat="49.512779092639335" lon="2.4497778694361663"><ele>103.2</ele><time>2026-04-02T16:58:21Z</time></trkpt><trkpt lat="49.51274795128918" lon="2.449639802806075"><ele>103.6</ele><time>2026-04-02T16:58:23Z</time></trkpt><trkpt lat="49.51270496841382" lon="2.4494931368220554"><ele>104.0</ele><time>2026-04-02T16:58:25Z</time></trkpt><trkpt lat="49.512658430911834" lon="2.4493342971750773"><ele>103.99999999999999</ele><time>2026-04-02T16:58:27Z</time></trkpt><trkpt lat="49.51260376938933" lon="2.449165390957104"><ele>104.0</ele><time>2026-04-02T16:58:29Z</time></trkpt><trkpt lat="49.51257462411155" lon="2.449075747824704"><ele>104.0</ele><time>2026-04-02T16:58:30Z</time></trkpt><trkpt lat="49.51254365921967" lon="2.448986768768015"><ele>104.0</ele><time>2026-04-02T16:58:31Z</time></trkpt><trkpt lat="49.51251376895546" lon="2.448895633320261"><ele>103.99999999999999</ele><time>2026-04-02T16:58:32Z</time></trkpt><trkpt lat="49.51248320602112" lon="2.448806384184648"><ele>104.0</ele><time>2026-04-02T16:58:33Z</time></trkpt><trkpt lat="49.512452604841826" lon="2.448712716370899"><ele>103.42857142857143</ele><time>2026-04-02T16:58:34Z</time></trkpt><trkpt lat="49.512422164739135" lon="2.4486155734450072"><ele>102.85714285714286</ele><time>2026-04-02T16:58:35Z</time></trkpt><trkpt lat="49.51238913666368" lon="2.448524990616978"><ele>102.28571428571429</ele><time>2026-04-02T16:58:36Z</time></trkpt><trkpt lat="49.51236042205508" lon="2.448427179293062"><ele>101.71428571428572</ele><time>2026-04-02T16:58:37Z</time></trkpt><trkpt lat="49.512327322411124" lon="2.44833205313808"><ele>101.14285714285714</ele><time>2026-04-02T16:58:38Z</time></trkpt><trkpt lat="49.51229906263585" lon="2.4482364084491084"><ele>100.57142857142858</ele><time>2026-04-02T16:58:39Z</time></trkpt><trkpt lat="49.51226651028513" lon="2.4481449671059843"><ele>100.0</ele><time>2026-04-02T16:58:40Z</time></trkpt><trkpt lat="49.51223432514941" lon="2.4480491440073795"><ele>100.00000000000001</ele><time>2026-04-02T16:58:41Z</time></trkpt><trkpt lat="49.51220398353935" lon="2.447953536928543"><ele>100.0</ele><time>2026-04-02T16:58:42Z</time></trkpt><trkpt lat="49.51216985551211" lon="2.4478586618471514"><ele>100.0</ele><time>2026-04-02T16:58:43Z</time></trkpt><trkpt lat="49.5121396078973" lon="2.447766050466343"><ele>100.0</ele><time>2026-04-02T16:58:44Z</time></trkpt><trkpt lat="49.512108460580606" lon="2.447674545441732"><ele>100.0</ele><time>2026-04-02T16:58:45Z</time></trkpt><trkpt lat="49.51207996109759" lon="2.4475762435082817"><ele>100.00000000000001</ele><time>2026-04-02T16:58:46Z</time></trkpt><trkpt lat="49.51204791300698" lon="2.447481639940276"><ele>100.0</ele><time>2026-04-02T16:58:47Z</time></trkpt><trkpt lat="49.51201588258471" lon="2.4473869890699476"><ele>100.00000000000001</ele><time>2026-04-02T16:58:48Z</time></trkpt><trkpt lat="49.51198574973032" lon="2.4472893210847264"><ele>100.0</ele><time>2026-04-02T16:58:49Z</time></trkpt><trkpt lat="49.511950637962435" lon="2.4471925957402636"><ele>100.0</ele><time>2026-04-02T16:58:50Z</time></trkpt><trkpt lat="49.5119181210826" lon="2.447094055558198"><ele>100.0</ele><time>2026-04-02T16:58:51Z</time></trkpt><trkpt lat="49.511884450151065" lon="2.446996388525102"><ele>100.0</ele><time>2026-04-02T16:58:52Z</time></trkpt><trkpt lat="49.511848905610194" lon="2.4468977927929854"><ele>100.00000000000001</ele><time>2026-04-02T16:58:53Z</time></trkpt><trkpt lat="49.51181019385302" lon="2.4468031452445307"><ele>100.0</ele><time>2026-04-02T16:58:54Z</time></trkpt><trkpt lat="49.51177309583068" lon="2.4467068412889788"><ele>99.42857142857143</ele><time>2026-04-02T16:58:55Z</time></trkpt><trkpt lat="49.511735173777645" lon="2.446611122620231"><ele>98.85714285714286</ele><time>2026-04-02T16:58:56Z</time></trkpt><trkpt lat="49.51169469701088" lon="2.446520943042832"><ele>98.28571428571428</ele><time>2026-04-02T16:58:57Z</time></trkpt><trkpt lat="49.511656872439055" lon="2.446432179748397"><ele>97.71428571428572</ele><time>2026-04-02T16:58:58Z</time></trkpt><trkpt lat="49.5116134992413" lon="2.4463412312234816"><ele>97.14285714285714</ele><time>2026-04-02T16:58:59Z</time></trkpt><trkpt lat="49.51157037432742" lon="2.4462513560385215"><ele>96.57142857142857</ele><time>2026-04-02T16:59:00Z</time></trkpt><trkpt lat="49.5115275388565" lon="2.4461558827750602"><ele>96.0</ele><time>2026-04-02T16:59:01Z</time></trkpt><trkpt lat="49.511478997454624" lon="2.4460593676664"><ele>96.14285714285714</ele><time>2026-04-02T16:59:02Z</time></trkpt><trkpt lat="49.51143261372488" lon="2.445970637466715"><ele>96.28571428571428</ele><time>2026-04-02T16:59:03Z</time></trkpt><trkpt lat="49.511393413631154" lon="2.445879131048642"><ele>96.42857142857142</ele><time>2026-04-02T16:59:04Z</time></trkpt><trkpt lat="49.51135211829516" lon="2.4457870326383357"><ele>96.57142857142857</ele><time>2026-04-02T16:59:05Z</time></trkpt><trkpt lat="49.51130735681664" lon="2.445693179873373"><ele>96.71428571428572</ele><time>2026-04-02T16:59:06Z</time></trkpt><trkpt lat="49.51126686692069" lon="2.4456003504350776"><ele>96.85714285714285</ele><time>2026-04-02T16:59:07Z</time></trkpt><trkpt lat="49.51122255939454" lon="2.4455070013903932"><ele>97.0</ele><time>2026-04-02T16:59:08Z</time></trkpt><trkpt lat="49.511177827990686" lon="2.445414228218713"><ele>96.16666666666667</ele><time>2026-04-02T16:59:09Z</time></trkpt><trkpt lat="49.511134720303446" lon="2.4453183698807486"><ele>95.33333333333334</ele><time>2026-04-02T16:59:10Z</time></trkpt><trkpt lat="49.51109095905415" lon="2.4452226177013645"><ele>94.5</ele><time>2026-04-02T16:59:10.999Z</time></trkpt><trkpt lat="49.5110467289431" lon="2.4451264951068383"><ele>93.66666666666667</ele><time>2026-04-02T16:59:11.999Z</time></trkpt><trkpt lat="49.51100370589915" lon="2.445027423649037"><ele>92.83333333333334</ele><time>2026-04-02T16:59:12.999Z</time></trkpt><trkpt lat="49.51096007380768" lon="2.444929547498192"><ele>92.0</ele><time>2026-04-02T16:59:13.999Z</time></trkpt><trkpt lat="49.51092817075821" lon="2.444827569755821"><ele>92.0</ele><time>2026-04-02T16:59:14.999Z</time></trkpt><trkpt lat="49.51090448994758" lon="2.4446630077373745"><ele>92.0</ele><time>2026-04-02T16:59:16.999Z</time></trkpt><trkpt lat="49.510907644927656" lon="2.444545395554599"><ele>92.0</ele><time>2026-04-02T16:59:18.999Z</time></trkpt><trkpt lat="49.510911790311845" lon="2.4444445739182363"><ele>92.0</ele><time>2026-04-02T16:59:22.999Z</time></trkpt><trkpt lat="49.51089338334895" lon="2.4443033702998975"><ele>92.0</ele><time>2026-04-02T16:59:25.999Z</time></trkpt><trkpt lat="49.51089769547751" lon="2.4441687630171924"><ele>92.0</ele><time>2026-04-02T16:59:27.999Z</time></trkpt><trkpt lat="49.510822666129634" lon="2.4440442441361565"><ele>91.39999999999999</ele><time>2026-04-02T16:59:29.999Z</time></trkpt><trkpt lat="49.51072931949882" lon="2.443976895362503"><ele>90.8</ele><time>2026-04-02T16:59:31.999Z</time></trkpt><trkpt lat="49.510647981313845" lon="2.4438837264102644"><ele>90.2</ele><time>2026-04-02T16:59:33.999Z</time></trkpt><trkpt lat="49.51058010018751" lon="2.443755495467303"><ele>89.6</ele><time>2026-04-02T16:59:35.999Z</time></trkpt><trkpt lat="49.51051406635477" lon="2.4436184472084954"><ele>89.0</ele><time>2026-04-02T16:59:37.999Z</time></trkpt><trkpt lat="49.51045133593909" lon="2.4434819042794826"><ele>89.0</ele><time>2026-04-02T16:59:39.999Z</time></trkpt><trkpt lat="49.510389406452376" lon="2.443337240406754"><ele>89.0</ele><time>2026-04-02T16:59:41.999Z</time></trkpt><trkpt lat="49.51033695480543" lon="2.443192048604257"><ele>89.0</ele><time>2026-04-02T16:59:43.999Z</time></trkpt><trkpt lat="49.5102857884862" lon="2.443049518760635"><ele>89.0</ele><time>2026-04-02T16:59:45.999Z</time></trkpt><trkpt lat="49.51023291066345" lon="2.442907054444108"><ele>89.0</ele><time>2026-04-02T16:59:47.999Z</time></trkpt><trkpt lat="49.51018178623909" lon="2.4427643569448954"><ele>89.0</ele><time>2026-04-02T16:59:49.999Z</time></trkpt><trkpt lat="49.51013161710182" lon="2.4426247770023686"><ele>89.0</ele><time>2026-04-02T16:59:51.999Z</time></trkpt><trkpt lat="49.510091346977134" lon="2.442474136479549"><ele>89.0</ele><time>2026-04-02T16:59:53.999Z</time></trkpt><trkpt lat="49.51003174727308" lon="2.4423446952330305"><ele>89.0</ele><time>2026-04-02T16:59:55.999Z</time></trkpt><trkpt lat="49.509980334088986" lon="2.442209320240313"><ele>89.0</ele><time>2026-04-02T16:59:57.999Z</time></trkpt><trkpt lat="49.50993542544497" lon="2.442070434873513"><ele>89.4</ele><time>2026-04-02T17:00:00Z</time></trkpt><trkpt lat="49.50989052059832" lon="2.441937749065816"><ele>89.80000000000001</ele><time>2026-04-02T17:00:02Z</time></trkpt><trkpt lat="49.509847548866745" lon="2.441806135407459"><ele>90.19999999999999</ele><time>2026-04-02T17:00:04Z</time></trkpt><trkpt lat="49.50979532652511" lon="2.4416829884155167"><ele>90.6</ele><time>2026-04-02T17:00:06Z</time></trkpt><trkpt lat="49.509753606211646" lon="2.4415532337200854"><ele>91.0</ele><time>2026-04-02T17:00:08Z</time></trkpt><trkpt lat="49.509722696508355" lon="2.44141420005084"><ele>91.0</ele><time>2026-04-02T17:00:10Z</time></trkpt><trkpt lat="49.50967833486603" lon="2.4412841931507674"><ele>91.0</ele><time>2026-04-02T17:00:12Z</time></trkpt><trkpt lat="49.50963302354962" lon="2.4411544497746536"><ele>91.0</ele><time>2026-04-02T17:00:14Z</time></trkpt><trkpt lat="49.50958826538615" lon="2.441026290264804"><ele>91.0</ele><time>2026-04-02T17:00:16Z</time></trkpt><trkpt lat="49.50954482953527" lon="2.4409019170774346"><ele>91.0</ele><time>2026-04-02T17:00:18Z</time></trkpt><trkpt lat="49.50950147904016" lon="2.4407777882422623"><ele>90.66666666666666</ele><time>2026-04-02T17:00:20Z</time></trkpt><trkpt lat="49.50946036236751" lon="2.4406600556949956"><ele>90.33333333333333</ele><time>2026-04-02T17:00:22Z</time></trkpt><trkpt lat="49.50942492490594" lon="2.440558584891947"><ele>90.0</ele><time>2026-04-02T17:00:24Z</time></trkpt><trkpt lat="49.50942279112507" lon="2.440457810158666"><ele>89.66666666666667</ele><time>2026-04-02T17:00:26Z</time></trkpt><trkpt lat="49.50954459923946" lon="2.4403517569725732"><ele>89.33333333333334</ele><time>2026-04-02T17:00:30Z</time></trkpt><trkpt lat="49.50961332936302" lon="2.4402968884317913"><ele>89.0</ele><time>2026-04-02T17:00:33Z</time></trkpt><trkpt lat="49.509677883997654" lon="2.4402177956857187"><ele>90.0</ele><time>2026-04-02T17:00:36Z</time></trkpt><trkpt lat="49.50976468154767" lon="2.4401855055656516"><ele>91.0</ele><time>2026-04-02T17:00:39Z</time></trkpt><trkpt lat="49.50981534877645" lon="2.440123280768849"><ele>92.0</ele><time>2026-04-02T17:00:41Z</time></trkpt><trkpt lat="49.509903166246986" lon="2.4400674218089575"><ele>93.0</ele><time>2026-04-02T17:00:44Z</time></trkpt><trkpt lat="49.50997352706889" lon="2.4400358248830956"><ele>94.0</ele><time>2026-04-02T17:00:46Z</time></trkpt><trkpt lat="49.51004330620564" lon="2.439999123299906"><ele>95.0</ele><time>2026-04-02T17:00:48Z</time></trkpt><trkpt lat="49.51011957739667" lon="2.439971534394953"><ele>95.0</ele><time>2026-04-02T17:00:50Z</time></trkpt><trkpt lat="49.510197495356806" lon="2.4399221426712243"><ele>95.0</ele><time>2026-04-02T17:00:52Z</time></trkpt><trkpt lat="49.510288294108044" lon="2.439903985014811"><ele>95.0</ele><time>2026-04-02T17:00:55Z</time></trkpt><trkpt lat="49.5103703330156" lon="2.4398682716704516"><ele>95.0</ele><time>2026-04-02T17:00:58Z</time></trkpt><trkpt lat="49.510447388334605" lon="2.4398509188167425"><ele>95.0</ele><time>2026-04-02T17:01:01Z</time></trkpt><trkpt lat="49.510523403702145" lon="2.439835836056441"><ele>95.0</ele><time>2026-04-02T17:01:04Z</time></trkpt><trkpt lat="49.51059256404578" lon="2.43982101166509"><ele>94.83333333333334</ele><time>2026-04-02T17:01:07Z</time></trkpt><trkpt lat="49.51066088737899" lon="2.4398104216808574"><ele>94.66666666666667</ele><time>2026-04-02T17:01:10Z</time></trkpt><trkpt lat="49.510738873500394" lon="2.4398038133697555"><ele>94.5</ele><time>2026-04-02T17:01:13Z</time></trkpt><trkpt lat="49.51081720643462" lon="2.43980243077243"><ele>94.33333333333333</ele><time>2026-04-02T17:01:16Z</time></trkpt><trkpt lat="49.5108914291948" lon="2.439792224866952"><ele>94.16666666666666</ele><time>2026-04-02T17:01:19Z</time></trkpt><trkpt lat="49.51096840514386" lon="2.4397970971677743"><ele>94.0</ele><time>2026-04-02T17:01:21.999Z</time></trkpt><trkpt lat="49.51105034583471" lon="2.439805826701755"><ele>94.0</ele><time>2026-04-02T17:01:24.999Z</time></trkpt><trkpt lat="49.51111395095385" lon="2.4398127021855696"><ele>94.0</ele><time>2026-04-02T17:01:26.999Z</time></trkpt><trkpt lat="49.51118116264507" lon="2.439816013503102"><ele>94.0</ele><time>2026-04-02T17:01:28.999Z</time></trkpt><trkpt lat="49.51125519596517" lon="2.4398153386487786"><ele>94.0</ele><time>2026-04-02T17:01:30.999Z</time></trkpt><trkpt lat="49.51133801785216" lon="2.4398266759728626"><ele>94.0</ele><time>2026-04-02T17:01:32.999Z</time></trkpt><trkpt lat="49.51143195413873" lon="2.4398249052012355"><ele>94.0</ele><time>2026-04-02T17:01:34.999Z</time></trkpt><trkpt lat="49.51152805107412" lon="2.4399127350505343"><ele>94.0</ele><time>2026-04-02T17:01:36.999Z</time></trkpt><trkpt lat="49.51160945449836" lon="2.4400468498269503"><ele>94.0</ele><time>2026-04-02T17:01:38.999Z</time></trkpt><trkpt lat="49.51164931697412" lon="2.440124257757185"><ele>94.0</ele><time>2026-04-02T17:01:39.999Z</time></trkpt><trkpt lat="49.51169019050794" lon="2.4402049920137254"><ele>94.0</ele><time>2026-04-02T17:01:40.999Z</time></trkpt><trkpt lat="49.511733045107356" lon="2.440278341341745"><ele>94.0</ele><time>2026-04-02T17:01:41.999Z</time></trkpt><trkpt lat="49.511770766597884" lon="2.4403624534762955"><ele>94.0</ele><time>2026-04-02T17:01:42.999Z</time></trkpt><trkpt lat="49.51180776143539" lon="2.440489132552631"><ele>93.66666666666666</ele><time>2026-04-02T17:01:44.999Z</time></trkpt><trkpt lat="49.511789616187556" lon="2.4406041151627016"><ele>93.33333333333333</ele><time>2026-04-02T17:01:46.999Z</time></trkpt><trkpt lat="49.51170214837818" lon="2.4406545541999276"><ele>93.0</ele><time>2026-04-02T17:01:48.999Z</time></trkpt><trkpt lat="49.51161499441633" lon="2.4406364488475387"><ele>92.66666666666667</ele><time>2026-04-02T17:01:50.999Z</time></trkpt><trkpt lat="49.51153212735286" lon="2.4406378591734206"><ele>92.33333333333334</ele><time>2026-04-02T17:01:52.999Z</time></trkpt><trkpt lat="49.51145156465259" lon="2.4406380835063093"><ele>92.0</ele><time>2026-04-02T17:01:54.999Z</time></trkpt><trkpt lat="49.51136843350126" lon="2.440652929619026"><ele>92.0</ele><time>2026-04-02T17:01:56.999Z</time></trkpt><trkpt lat="49.511288328210604" lon="2.4406761814378077"><ele>92.0</ele><time>2026-04-02T17:01:58.999Z</time></trkpt><trkpt lat="49.511198770747605" lon="2.4406771424849474"><ele>92.0</ele><time>2026-04-02T17:02:00.999Z</time></trkpt><trkpt lat="49.511115412888145" lon="2.4407028797079673"><ele>92.0</ele><time>2026-04-02T17:02:02.999Z</time></trkpt><trkpt lat="49.511041769123686" lon="2.440751129273819"><ele>92.0</ele><time>2026-04-02T17:02:05Z</time></trkpt><trkpt lat="49.510975515987234" lon="2.4407470980853323"><ele>92.0</ele><time>2026-04-02T17:02:07Z</time></trkpt><trkpt lat="49.5109528620403" lon="2.4404973549232594"><ele>93.0</ele><time>2026-04-02T17:02:13Z</time></trkpt><trkpt lat="49.51095415676472" lon="2.4404002481934253"><ele>94.0</ele><time>2026-04-02T17:02:17Z</time></trkpt></trkseg></trk></gpx>